<?xml version="1.0" encoding="UTF-8"?>
<gpx creator="Patrick Hooper" version="1.1" xmlns="http://www.topografix.com/GPX/1/1" xmlns:xsi="http://www.w3.org/2001/XMLSchema-instance" xsi:schemaLocation="http://www.topografix.com/GPX/1/1 http://www.topografix.com/GPX/1/1/gpx.xsd http://www.garmin.com/xmlschemas/GpxExtensions/v3 http://www.garmin.com/xmlschemas/GpxExtensionsv3.xsd http://www.garmin.com/xmlschemas/TrackPointExtension/v1 http://www.garmin.com/xmlschemas/TrackPointExtensionv1.xsd">
  <metadata>
    <name>Activity</name>
  </metadata>
  <trk>
    <name>a</name>
    <trkseg>
      <trkpt lat="30.645038649362277" lon="35.20838589115206">
        <ele>-52</ele>
        <time>2026-06-10T15:19:48.453Z</time>
      </trkpt>
      <trkpt lat="30.645103878790973" lon="35.20841788966398">
        <ele>-52</ele>
        <time>2026-06-10T15:19:49.453Z</time>
      </trkpt>
      <trkpt lat="30.64513256352691" lon="35.208347295411244">
        <ele>-52</ele>
        <time>2026-06-10T15:19:50.453Z</time>
      </trkpt>
      <trkpt lat="30.645128651972012" lon="35.20821951795115">
        <ele>-52</ele>
        <time>2026-06-10T15:19:51.453Z</time>
      </trkpt>
      <trkpt lat="30.645001060776437" lon="35.207131174366125">
        <ele>-51</ele>
        <time>2026-06-10T15:19:52.453Z</time>
      </trkpt>
      <trkpt lat="30.644960641375793" lon="35.206936155414645">
        <ele>-51</ele>
        <time>2026-06-10T15:19:53.453Z</time>
      </trkpt>
      <trkpt lat="30.64485167663213" lon="35.20660888865461">
        <ele>-51</ele>
        <time>2026-06-10T15:19:54.453Z</time>
      </trkpt>
      <trkpt lat="30.644835844148005" lon="35.20646900400077">
        <ele>-49</ele>
        <time>2026-06-10T15:19:55.453Z</time>
      </trkpt>
      <trkpt lat="30.64489209603277" lon="35.20629074885601">
        <ele>-49</ele>
        <time>2026-06-10T15:19:56.453Z</time>
      </trkpt>
      <trkpt lat="30.64493698578187" lon="35.206028115884095">
        <ele>-49</ele>
        <time>2026-06-10T15:19:57.453Z</time>
      </trkpt>
      <trkpt lat="30.64498615961491" lon="35.20594373805695">
        <ele>-49</ele>
        <time>2026-06-10T15:19:58.453Z</time>
      </trkpt>
      <trkpt lat="30.645092889184347" lon="35.20582769526156">
        <ele>-49</ele>
        <time>2026-06-10T15:19:59.453Z</time>
      </trkpt>
      <trkpt lat="30.645131632204315" lon="35.20570755464675">
        <ele>-49</ele>
        <time>2026-06-10T15:20:00.453Z</time>
      </trkpt>
      <trkpt lat="30.645136288817294" lon="35.20554420066351">
        <ele>-49</ele>
        <time>2026-06-10T15:20:01.453Z</time>
      </trkpt>
      <trkpt lat="30.645099035913475" lon="35.2049565361058">
        <ele>-49</ele>
        <time>2026-06-10T15:20:02.453Z</time>
      </trkpt>
      <trkpt lat="30.64510425132001" lon="35.20484067957492">
        <ele>-49</ele>
        <time>2026-06-10T15:20:03.453Z</time>
      </trkpt>
      <trkpt lat="30.64512883823653" lon="35.20469166795965">
        <ele>-47</ele>
        <time>2026-06-10T15:20:04.453Z</time>
      </trkpt>
      <trkpt lat="30.645140759165752" lon="35.204619211061726">
        <ele>-47</ele>
        <time>2026-06-10T15:20:05.453Z</time>
      </trkpt>
      <trkpt lat="30.645168326314575" lon="35.204511922698735">
        <ele>-47</ele>
        <time>2026-06-10T15:20:06.453Z</time>
      </trkpt>
      <trkpt lat="30.645425743879954" lon="35.20386893757885">
        <ele>-50</ele>
        <time>2026-06-10T15:20:07.453Z</time>
      </trkpt>
      <trkpt lat="30.645727119871836" lon="35.20321626670397">
        <ele>-50</ele>
        <time>2026-06-10T15:20:08.453Z</time>
      </trkpt>
      <trkpt lat="30.64580143941495" lon="35.202866834466164">
        <ele>-48</ele>
        <time>2026-06-10T15:20:09.453Z</time>
      </trkpt>
      <trkpt lat="30.64581615431196" lon="35.20250883406048">
        <ele>-48</ele>
        <time>2026-06-10T15:20:10.453Z</time>
      </trkpt>
      <trkpt lat="30.645778901408143" lon="35.20215977435171">
        <ele>-48</ele>
        <time>2026-06-10T15:20:11.453Z</time>
      </trkpt>
      <trkpt lat="30.64568521035504" lon="35.20181108717198">
        <ele>-48</ele>
        <time>2026-06-10T15:20:12.453Z</time>
      </trkpt>
      <trkpt lat="30.645343973756074" lon="35.2009680539586">
        <ele>-47</ele>
        <time>2026-06-10T15:20:13.453Z</time>
      </trkpt>
      <trkpt lat="30.64530597579418" lon="35.200856481511664">
        <ele>-47</ele>
        <time>2026-06-10T15:20:14.453Z</time>
      </trkpt>
      <trkpt lat="30.645254566786914" lon="35.200633150353276">
        <ele>-44</ele>
        <time>2026-06-10T15:20:15.453Z</time>
      </trkpt>
      <trkpt lat="30.645204461631277" lon="35.19999053776243">
        <ele>-44</ele>
        <time>2026-06-10T15:20:16.453Z</time>
      </trkpt>
      <trkpt lat="30.64512902450105" lon="35.19951332806453">
        <ele>-44</ele>
        <time>2026-06-10T15:20:17.453Z</time>
      </trkpt>
      <trkpt lat="30.6450738902034" lon="35.198125843661856">
        <ele>-44</ele>
        <time>2026-06-10T15:20:18.453Z</time>
      </trkpt>
      <trkpt lat="30.645029559247856" lon="35.19753594392991">
        <ele>-44</ele>
        <time>2026-06-10T15:20:19.453Z</time>
      </trkpt>
      <trkpt lat="30.645042597764192" lon="35.1973250924943">
        <ele>-42</ele>
        <time>2026-06-10T15:20:20.453Z</time>
      </trkpt>
      <trkpt lat="30.645035147183428" lon="35.1971015750714">
        <ele>-42</ele>
        <time>2026-06-10T15:20:21.453Z</time>
      </trkpt>
      <trkpt lat="30.64491109501372" lon="35.1962896480327">
        <ele>-37</ele>
        <time>2026-06-10T15:20:22.453Z</time>
      </trkpt>
      <trkpt lat="30.644914261510543" lon="35.19611157915246">
        <ele>-37</ele>
        <time>2026-06-10T15:20:23.453Z</time>
      </trkpt>
      <trkpt lat="30.644961013904833" lon="35.19592103054943">
        <ele>-37</ele>
        <time>2026-06-10T15:20:24.453Z</time>
      </trkpt>
      <trkpt lat="30.645563579624078" lon="35.194745142640436">
        <ele>-37</ele>
        <time>2026-06-10T15:20:25.453Z</time>
      </trkpt>
      <trkpt lat="30.6458692396999" lon="35.194091726707484">
        <ele>-37</ele>
        <time>2026-06-10T15:20:26.453Z</time>
      </trkpt>
      <trkpt lat="30.646123490768453" lon="35.193376098425155">
        <ele>-34</ele>
        <time>2026-06-10T15:20:27.453Z</time>
      </trkpt>
      <trkpt lat="30.64622779889914" lon="35.19294247462472">
        <ele>-38</ele>
        <time>2026-06-10T15:20:28.453Z</time>
      </trkpt>
      <trkpt lat="30.64624419017682" lon="35.192794766861084">
        <ele>-38</ele>
        <time>2026-06-10T15:20:29.453Z</time>
      </trkpt>
      <trkpt lat="30.646247542938163" lon="35.19233003688596">
        <ele>-38</ele>
        <time>2026-06-10T15:20:30.453Z</time>
      </trkpt>
      <trkpt lat="30.64620339824714" lon="35.19167941492079">
        <ele>-38</ele>
        <time>2026-06-10T15:20:31.453Z</time>
      </trkpt>
      <trkpt lat="30.64626002266094" lon="35.19108355472424">
        <ele>-38</ele>
        <time>2026-06-10T15:20:32.453Z</time>
      </trkpt>
      <trkpt lat="30.646136343020267" lon="35.189702775844246">
        <ele>-34</ele>
        <time>2026-06-10T15:20:33.453Z</time>
      </trkpt>
      <trkpt lat="30.645977086856448" lon="35.18876921807459">
        <ele>-31</ele>
        <time>2026-06-10T15:20:34.453Z</time>
      </trkpt>
      <trkpt lat="30.645877994132295" lon="35.18781144591745">
        <ele>-33</ele>
        <time>2026-06-10T15:20:35.453Z</time>
      </trkpt>
      <trkpt lat="30.645856759977118" lon="35.186605010627325">
        <ele>-32</ele>
        <time>2026-06-10T15:20:36.453Z</time>
      </trkpt>
      <trkpt lat="30.645858063828754" lon="35.186122958051925">
        <ele>-32</ele>
        <time>2026-06-10T15:20:37.453Z</time>
      </trkpt>
      <trkpt lat="30.645879297983928" lon="35.1855606254688">
        <ele>-32</ele>
        <time>2026-06-10T15:20:38.453Z</time>
      </trkpt>
      <trkpt lat="30.64587277872576" lon="35.18517226394651">
        <ele>-32</ele>
        <time>2026-06-10T15:20:39.453Z</time>
      </trkpt>
      <trkpt lat="30.64593778504292" lon="35.18478781397911">
        <ele>-30</ele>
        <time>2026-06-10T15:20:40.453Z</time>
      </trkpt>
      <trkpt lat="30.64603389753477" lon="35.18443018610247">
        <ele>-30</ele>
        <time>2026-06-10T15:20:41.453Z</time>
      </trkpt>
      <trkpt lat="30.64606723888369" lon="35.18431507462967">
        <ele>-30</ele>
        <time>2026-06-10T15:20:42.453Z</time>
      </trkpt>
      <trkpt lat="30.646167635459474" lon="35.184006993115105">
        <ele>-29</ele>
        <time>2026-06-10T15:20:43.453Z</time>
      </trkpt>
      <trkpt lat="30.646316647074745" lon="35.183682520322854">
        <ele>-29</ele>
        <time>2026-06-10T15:20:44.453Z</time>
      </trkpt>
      <trkpt lat="30.64639078035334" lon="35.18345509134505">
        <ele>-29</ele>
        <time>2026-06-10T15:20:45.453Z</time>
      </trkpt>
      <trkpt lat="30.646440326715418" lon="35.183091689268316">
        <ele>-28</ele>
        <time>2026-06-10T15:20:46.453Z</time>
      </trkpt>
      <trkpt lat="30.646538674381496" lon="35.18256716838257">
        <ele>-28</ele>
        <time>2026-06-10T15:20:47.453Z</time>
      </trkpt>
      <trkpt lat="30.64657201573041" lon="35.18225275387435">
        <ele>-26</ele>
        <time>2026-06-10T15:20:48.453Z</time>
      </trkpt>
      <trkpt lat="30.64658226027896" lon="35.18187780339743">
        <ele>-26</ele>
        <time>2026-06-10T15:20:49.453Z</time>
      </trkpt>
      <trkpt lat="30.6465416546138" lon="35.18154308605663">
        <ele>-26</ele>
        <time>2026-06-10T15:20:50.453Z</time>
      </trkpt>
      <trkpt lat="30.646543330994472" lon="35.181392956854246">
        <ele>-27</ele>
        <time>2026-06-10T15:20:51.453Z</time>
      </trkpt>
      <trkpt lat="30.646773740204583" lon="35.18054806099567">
        <ele>-27</ele>
        <time>2026-06-10T15:20:52.453Z</time>
      </trkpt>
      <trkpt lat="30.64695106402675" lon="35.17979946389346">
        <ele>-24</ele>
        <time>2026-06-10T15:20:53.453Z</time>
      </trkpt>
      <trkpt lat="30.64712075100364" lon="35.179148096870215">
        <ele>-26</ele>
        <time>2026-06-10T15:20:54.453Z</time>
      </trkpt>
      <trkpt lat="30.647512651551796" lon="35.17836615841909">
        <ele>-23</ele>
        <time>2026-06-10T15:20:55.453Z</time>
      </trkpt>
      <trkpt lat="30.647653840057266" lon="35.178189952184034">
        <ele>-23</ele>
        <time>2026-06-10T15:20:56.453Z</time>
      </trkpt>
      <trkpt lat="30.648041456521483" lon="35.177876096469376">
        <ele>-27</ele>
        <time>2026-06-10T15:20:57.453Z</time>
      </trkpt>
      <trkpt lat="30.648131236019683" lon="35.17775856355783">
        <ele>-27</ele>
        <time>2026-06-10T15:20:58.453Z</time>
      </trkpt>
      <trkpt lat="30.648101823466398" lon="35.17791570134252">
        <ele>-27</ele>
        <time>2026-06-10T15:20:59.453Z</time>
      </trkpt>
      <trkpt lat="30.648101823466398" lon="35.17791570134252">
        <ele>-27</ele>
        <time>2026-06-10T15:21:00.453Z</time>
      </trkpt>
      <trkpt lat="30.648101823466398" lon="35.17791570134252">
        <ele>-27</ele>
        <time>2026-06-10T15:21:01.453Z</time>
      </trkpt>
      <trkpt lat="30.648131236019683" lon="35.17775856355783">
        <ele>-27</ele>
        <time>2026-06-10T15:21:02.453Z</time>
      </trkpt>
      <trkpt lat="30.648214682524234" lon="35.17760824809093">
        <ele>-27</ele>
        <time>2026-06-10T15:21:03.453Z</time>
      </trkpt>
      <trkpt lat="30.648318431861366" lon="35.177260678498314">
        <ele>-26</ele>
        <time>2026-06-10T15:21:04.453Z</time>
      </trkpt>
      <trkpt lat="30.64840318221755" lon="35.17707404145019">
        <ele>-26</ele>
        <time>2026-06-10T15:21:05.453Z</time>
      </trkpt>
      <trkpt lat="30.648575290633186" lon="35.17678477265205">
        <ele>-26</ele>
        <time>2026-06-10T15:21:06.453Z</time>
      </trkpt>
      <trkpt lat="30.6487824389533" lon="35.17639720074159">
        <ele>-24</ele>
        <time>2026-06-10T15:21:07.453Z</time>
      </trkpt>
      <trkpt lat="30.6487824389533" lon="35.17639720074159">
        <ele>-24</ele>
        <time>2026-06-10T15:21:08.453Z</time>
      </trkpt>
      <trkpt lat="30.649184561875117" lon="35.17564483379524">
        <ele>-22</ele>
        <time>2026-06-10T15:21:09.453Z</time>
      </trkpt>
      <trkpt lat="30.649556904648772" lon="35.17508343253471">
        <ele>-18</ele>
        <time>2026-06-10T15:21:10.453Z</time>
      </trkpt>
      <trkpt lat="30.649633273101596" lon="35.174919706022436">
        <ele>-18</ele>
        <time>2026-06-10T15:21:11.453Z</time>
      </trkpt>
      <trkpt lat="30.649738698819398" lon="35.174526501622644">
        <ele>-19</ele>
        <time>2026-06-10T15:21:12.453Z</time>
      </trkpt>
      <trkpt lat="30.6499095033834" lon="35.17350707590968">
        <ele>-20</ele>
        <time>2026-06-10T15:21:13.453Z</time>
      </trkpt>
      <trkpt lat="30.649949550255005" lon="35.17337892592055">
        <ele>-20</ele>
        <time>2026-06-10T15:21:14.453Z</time>
      </trkpt>
      <trkpt lat="30.6500285264111" lon="35.173248168228156">
        <ele>-20</ele>
        <time>2026-06-10T15:21:15.453Z</time>
      </trkpt>
      <trkpt lat="30.650087013470092" lon="35.173115175361524">
        <ele>-19</ele>
        <time>2026-06-10T15:21:16.453Z</time>
      </trkpt>
      <trkpt lat="30.650103218483252" lon="35.17303824811514">
        <ele>-19</ele>
        <time>2026-06-10T15:21:17.453Z</time>
      </trkpt>
      <trkpt lat="30.650059632585787" lon="35.17275587110421">
        <ele>-19</ele>
        <time>2026-06-10T15:21:18.453Z</time>
      </trkpt>
      <trkpt lat="30.650082729386153" lon="35.17261226115999">
        <ele>-19</ele>
        <time>2026-06-10T15:21:19.453Z</time>
      </trkpt>
      <trkpt lat="30.65016263686484" lon="35.17248243479019">
        <ele>-19</ele>
        <time>2026-06-10T15:21:20.453Z</time>
      </trkpt>
      <trkpt lat="30.650327294699714" lon="35.172323923684445">
        <ele>-17</ele>
        <time>2026-06-10T15:21:21.453Z</time>
      </trkpt>
      <trkpt lat="30.650432347888476" lon="35.17219316599205">
        <ele>-17</ele>
        <time>2026-06-10T15:21:22.453Z</time>
      </trkpt>
      <trkpt lat="30.65052175485764" lon="35.17203390982823">
        <ele>-17</ele>
        <time>2026-06-10T15:21:23.453Z</time>
      </trkpt>
      <trkpt lat="30.65052175485764" lon="35.17203390982823">
        <ele>-17</ele>
        <time>2026-06-10T15:21:24.453Z</time>
      </trkpt>
      <trkpt lat="30.65052175485764" lon="35.17203390982823">
        <ele>-17</ele>
        <time>2026-06-10T15:21:25.453Z</time>
      </trkpt>
      <trkpt lat="30.650580800710188" lon="35.171865154173936">
        <ele>-17</ele>
        <time>2026-06-10T15:21:26.453Z</time>
      </trkpt>
      <trkpt lat="30.650598123310463" lon="35.17171986784905">
        <ele>-17</ele>
        <time>2026-06-10T15:21:27.453Z</time>
      </trkpt>
      <trkpt lat="30.650569438574525" lon="35.17144848044474">
        <ele>-15</ele>
        <time>2026-06-10T15:21:28.453Z</time>
      </trkpt>
      <trkpt lat="30.650618984936603" lon="35.17123353118971">
        <ele>-15</ele>
        <time>2026-06-10T15:21:29.453Z</time>
      </trkpt>
      <trkpt lat="30.650674864292327" lon="35.171107243845775">
        <ele>-15</ele>
        <time>2026-06-10T15:21:30.453Z</time>
      </trkpt>
      <trkpt lat="30.650718450189792" lon="35.170896578674686">
        <ele>-15</ele>
        <time>2026-06-10T15:21:31.453Z</time>
      </trkpt>
      <trkpt lat="30.65061954373016" lon="35.170427750880144">
        <ele>-14</ele>
        <time>2026-06-10T15:21:32.453Z</time>
      </trkpt>
      <trkpt lat="30.650569066045488" lon="35.17026700460018">
        <ele>-14</ele>
        <time>2026-06-10T15:21:33.453Z</time>
      </trkpt>
      <trkpt lat="30.650557145116267" lon="35.17018448941822">
        <ele>-14</ele>
        <time>2026-06-10T15:21:34.453Z</time>
      </trkpt>
      <trkpt lat="30.650587506232878" lon="35.17001927278979">
        <ele>-14</ele>
        <time>2026-06-10T15:21:35.453Z</time>
      </trkpt>
      <trkpt lat="30.650669648885792" lon="35.16987938813595">
        <ele>-14</ele>
        <time>2026-06-10T15:21:36.453Z</time>
      </trkpt>
      <trkpt lat="30.65072124415758" lon="35.16982108734148">
        <ele>-15</ele>
        <time>2026-06-10T15:21:37.453Z</time>
      </trkpt>
      <trkpt lat="30.650979220516515" lon="35.16962942115134">
        <ele>-15</ele>
        <time>2026-06-10T15:21:38.453Z</time>
      </trkpt>
      <trkpt lat="30.651119291434867" lon="35.16949177167174">
        <ele>-15</ele>
        <time>2026-06-10T15:21:39.453Z</time>
      </trkpt>
      <trkpt lat="30.65121484513316" lon="35.16929973295256">
        <ele>-15</ele>
        <time>2026-06-10T15:21:40.453Z</time>
      </trkpt>
      <trkpt lat="30.651350445703056" lon="35.16913861414355">
        <ele>-15</ele>
        <time>2026-06-10T15:21:41.453Z</time>
      </trkpt>
      <trkpt lat="30.652157716128777" lon="35.168678913310444">
        <ele>-11</ele>
        <time>2026-06-10T15:21:42.453Z</time>
      </trkpt>
      <trkpt lat="30.652439348081632" lon="35.16844123978409">
        <ele>-11</ele>
        <time>2026-06-10T15:21:43.453Z</time>
      </trkpt>
      <trkpt lat="30.652614995523134" lon="35.16826242584577">
        <ele>-11</ele>
        <time>2026-06-10T15:21:44.453Z</time>
      </trkpt>
      <trkpt lat="30.652614995523134" lon="35.16826242584577">
        <ele>-11</ele>
        <time>2026-06-10T15:21:45.453Z</time>
      </trkpt>
      <trkpt lat="30.652614995523134" lon="35.16826242584577">
        <ele>-11</ele>
        <time>2026-06-10T15:21:46.453Z</time>
      </trkpt>
      <trkpt lat="30.6527600955835" lon="35.16806442666198">
        <ele>-9</ele>
        <time>2026-06-10T15:21:47.453Z</time>
      </trkpt>
      <trkpt lat="30.65282361178451" lon="35.16795937347322">
        <ele>-11</ele>
        <time>2026-06-10T15:21:48.453Z</time>
      </trkpt>
      <trkpt lat="30.6529152539279" lon="35.167728219205024">
        <ele>-11</ele>
        <time>2026-06-10T15:21:49.453Z</time>
      </trkpt>
      <trkpt lat="30.65294170348961" lon="35.16760621594503">
        <ele>-11</ele>
        <time>2026-06-10T15:21:50.453Z</time>
      </trkpt>
      <trkpt lat="30.65294598757355" lon="35.1673385538311">
        <ele>-10</ele>
        <time>2026-06-10T15:21:51.453Z</time>
      </trkpt>
      <trkpt lat="30.65287464826274" lon="35.16679577902248">
        <ele>-10</ele>
        <time>2026-06-10T15:21:52.453Z</time>
      </trkpt>
      <trkpt lat="30.652871295501395" lon="35.166662227362295">
        <ele>-10</ele>
        <time>2026-06-10T15:21:53.453Z</time>
      </trkpt>
      <trkpt lat="30.652900352766373" lon="35.16628690435633">
        <ele>-9</ele>
        <time>2026-06-10T15:21:54.453Z</time>
      </trkpt>
      <trkpt lat="30.65295362441883" lon="35.16605183853325">
        <ele>-9</ele>
        <time>2026-06-10T15:21:55.453Z</time>
      </trkpt>
      <trkpt lat="30.653000126995057" lon="35.16592554504596">
        <ele>-9</ele>
        <time>2026-06-10T15:21:56.453Z</time>
      </trkpt>
      <trkpt lat="30.653000126995057" lon="35.16592554504596">
        <ele>-9</ele>
        <time>2026-06-10T15:21:57.453Z</time>
      </trkpt>
      <trkpt lat="30.653073578769124" lon="35.165726061889366">
        <ele>-9</ele>
        <time>2026-06-10T15:21:58.453Z</time>
      </trkpt>
      <trkpt lat="30.65354315162174" lon="35.16473252694456">
        <ele>-7</ele>
        <time>2026-06-10T15:21:59.453Z</time>
      </trkpt>
      <trkpt lat="30.653956845118632" lon="35.16399361559734">
        <ele>-6</ele>
        <time>2026-06-10T15:22:00.453Z</time>
      </trkpt>
      <trkpt lat="30.65414236457964" lon="35.16357098140354">
        <ele>-6</ele>
        <time>2026-06-10T15:22:01.453Z</time>
      </trkpt>
      <trkpt lat="30.654394939267522" lon="35.16278420007492">
        <ele>-4</ele>
        <time>2026-06-10T15:22:02.453Z</time>
      </trkpt>
      <trkpt lat="30.654722578556594" lon="35.16145054611826">
        <ele>-2</ele>
        <time>2026-06-10T15:22:03.453Z</time>
      </trkpt>
      <trkpt lat="30.654745861621482" lon="35.161214735237095">
        <ele>-2</ele>
        <time>2026-06-10T15:22:04.453Z</time>
      </trkpt>
      <trkpt lat="30.654741577537543" lon="35.161106143022465">
        <ele>-2</ele>
        <time>2026-06-10T15:22:05.453Z</time>
      </trkpt>
      <trkpt lat="30.654649004071555" lon="35.16064066798927">
        <ele>-2</ele>
        <time>2026-06-10T15:22:06.453Z</time>
      </trkpt>
      <trkpt lat="30.654600016503036" lon="35.160255845492834">
        <ele>-2</ele>
        <time>2026-06-10T15:22:07.453Z</time>
      </trkpt>
      <trkpt lat="30.654574125734882" lon="35.15971474706489">
        <ele>-2</ele>
        <time>2026-06-10T15:22:08.453Z</time>
      </trkpt>
      <trkpt lat="30.65447689565592" lon="35.15861485507968">
        <ele>-2</ele>
        <time>2026-06-10T15:22:09.453Z</time>
      </trkpt>
      <trkpt lat="30.65441151680972" lon="35.15803519989629">
        <ele>-1</ele>
        <time>2026-06-10T15:22:10.453Z</time>
      </trkpt>
      <trkpt lat="30.654380783164072" lon="35.15746336782269">
        <ele>-1</ele>
        <time>2026-06-10T15:22:11.453Z</time>
      </trkpt>
      <trkpt lat="30.654284670672222" lon="35.15703775339658">
        <ele>0</ele>
        <time>2026-06-10T15:22:12.453Z</time>
      </trkpt>
      <trkpt lat="30.654176637251155" lon="35.15665404848726">
        <ele>0</ele>
        <time>2026-06-10T15:22:13.453Z</time>
      </trkpt>
      <trkpt lat="30.65406115324932" lon="35.156309086597915">
        <ele>0</ele>
        <time>2026-06-10T15:22:14.453Z</time>
      </trkpt>
      <trkpt lat="30.653932071937593" lon="35.15599318197354">
        <ele>0</ele>
        <time>2026-06-10T15:22:15.453Z</time>
      </trkpt>
      <trkpt lat="30.653731837579574" lon="35.15565529813592">
        <ele>2</ele>
        <time>2026-06-10T15:22:16.453Z</time>
      </trkpt>
      <trkpt lat="30.65369715086688" lon="35.15561713551047">
        <ele>2</ele>
        <time>2026-06-10T15:22:17.453Z</time>
      </trkpt>
      <trkpt lat="30.65369715086688" lon="35.15561713551047">
        <ele>2</ele>
        <time>2026-06-10T15:22:18.453Z</time>
      </trkpt>
      <trkpt lat="30.653731837579574" lon="35.15565529813592">
        <ele>2</ele>
        <time>2026-06-10T15:22:19.453Z</time>
      </trkpt>
      <trkpt lat="30.653932071937593" lon="35.15599318197354">
        <ele>0</ele>
        <time>2026-06-10T15:22:20.453Z</time>
      </trkpt>
      <trkpt lat="30.65406115324932" lon="35.156309086597915">
        <ele>0</ele>
        <time>2026-06-10T15:22:21.453Z</time>
      </trkpt>
      <trkpt lat="30.654176637251155" lon="35.15665404848726">
        <ele>0</ele>
        <time>2026-06-10T15:22:22.453Z</time>
      </trkpt>
      <trkpt lat="30.654284670672222" lon="35.15703775339658">
        <ele>0</ele>
        <time>2026-06-10T15:22:23.453Z</time>
      </trkpt>
      <trkpt lat="30.654380783164072" lon="35.15746336782269">
        <ele>-1</ele>
        <time>2026-06-10T15:22:24.453Z</time>
      </trkpt>
      <trkpt lat="30.654390468919065" lon="35.15722979211576">
        <ele>0</ele>
        <time>2026-06-10T15:22:25.453Z</time>
      </trkpt>
      <trkpt lat="30.654410771751646" lon="35.15712194495921">
        <ele>0</ele>
        <time>2026-06-10T15:22:26.453Z</time>
      </trkpt>
      <trkpt lat="30.65464788648444" lon="35.15652347705938">
        <ele>6</ele>
        <time>2026-06-10T15:22:27.453Z</time>
      </trkpt>
      <trkpt lat="30.654697805375555" lon="35.15633702627578">
        <ele>6</ele>
        <time>2026-06-10T15:22:28.453Z</time>
      </trkpt>
      <trkpt lat="30.654709726304777" lon="35.15610754838826">
        <ele>6</ele>
        <time>2026-06-10T15:22:29.453Z</time>
      </trkpt>
      <trkpt lat="30.654726303846978" lon="35.15604328712918">
        <ele>6</ele>
        <time>2026-06-10T15:22:30.453Z</time>
      </trkpt>
      <trkpt lat="30.654843091700442" lon="35.15579201629293">
        <ele>6</ele>
        <time>2026-06-10T15:22:31.453Z</time>
      </trkpt>
      <trkpt lat="30.65486618850081" lon="35.15571136375617">
        <ele>6</ele>
        <time>2026-06-10T15:22:32.453Z</time>
      </trkpt>
      <trkpt lat="30.65489282432704" lon="35.1550031860546">
        <ele>7</ele>
        <time>2026-06-10T15:22:33.453Z</time>
      </trkpt>
      <trkpt lat="30.654881648455895" lon="35.15456974851868">
        <ele>5</ele>
        <time>2026-06-10T15:22:34.453Z</time>
      </trkpt>
      <trkpt lat="30.65491312715962" lon="35.154421109432455">
        <ele>5</ele>
        <time>2026-06-10T15:22:35.453Z</time>
      </trkpt>
      <trkpt lat="30.65496677134112" lon="35.154280293456026">
        <ele>5</ele>
        <time>2026-06-10T15:22:36.453Z</time>
      </trkpt>
      <trkpt lat="30.65504202220683" lon="35.154162574279965">
        <ele>5</ele>
        <time>2026-06-10T15:22:37.453Z</time>
      </trkpt>
      <trkpt lat="30.655511967588485" lon="35.153846110862034">
        <ele>6</ele>
        <time>2026-06-10T15:22:38.453Z</time>
      </trkpt>
      <trkpt lat="30.6557941583349" lon="35.15361719176808">
        <ele>6</ele>
        <time>2026-06-10T15:22:39.453Z</time>
      </trkpt>
      <trkpt lat="30.656004450976948" lon="35.15349574730163">
        <ele>6</ele>
        <time>2026-06-10T15:22:40.453Z</time>
      </trkpt>
      <trkpt lat="30.656352206834082" lon="35.15338193968047">
        <ele>10</ele>
        <time>2026-06-10T15:22:41.453Z</time>
      </trkpt>
      <trkpt lat="30.656440496216128" lon="35.153323825150515">
        <ele>10</ele>
        <time>2026-06-10T15:22:42.453Z</time>
      </trkpt>
      <trkpt lat="30.65662135906416" lon="35.15315655961238">
        <ele>14</ele>
        <time>2026-06-10T15:22:43.453Z</time>
      </trkpt>
      <trkpt lat="30.656873747487523" lon="35.15282947911686">
        <ele>14</ele>
        <time>2026-06-10T15:22:44.453Z</time>
      </trkpt>
      <trkpt lat="30.657202690628232" lon="35.152235295300976">
        <ele>13</ele>
        <time>2026-06-10T15:22:45.453Z</time>
      </trkpt>
      <trkpt lat="30.657613962686373" lon="35.151566233148415">
        <ele>13</ele>
        <time>2026-06-10T15:22:46.453Z</time>
      </trkpt>
      <trkpt lat="30.657900810045767" lon="35.15103724191421">
        <ele>24</ele>
        <time>2026-06-10T15:22:47.453Z</time>
      </trkpt>
      <trkpt lat="30.65807533990015" lon="35.150679800302086">
        <ele>15</ele>
        <time>2026-06-10T15:22:48.453Z</time>
      </trkpt>
      <trkpt lat="30.658237948825313" lon="35.150474164273014">
        <ele>15</ele>
        <time>2026-06-10T15:22:49.453Z</time>
      </trkpt>
      <trkpt lat="30.658371873014538" lon="35.15026852824394">
        <ele>15</ele>
        <time>2026-06-10T15:22:50.453Z</time>
      </trkpt>
      <trkpt lat="30.658407263273162" lon="35.15023071654657">
        <ele>15</ele>
        <time>2026-06-10T15:22:51.453Z</time>
      </trkpt>
      <trkpt lat="30.65873434376868" lon="35.15005078502113">
        <ele>21</ele>
        <time>2026-06-10T15:22:52.453Z</time>
      </trkpt>
      <trkpt lat="30.658863425080405" lon="35.14994647689044">
        <ele>21</ele>
        <time>2026-06-10T15:22:53.453Z</time>
      </trkpt>
      <trkpt lat="30.65984503909599" lon="35.14891308133855">
        <ele>17</ele>
        <time>2026-06-10T15:22:54.453Z</time>
      </trkpt>
      <trkpt lat="30.660328022993983" lon="35.14850627962886">
        <ele>13</ele>
        <time>2026-06-10T15:22:55.453Z</time>
      </trkpt>
      <trkpt lat="30.660464368621955" lon="35.148341435529474">
        <ele>13</ele>
        <time>2026-06-10T15:22:56.453Z</time>
      </trkpt>
      <trkpt lat="30.660753078626538" lon="35.147890675393285">
        <ele>14</ele>
        <time>2026-06-10T15:22:57.453Z</time>
      </trkpt>
      <trkpt lat="30.661175712820345" lon="35.14716144980106">
        <ele>20</ele>
        <time>2026-06-10T15:22:58.453Z</time>
      </trkpt>
      <trkpt lat="30.661452874424747" lon="35.14679264605327">
        <ele>20</ele>
        <time>2026-06-10T15:22:59.453Z</time>
      </trkpt>
      <trkpt lat="30.661718115099923" lon="35.14649480908725">
        <ele>19</ele>
        <time>2026-06-10T15:23:00.453Z</time>
      </trkpt>
      <trkpt lat="30.66277516624574" lon="35.145438130470474">
        <ele>20</ele>
        <time>2026-06-10T15:23:01.453Z</time>
      </trkpt>
      <trkpt lat="30.66331365697042" lon="35.1448567989064">
        <ele>19</ele>
        <time>2026-06-10T15:23:02.453Z</time>
      </trkpt>
      <trkpt lat="30.663587652077997" lon="35.144586715353725">
        <ele>19</ele>
        <time>2026-06-10T15:23:03.453Z</time>
      </trkpt>
      <trkpt lat="30.663591377368377" lon="35.14453791404973">
        <ele>19</ele>
        <time>2026-06-10T15:23:04.453Z</time>
      </trkpt>
      <trkpt lat="30.663591377368377" lon="35.14453791404973">
        <ele>19</ele>
        <time>2026-06-10T15:23:05.453Z</time>
      </trkpt>
      <trkpt lat="30.663620062104314" lon="35.144163149837325">
        <ele>20</ele>
        <time>2026-06-10T15:23:06.453Z</time>
      </trkpt>
      <trkpt lat="30.663658991388804" lon="35.1438798415038">
        <ele>20</ele>
        <time>2026-06-10T15:23:07.453Z</time>
      </trkpt>
      <trkpt lat="30.66364185505305" lon="35.142835642609796">
        <ele>25</ele>
        <time>2026-06-10T15:23:08.453Z</time>
      </trkpt>
      <trkpt lat="30.663587465813475" lon="35.142392891847926">
        <ele>24</ele>
        <time>2026-06-10T15:23:09.453Z</time>
      </trkpt>
      <trkpt lat="30.663524694670542" lon="35.142137150663224">
        <ele>22</ele>
        <time>2026-06-10T15:23:10.453Z</time>
      </trkpt>
      <trkpt lat="30.663485206592497" lon="35.142039175526186">
        <ele>22</ele>
        <time>2026-06-10T15:23:11.453Z</time>
      </trkpt>
      <trkpt lat="30.663333028480405" lon="35.141786228309265">
        <ele>22</ele>
        <time>2026-06-10T15:23:12.453Z</time>
      </trkpt>
      <trkpt lat="30.663182340484465" lon="35.14141295421302">
        <ele>21</ele>
        <time>2026-06-10T15:23:13.453Z</time>
      </trkpt>
      <trkpt lat="30.663114353934997" lon="35.14128033387543">
        <ele>21</ele>
        <time>2026-06-10T15:23:14.453Z</time>
      </trkpt>
      <trkpt lat="30.66272375723847" lon="35.14074463711853">
        <ele>25</ele>
        <time>2026-06-10T15:23:15.453Z</time>
      </trkpt>
      <trkpt lat="30.662533022370926" lon="35.14036968664161">
        <ele>24</ele>
        <time>2026-06-10T15:23:16.453Z</time>
      </trkpt>
      <trkpt lat="30.6624654083505" lon="35.140196646903384">
        <ele>24</ele>
        <time>2026-06-10T15:23:17.453Z</time>
      </trkpt>
      <trkpt lat="30.662281751534678" lon="35.13994183704127">
        <ele>24</ele>
        <time>2026-06-10T15:23:18.453Z</time>
      </trkpt>
      <trkpt lat="30.662190295655808" lon="35.139767120922365">
        <ele>22</ele>
        <time>2026-06-10T15:23:19.453Z</time>
      </trkpt>
      <trkpt lat="30.66200831522066" lon="35.139235521984894">
        <ele>22</ele>
        <time>2026-06-10T15:23:20.453Z</time>
      </trkpt>
      <trkpt lat="30.66200608004643" lon="35.13918727947445">
        <ele>22</ele>
        <time>2026-06-10T15:23:21.453Z</time>
      </trkpt>
      <trkpt lat="30.66190493841257" lon="35.13898834896807">
        <ele>28</ele>
        <time>2026-06-10T15:23:22.453Z</time>
      </trkpt>
      <trkpt lat="30.661817580353116" lon="35.13875328314498">
        <ele>28</ele>
        <time>2026-06-10T15:23:23.453Z</time>
      </trkpt>
      <trkpt lat="30.661613620704717" lon="35.13791658292524">
        <ele>26</ele>
        <time>2026-06-10T15:23:24.453Z</time>
      </trkpt>
      <trkpt lat="30.661600954717418" lon="35.13781432370426">
        <ele>26</ele>
        <time>2026-06-10T15:23:25.453Z</time>
      </trkpt>
      <trkpt lat="30.6616251691049" lon="35.13760328600414">
        <ele>26</ele>
        <time>2026-06-10T15:23:26.453Z</time>
      </trkpt>
      <trkpt lat="30.661697067209268" lon="35.13739522853632">
        <ele>26</ele>
        <time>2026-06-10T15:23:27.453Z</time>
      </trkpt>
      <trkpt lat="30.661799140165726" lon="35.13722572782395">
        <ele>25</ele>
        <time>2026-06-10T15:23:28.453Z</time>
      </trkpt>
      <trkpt lat="30.661809198449756" lon="35.13721399315925">
        <ele>25</ele>
        <time>2026-06-10T15:23:29.453Z</time>
      </trkpt>
      <trkpt lat="30.661809198449756" lon="35.13721399315925">
        <ele>25</ele>
        <time>2026-06-10T15:23:30.453Z</time>
      </trkpt>
      <trkpt lat="30.661920398367652" lon="35.137080441499066">
        <ele>25</ele>
        <time>2026-06-10T15:23:31.453Z</time>
      </trkpt>
      <trkpt lat="30.66202675540805" lon="35.13690982319958">
        <ele>30</ele>
        <time>2026-06-10T15:23:32.453Z</time>
      </trkpt>
      <trkpt lat="30.662052459911685" lon="35.13682078875946">
        <ele>30</ele>
        <time>2026-06-10T15:23:33.453Z</time>
      </trkpt>
      <trkpt lat="30.662093065576844" lon="35.13642032004342">
        <ele>31</ele>
        <time>2026-06-10T15:23:34.453Z</time>
      </trkpt>
      <trkpt lat="30.66215062131324" lon="35.136234241788856">
        <ele>31</ele>
        <time>2026-06-10T15:23:35.453Z</time>
      </trkpt>
      <trkpt lat="30.662203334172144" lon="35.136159177187665">
        <ele>31</ele>
        <time>2026-06-10T15:23:36.453Z</time>
      </trkpt>
      <trkpt lat="30.662315837941673" lon="35.13561155950155">
        <ele>30</ele>
        <time>2026-06-10T15:23:37.453Z</time>
      </trkpt>
      <trkpt lat="30.662500239815568" lon="35.135330858871285">
        <ele>30</ele>
        <time>2026-06-10T15:23:38.453Z</time>
      </trkpt>
      <trkpt lat="30.66302196673353" lon="35.13468656989976">
        <ele>32</ele>
        <time>2026-06-10T15:23:39.453Z</time>
      </trkpt>
      <trkpt lat="30.66314601890324" lon="35.13455599847189">
        <ele>32</ele>
        <time>2026-06-10T15:23:40.453Z</time>
      </trkpt>
      <trkpt lat="30.663564741542146" lon="35.134186822195055">
        <ele>32</ele>
        <time>2026-06-10T15:23:41.453Z</time>
      </trkpt>
      <trkpt lat="30.663715802067127" lon="35.133999253824335">
        <ele>32</ele>
        <time>2026-06-10T15:23:42.453Z</time>
      </trkpt>
      <trkpt lat="30.663940437077144" lon="35.13385713399627">
        <ele>32</ele>
        <time>2026-06-10T15:23:43.453Z</time>
      </trkpt>
      <trkpt lat="30.664272732979196" lon="35.13370868117456">
        <ele>32</ele>
        <time>2026-06-10T15:23:44.453Z</time>
      </trkpt>
      <trkpt lat="30.66441895062668" lon="35.13358928561783">
        <ele>32</ele>
        <time>2026-06-10T15:23:45.453Z</time>
      </trkpt>
      <trkpt lat="30.664674878075903" lon="35.13342369646036">
        <ele>40</ele>
        <time>2026-06-10T15:23:46.453Z</time>
      </trkpt>
      <trkpt lat="30.665200330284247" lon="35.133155289288354">
        <ele>28</ele>
        <time>2026-06-10T15:23:47.453Z</time>
      </trkpt>
      <trkpt lat="30.665599495148648" lon="35.13299994467944">
        <ele>32</ele>
        <time>2026-06-10T15:23:48.453Z</time>
      </trkpt>
      <trkpt lat="30.66591074316004" lon="35.13284739403831">
        <ele>32</ele>
        <time>2026-06-10T15:23:49.453Z</time>
      </trkpt>
      <trkpt lat="30.666136495757172" lon="35.13271030335226">
        <ele>41</ele>
        <time>2026-06-10T15:23:50.453Z</time>
      </trkpt>
      <trkpt lat="30.666611470280845" lon="35.13249647168435">
        <ele>41</ele>
        <time>2026-06-10T15:23:51.453Z</time>
      </trkpt>
      <trkpt lat="30.666857525710558" lon="35.13240482954096">
        <ele>41</ele>
        <time>2026-06-10T15:23:52.453Z</time>
      </trkpt>
      <trkpt lat="30.667027585216484" lon="35.13239011464395">
        <ele>49</ele>
        <time>2026-06-10T15:23:53.453Z</time>
      </trkpt>
      <trkpt lat="30.66732784362125" lon="35.13225581792569">
        <ele>36</ele>
        <time>2026-06-10T15:23:54.453Z</time>
      </trkpt>
      <trkpt lat="30.667463444191146" lon="35.1321524411176">
        <ele>36</ele>
        <time>2026-06-10T15:23:55.453Z</time>
      </trkpt>
      <trkpt lat="30.667926684050112" lon="35.13166312422595">
        <ele>48</ele>
        <time>2026-06-10T15:23:56.453Z</time>
      </trkpt>
      <trkpt lat="30.668183542821932" lon="35.13149008448772">
        <ele>40</ele>
        <time>2026-06-10T15:23:57.453Z</time>
      </trkpt>
      <trkpt lat="30.668493673246214" lon="35.131312574401036">
        <ele>40</ele>
        <time>2026-06-10T15:23:58.453Z</time>
      </trkpt>
      <trkpt lat="30.668727248953147" lon="35.13112183953349">
        <ele>43</ele>
        <time>2026-06-10T15:23:59.453Z</time>
      </trkpt>
      <trkpt lat="30.668792441534826" lon="35.13106447006161">
        <ele>43</ele>
        <time>2026-06-10T15:24:00.453Z</time>
      </trkpt>
      <trkpt lat="30.668898798575224" lon="35.13090987051077">
        <ele>43</ele>
        <time>2026-06-10T15:24:01.453Z</time>
      </trkpt>
      <trkpt lat="30.66902005677715" lon="35.1307891711024">
        <ele>43</ele>
        <time>2026-06-10T15:24:02.453Z</time>
      </trkpt>
      <trkpt lat="30.669180057999046" lon="35.1307159691464">
        <ele>39</ele>
        <time>2026-06-10T15:24:03.453Z</time>
      </trkpt>
      <trkpt lat="30.66942406451905" lon="35.13065301173895">
        <ele>39</ele>
        <time>2026-06-10T15:24:04.453Z</time>
      </trkpt>
      <trkpt lat="30.669592075115265" lon="35.13055708551162">
        <ele>39</ele>
        <time>2026-06-10T15:24:05.453Z</time>
      </trkpt>
      <trkpt lat="30.669709980555847" lon="35.13040881895443">
        <ele>39</ele>
        <time>2026-06-10T15:24:06.453Z</time>
      </trkpt>
      <trkpt lat="30.669865325164764" lon="35.130088816510636">
        <ele>39</ele>
        <time>2026-06-10T15:24:07.453Z</time>
      </trkpt>
      <trkpt lat="30.66998453445698" lon="35.12968499503326">
        <ele>36</ele>
        <time>2026-06-10T15:24:08.453Z</time>
      </trkpt>
      <trkpt lat="30.66998453445698" lon="35.12968499503326">
        <ele>36</ele>
        <time>2026-06-10T15:24:09.453Z</time>
      </trkpt>
      <trkpt lat="30.67012535043341" lon="35.1292081578644">
        <ele>36</ele>
        <time>2026-06-10T15:24:10.453Z</time>
      </trkpt>
      <trkpt lat="30.67029913522972" lon="35.128877910872056">
        <ele>38</ele>
        <time>2026-06-10T15:24:11.453Z</time>
      </trkpt>
      <trkpt lat="30.67066365489357" lon="35.12833327341825">
        <ele>38</ele>
        <time>2026-06-10T15:24:12.453Z</time>
      </trkpt>
      <trkpt lat="30.670719347984775" lon="35.1281630276478">
        <ele>40</ele>
        <time>2026-06-10T15:24:13.453Z</time>
      </trkpt>
      <trkpt lat="30.670724377126792" lon="35.12807231682701">
        <ele>40</ele>
        <time>2026-06-10T15:24:14.453Z</time>
      </trkpt>
      <trkpt lat="30.670715808958914" lon="35.127984958767556">
        <ele>40</ele>
        <time>2026-06-10T15:24:15.453Z</time>
      </trkpt>
      <trkpt lat="30.67065378287406" lon="35.12781676190682">
        <ele>40</ele>
        <time>2026-06-10T15:24:16.453Z</time>
      </trkpt>
      <trkpt lat="30.670525260355888" lon="35.12758598016767">
        <ele>40</ele>
        <time>2026-06-10T15:24:17.453Z</time>
      </trkpt>
      <trkpt lat="30.670368984424375" lon="35.127358551189864">
        <ele>42</ele>
        <time>2026-06-10T15:24:18.453Z</time>
      </trkpt>
      <trkpt lat="30.670279018661656" lon="35.12718681530327">
        <ele>42</ele>
        <time>2026-06-10T15:24:19.453Z</time>
      </trkpt>
      <trkpt lat="30.670248843809564" lon="35.127092006663055">
        <ele>40</ele>
        <time>2026-06-10T15:24:20.453Z</time>
      </trkpt>
      <trkpt lat="30.67019613095066" lon="35.126725438089494">
        <ele>40</ele>
        <time>2026-06-10T15:24:21.453Z</time>
      </trkpt>
      <trkpt lat="30.670169495124433" lon="35.126654471307724">
        <ele>40</ele>
        <time>2026-06-10T15:24:22.453Z</time>
      </trkpt>
      <trkpt lat="30.670169495124433" lon="35.126654471307724">
        <ele>40</ele>
        <time>2026-06-10T15:24:23.453Z</time>
      </trkpt>
      <trkpt lat="30.670120135026874" lon="35.126522782292724">
        <ele>43</ele>
        <time>2026-06-10T15:24:24.453Z</time>
      </trkpt>
      <trkpt lat="30.670001670792736" lon="35.12634061559306">
        <ele>43</ele>
        <time>2026-06-10T15:24:25.453Z</time>
      </trkpt>
      <trkpt lat="30.66976865387936" lon="35.126121195989576">
        <ele>43</ele>
        <time>2026-06-10T15:24:26.453Z</time>
      </trkpt>
      <trkpt lat="30.669604368573523" lon="35.12602899505263">
        <ele>43</ele>
        <time>2026-06-10T15:24:27.453Z</time>
      </trkpt>
      <trkpt lat="30.669604368573523" lon="35.12602899505263">
        <ele>43</ele>
        <time>2026-06-10T15:24:28.453Z</time>
      </trkpt>
      <trkpt lat="30.669551283185584" lon="35.125999378994095">
        <ele>43</ele>
        <time>2026-06-10T15:24:29.453Z</time>
      </trkpt>
      <trkpt lat="30.669324971794897" lon="35.12593549026405">
        <ele>41</ele>
        <time>2026-06-10T15:24:30.453Z</time>
      </trkpt>
      <trkpt lat="30.669251024780817" lon="35.12594256831577">
        <ele>41</ele>
        <time>2026-06-10T15:24:31.453Z</time>
      </trkpt>
      <trkpt lat="30.668936237743562" lon="35.125894884598885">
        <ele>41</ele>
        <time>2026-06-10T15:24:32.453Z</time>
      </trkpt>
      <trkpt lat="30.668436303774335" lon="35.12569017989241">
        <ele>40</ele>
        <time>2026-06-10T15:24:33.453Z</time>
      </trkpt>
      <trkpt lat="30.668288037217142" lon="35.125615487820255">
        <ele>40</ele>
        <time>2026-06-10T15:24:34.453Z</time>
      </trkpt>
      <trkpt lat="30.66810698810459" lon="35.12549069059247">
        <ele>40</ele>
        <time>2026-06-10T15:24:35.453Z</time>
      </trkpt>
      <trkpt lat="30.668017581135427" lon="35.125404263855614">
        <ele>40</ele>
        <time>2026-06-10T15:24:36.453Z</time>
      </trkpt>
      <trkpt lat="30.66782908144211" lon="35.125081653708556">
        <ele>40</ele>
        <time>2026-06-10T15:24:37.453Z</time>
      </trkpt>
      <trkpt lat="30.667812690164432" lon="35.125012363307455">
        <ele>40</ele>
        <time>2026-06-10T15:24:38.453Z</time>
      </trkpt>
      <trkpt lat="30.66752751918571" lon="35.124407003620426">
        <ele>44</ele>
        <time>2026-06-10T15:24:39.453Z</time>
      </trkpt>
      <trkpt lat="30.66746828706864" lon="35.12420360276558">
        <ele>44</ele>
        <time>2026-06-10T15:24:40.453Z</time>
      </trkpt>
      <trkpt lat="30.667446680384426" lon="35.12404490539532">
        <ele>45</ele>
        <time>2026-06-10T15:24:41.453Z</time>
      </trkpt>
      <trkpt lat="30.66748858990122" lon="35.12293812162291">
        <ele>48</ele>
        <time>2026-06-10T15:24:42.453Z</time>
      </trkpt>
      <trkpt lat="30.667594015619024" lon="35.12241415953072">
        <ele>48</ele>
        <time>2026-06-10T15:24:43.453Z</time>
      </trkpt>
      <trkpt lat="30.66775196793121" lon="35.12179147724341">
        <ele>47</ele>
        <time>2026-06-10T15:24:44.453Z</time>
      </trkpt>
      <trkpt lat="30.667863540378143" lon="35.121415222914855">
        <ele>47</ele>
        <time>2026-06-10T15:24:45.453Z</time>
      </trkpt>
      <trkpt lat="30.667946428089138" lon="35.12097005071424">
        <ele>47</ele>
        <time>2026-06-10T15:24:46.453Z</time>
      </trkpt>
      <trkpt lat="30.668054461510206" lon="35.12051109493921">
        <ele>53</ele>
        <time>2026-06-10T15:24:47.453Z</time>
      </trkpt>
      <trkpt lat="30.668078489633167" lon="35.12028888136794">
        <ele>53</ele>
        <time>2026-06-10T15:24:48.453Z</time>
      </trkpt>
      <trkpt lat="30.668071597845962" lon="35.119905362723145">
        <ele>53</ele>
        <time>2026-06-10T15:24:49.453Z</time>
      </trkpt>
      <trkpt lat="30.668025776774268" lon="35.1195389804141">
        <ele>55</ele>
        <time>2026-06-10T15:24:50.453Z</time>
      </trkpt>
      <trkpt lat="30.667790338422144" lon="35.118750895233845">
        <ele>53</ele>
        <time>2026-06-10T15:24:51.453Z</time>
      </trkpt>
      <trkpt lat="30.667754761898998" lon="35.11846218522926">
        <ele>56</ele>
        <time>2026-06-10T15:24:52.453Z</time>
      </trkpt>
      <trkpt lat="30.667754761898998" lon="35.11846218522926">
        <ele>56</ele>
        <time>2026-06-10T15:24:53.453Z</time>
      </trkpt>
      <trkpt lat="30.667725890898538" lon="35.11822600181906">
        <ele>47</ele>
        <time>2026-06-10T15:24:54.453Z</time>
      </trkpt>
      <trkpt lat="30.667647473536004" lon="35.118049050525926">
        <ele>47</ele>
        <time>2026-06-10T15:24:55.453Z</time>
      </trkpt>
      <trkpt lat="30.66753776373426" lon="35.117884578955575">
        <ele>47</ele>
        <time>2026-06-10T15:24:56.453Z</time>
      </trkpt>
      <trkpt lat="30.667162068199264" lon="35.11750627571731">
        <ele>47</ele>
        <time>2026-06-10T15:24:57.453Z</time>
      </trkpt>
      <trkpt lat="30.667117178450162" lon="35.117492678407416">
        <ele>47</ele>
        <time>2026-06-10T15:24:58.453Z</time>
      </trkpt>
      <trkpt lat="30.667117178450162" lon="35.117492678407416">
        <ele>47</ele>
        <time>2026-06-10T15:24:59.453Z</time>
      </trkpt>
      <trkpt lat="30.667051054545887" lon="35.11747256183936">
        <ele>47</ele>
        <time>2026-06-10T15:25:00.453Z</time>
      </trkpt>
      <trkpt lat="30.666951216763657" lon="35.11742040777401">
        <ele>47</ele>
        <time>2026-06-10T15:25:01.453Z</time>
      </trkpt>
      <trkpt lat="30.6666608303784" lon="35.11721607559657">
        <ele>54</ele>
        <time>2026-06-10T15:25:02.453Z</time>
      </trkpt>
      <trkpt lat="30.66652206331168" lon="35.11707209312332">
        <ele>54</ele>
        <time>2026-06-10T15:25:03.453Z</time>
      </trkpt>
      <trkpt lat="30.666455753142888" lon="35.11694617830842">
        <ele>54</ele>
        <time>2026-06-10T15:25:04.453Z</time>
      </trkpt>
      <trkpt lat="30.665922664089262" lon="35.116410481551526">
        <ele>54</ele>
        <time>2026-06-10T15:25:05.453Z</time>
      </trkpt>
      <trkpt lat="30.665579378580585" lon="35.11599604299656">
        <ele>54</ele>
        <time>2026-06-10T15:25:06.453Z</time>
      </trkpt>
      <trkpt lat="30.66539758440996" lon="35.11569317688852">
        <ele>55</ele>
        <time>2026-06-10T15:25:07.453Z</time>
      </trkpt>
      <trkpt lat="30.66511129584412" lon="35.115278365804514">
        <ele>53</ele>
        <time>2026-06-10T15:25:08.453Z</time>
      </trkpt>
      <trkpt lat="30.664968430957984" lon="35.11503864336845">
        <ele>53</ele>
        <time>2026-06-10T15:25:09.453Z</time>
      </trkpt>
      <trkpt lat="30.66468158359859" lon="35.114358964138304">
        <ele>55</ele>
        <time>2026-06-10T15:25:10.453Z</time>
      </trkpt>
      <trkpt lat="30.66468158359859" lon="35.114358964138304">
        <ele>55</ele>
        <time>2026-06-10T15:25:11.453Z</time>
      </trkpt>
      <trkpt lat="30.664498858105365" lon="35.11392589913143">
        <ele>56</ele>
        <time>2026-06-10T15:25:12.453Z</time>
      </trkpt>
      <trkpt lat="30.664405539581303" lon="35.11361055330062">
        <ele>55</ele>
        <time>2026-06-10T15:25:13.453Z</time>
      </trkpt>
      <trkpt lat="30.664360091038645" lon="35.11332035317988">
        <ele>55</ele>
        <time>2026-06-10T15:25:14.453Z</time>
      </trkpt>
      <trkpt lat="30.664356179483747" lon="35.11321641757823">
        <ele>57</ele>
        <time>2026-06-10T15:25:15.453Z</time>
      </trkpt>
      <trkpt lat="30.664388962039105" lon="35.11283774181093">
        <ele>57</ele>
        <time>2026-06-10T15:25:16.453Z</time>
      </trkpt>
      <trkpt lat="30.664411127516875" lon="35.111537615467704">
        <ele>60</ele>
        <time>2026-06-10T15:25:17.453Z</time>
      </trkpt>
      <trkpt lat="30.664517298292754" lon="35.111167694132796">
        <ele>71</ele>
        <time>2026-06-10T15:25:18.453Z</time>
      </trkpt>
      <trkpt lat="30.664833575446163" lon="35.110422077262896">
        <ele>63</ele>
        <time>2026-06-10T15:25:19.453Z</time>
      </trkpt>
      <trkpt lat="30.66531339284733" lon="35.10990854598377">
        <ele>89</ele>
        <time>2026-06-10T15:25:20.453Z</time>
      </trkpt>
      <trkpt lat="30.665442660423576" lon="35.10957680887528">
        <ele>70</ele>
        <time>2026-06-10T15:25:21.453Z</time>
      </trkpt>
      <trkpt lat="30.665501892540647" lon="35.10947510844786">
        <ele>70</ele>
        <time>2026-06-10T15:25:22.453Z</time>
      </trkpt>
      <trkpt lat="30.665630601323336" lon="35.10933149850364">
        <ele>70</ele>
        <time>2026-06-10T15:25:23.453Z</time>
      </trkpt>
      <trkpt lat="30.665748134234878" lon="35.109235199747275">
        <ele>70</ele>
        <time>2026-06-10T15:25:24.453Z</time>
      </trkpt>
      <trkpt lat="30.665986180290272" lon="35.10892637317463">
        <ele>64</ele>
        <time>2026-06-10T15:25:25.453Z</time>
      </trkpt>
      <trkpt lat="30.666154749680043" lon="35.108752774642845">
        <ele>92</ele>
        <time>2026-06-10T15:25:26.453Z</time>
      </trkpt>
      <trkpt lat="30.666245833029876" lon="35.10860674325988">
        <ele>92</ele>
        <time>2026-06-10T15:25:27.453Z</time>
      </trkpt>
      <trkpt lat="30.66637379675449" lon="35.1082848781709">
        <ele>92</ele>
        <time>2026-06-10T15:25:28.453Z</time>
      </trkpt>
      <trkpt lat="30.666563972828477" lon="35.107868949499775">
        <ele>77</ele>
        <time>2026-06-10T15:25:29.453Z</time>
      </trkpt>
      <trkpt lat="30.666593030093455" lon="35.1077745133886">
        <ele>77</ele>
        <time>2026-06-10T15:25:30.453Z</time>
      </trkpt>
      <trkpt lat="30.66659377515153" lon="35.107680263541944">
        <ele>77</ele>
        <time>2026-06-10T15:25:31.453Z</time>
      </trkpt>
      <trkpt lat="30.6665388271184" lon="35.10758601369528">
        <ele>77</ele>
        <time>2026-06-10T15:25:32.453Z</time>
      </trkpt>
      <trkpt lat="30.66645966469779" lon="35.10751765461678">
        <ele>77</ele>
        <time>2026-06-10T15:25:33.453Z</time>
      </trkpt>
      <trkpt lat="30.66601523755525" lon="35.10723714025104">
        <ele>60</ele>
        <time>2026-06-10T15:25:34.453Z</time>
      </trkpt>
      <trkpt lat="30.66601523755525" lon="35.10723714025104">
        <ele>60</ele>
        <time>2026-06-10T15:25:35.453Z</time>
      </trkpt>
      <trkpt lat="30.66578669099033" lon="35.10709297151326">
        <ele>60</ele>
        <time>2026-06-10T15:25:36.453Z</time>
      </trkpt>
      <trkpt lat="30.665455140146356" lon="35.10695718467885">
        <ele>60</ele>
        <time>2026-06-10T15:25:37.453Z</time>
      </trkpt>
      <trkpt lat="30.665271669595054" lon="35.106914902633015">
        <ele>61</ele>
        <time>2026-06-10T15:25:38.453Z</time>
      </trkpt>
      <trkpt lat="30.664808616000606" lon="35.106929990059065">
        <ele>61</ele>
        <time>2026-06-10T15:25:39.453Z</time>
      </trkpt>
      <trkpt lat="30.664469055782313" lon="35.10691695154273">
        <ele>61</ele>
        <time>2026-06-10T15:25:40.453Z</time>
      </trkpt>
      <trkpt lat="30.663664951853416" lon="35.106970409459706">
        <ele>65</ele>
        <time>2026-06-10T15:25:41.453Z</time>
      </trkpt>
      <trkpt lat="30.663139127116036" lon="35.10695550829818">
        <ele>67</ele>
        <time>2026-06-10T15:25:42.453Z</time>
      </trkpt>
      <trkpt lat="30.662986576474903" lon="35.10698735953094">
        <ele>67</ele>
        <time>2026-06-10T15:25:43.453Z</time>
      </trkpt>
      <trkpt lat="30.662576422003873" lon="35.107123332629875">
        <ele>68</ele>
        <time>2026-06-10T15:25:44.453Z</time>
      </trkpt>
      <trkpt lat="30.662121191519226" lon="35.107213298392594">
        <ele>68</ele>
        <time>2026-06-10T15:25:45.453Z</time>
      </trkpt>
      <trkpt lat="30.661973111226555" lon="35.10720547528279">
        <ele>68</ele>
        <time>2026-06-10T15:25:46.453Z</time>
      </trkpt>
      <trkpt lat="30.66147634375415" lon="35.1071264991267">
        <ele>69</ele>
        <time>2026-06-10T15:25:47.453Z</time>
      </trkpt>
      <trkpt lat="30.661344095945598" lon="35.10708142311308">
        <ele>69</ele>
        <time>2026-06-10T15:25:48.453Z</time>
      </trkpt>
      <trkpt lat="30.661222465214635" lon="35.10700132936987">
        <ele>69</ele>
        <time>2026-06-10T15:25:49.453Z</time>
      </trkpt>
      <trkpt lat="30.661222465214635" lon="35.10700132936987">
        <ele>69</ele>
        <time>2026-06-10T15:25:50.453Z</time>
      </trkpt>
      <trkpt lat="30.6611440478521" lon="35.106949547833565">
        <ele>69</ele>
        <time>2026-06-10T15:25:51.453Z</time>
      </trkpt>
      <trkpt lat="30.661129332955092" lon="35.106937440639825">
        <ele>69</ele>
        <time>2026-06-10T15:25:52.453Z</time>
      </trkpt>
      <trkpt lat="30.661129332955092" lon="35.106937440639825">
        <ele>69</ele>
        <time>2026-06-10T15:25:53.453Z</time>
      </trkpt>
      <trkpt lat="30.661015152804893" lon="35.10684374958672">
        <ele>70</ele>
        <time>2026-06-10T15:25:54.453Z</time>
      </trkpt>
      <trkpt lat="30.660645417734507" lon="35.10660588979585">
        <ele>70</ele>
        <time>2026-06-10T15:25:55.453Z</time>
      </trkpt>
      <trkpt lat="30.660362668194534" lon="35.10635182499182">
        <ele>67</ele>
        <time>2026-06-10T15:25:56.453Z</time>
      </trkpt>
      <trkpt lat="30.660254634773462" lon="35.106181951750415">
        <ele>69</ele>
        <time>2026-06-10T15:25:57.453Z</time>
      </trkpt>
      <trkpt lat="30.660148091468546" lon="35.10588038949401">
        <ele>69</ele>
        <time>2026-06-10T15:25:58.453Z</time>
      </trkpt>
      <trkpt lat="30.660121455642315" lon="35.10555014250167">
        <ele>69</ele>
        <time>2026-06-10T15:25:59.453Z</time>
      </trkpt>
      <trkpt lat="30.66014287606201" lon="35.105210954812414">
        <ele>69</ele>
        <time>2026-06-10T15:26:00.453Z</time>
      </trkpt>
      <trkpt lat="30.660190932307934" lon="35.10501630838997">
        <ele>69</ele>
        <time>2026-06-10T15:26:01.453Z</time>
      </trkpt>
      <trkpt lat="30.660344973065218" lon="35.10458957637674">
        <ele>72</ele>
        <time>2026-06-10T15:26:02.453Z</time>
      </trkpt>
      <trkpt lat="30.660468466441372" lon="35.10414961958266">
        <ele>72</ele>
        <time>2026-06-10T15:26:03.453Z</time>
      </trkpt>
      <trkpt lat="30.660468466441372" lon="35.10414961958266">
        <ele>72</ele>
        <time>2026-06-10T15:26:04.453Z</time>
      </trkpt>
      <trkpt lat="30.66051391498403" lon="35.10394733631493">
        <ele>78</ele>
        <time>2026-06-10T15:26:05.453Z</time>
      </trkpt>
      <trkpt lat="30.6605243457971" lon="35.10383706771963">
        <ele>78</ele>
        <time>2026-06-10T15:26:06.453Z</time>
      </trkpt>
      <trkpt lat="30.6605243457971" lon="35.10383706771963">
        <ele>78</ele>
        <time>2026-06-10T15:26:07.453Z</time>
      </trkpt>
      <trkpt lat="30.660507395725862" lon="35.103437344061675">
        <ele>78</ele>
        <time>2026-06-10T15:26:08.453Z</time>
      </trkpt>
      <trkpt lat="30.660435870150533" lon="35.10291002920814">
        <ele>76</ele>
        <time>2026-06-10T15:26:09.453Z</time>
      </trkpt>
      <trkpt lat="30.660409234324305" lon="35.1026041828678">
        <ele>76</ele>
        <time>2026-06-10T15:26:10.453Z</time>
      </trkpt>
      <trkpt lat="30.660423390427756" lon="35.10240618368401">
        <ele>72</ele>
        <time>2026-06-10T15:26:11.453Z</time>
      </trkpt>
      <trkpt lat="30.660406999150077" lon="35.10230094423073">
        <ele>72</ele>
        <time>2026-06-10T15:26:12.453Z</time>
      </trkpt>
      <trkpt lat="30.660361736871938" lon="35.10219943006783">
        <ele>72</ele>
        <time>2026-06-10T15:26:13.453Z</time>
      </trkpt>
      <trkpt lat="30.66028145686421" lon="35.101646969504216">
        <ele>73</ele>
        <time>2026-06-10T15:26:14.453Z</time>
      </trkpt>
      <trkpt lat="30.66029002503209" lon="35.101295860885735">
        <ele>72</ele>
        <time>2026-06-10T15:26:15.453Z</time>
      </trkpt>
      <trkpt lat="30.66025277212827" lon="35.10097529964839">
        <ele>74</ele>
        <time>2026-06-10T15:26:16.453Z</time>
      </trkpt>
      <trkpt lat="30.66015945360421" lon="35.10068603085025">
        <ele>72</ele>
        <time>2026-06-10T15:26:17.453Z</time>
      </trkpt>
      <trkpt lat="30.66004918500891" lon="35.10046027825312">
        <ele>72</ele>
        <time>2026-06-10T15:26:18.453Z</time>
      </trkpt>
      <trkpt lat="30.659858822670405" lon="35.10015163794499">
        <ele>72</ele>
        <time>2026-06-10T15:26:19.453Z</time>
      </trkpt>
      <trkpt lat="30.65961295350521" lon="35.099867398288865">
        <ele>76</ele>
        <time>2026-06-10T15:26:20.453Z</time>
      </trkpt>
      <trkpt lat="30.659370809630396" lon="35.09970069154428">
        <ele>73</ele>
        <time>2026-06-10T15:26:21.453Z</time>
      </trkpt>
      <trkpt lat="30.659270971848166" lon="35.09953938647075">
        <ele>73</ele>
        <time>2026-06-10T15:26:22.453Z</time>
      </trkpt>
      <trkpt lat="30.659020818599032" lon="35.09942893161093">
        <ele>73</ele>
        <time>2026-06-10T15:26:23.453Z</time>
      </trkpt>
      <trkpt lat="30.658539883610754" lon="35.099293703570076">
        <ele>82</ele>
        <time>2026-06-10T15:26:24.453Z</time>
      </trkpt>
      <trkpt lat="30.65797196309206" lon="35.09920094383957">
        <ele>82</ele>
        <time>2026-06-10T15:26:25.453Z</time>
      </trkpt>
      <trkpt lat="30.657748259404634" lon="35.09911954624473">
        <ele>87</ele>
        <time>2026-06-10T15:26:26.453Z</time>
      </trkpt>
      <trkpt lat="30.65750704685242" lon="35.09900834632683">
        <ele>78</ele>
        <time>2026-06-10T15:26:27.453Z</time>
      </trkpt>
      <trkpt lat="30.657273098616447" lon="35.09894464386131">
        <ele>78</ele>
        <time>2026-06-10T15:26:28.453Z</time>
      </trkpt>
      <trkpt lat="30.65716879048576" lon="35.09885765833089">
        <ele>78</ele>
        <time>2026-06-10T15:26:29.453Z</time>
      </trkpt>
      <trkpt lat="30.656926646610945" lon="35.0984897859057">
        <ele>79</ele>
        <time>2026-06-10T15:26:30.453Z</time>
      </trkpt>
      <trkpt lat="30.656926646610945" lon="35.0984897859057">
        <ele>79</ele>
        <time>2026-06-10T15:26:31.453Z</time>
      </trkpt>
      <trkpt lat="30.65691193171394" lon="35.09846724789889">
        <ele>79</ele>
        <time>2026-06-10T15:26:32.453Z</time>
      </trkpt>
      <trkpt lat="30.656881756861846" lon="35.098350460045424">
        <ele>79</ele>
        <time>2026-06-10T15:26:33.453Z</time>
      </trkpt>
      <trkpt lat="30.65686815955195" lon="35.09814072619693">
        <ele>79</ele>
        <time>2026-06-10T15:26:34.453Z</time>
      </trkpt>
      <trkpt lat="30.656828671473907" lon="35.09802934001452">
        <ele>79</ele>
        <time>2026-06-10T15:26:35.453Z</time>
      </trkpt>
      <trkpt lat="30.65663383878694" lon="35.09768195668642">
        <ele>79</ele>
        <time>2026-06-10T15:26:36.453Z</time>
      </trkpt>
      <trkpt lat="30.65630396432364" lon="35.09723119655023">
        <ele>80</ele>
        <time>2026-06-10T15:26:37.453Z</time>
      </trkpt>
      <trkpt lat="30.656251437729257" lon="35.09714104452299">
        <ele>80</ele>
        <time>2026-06-10T15:26:38.453Z</time>
      </trkpt>
      <trkpt lat="30.656216792528706" lon="35.09704455950211">
        <ele>80</ele>
        <time>2026-06-10T15:26:39.453Z</time>
      </trkpt>
      <trkpt lat="30.65611173933994" lon="35.09645335591853">
        <ele>80</ele>
        <time>2026-06-10T15:26:40.453Z</time>
      </trkpt>
      <trkpt lat="30.65610969043023" lon="35.09626001334772">
        <ele>80</ele>
        <time>2026-06-10T15:26:41.453Z</time>
      </trkpt>
      <trkpt lat="30.656157560411636" lon="35.09612664795205">
        <ele>86</ele>
        <time>2026-06-10T15:26:42.453Z</time>
      </trkpt>
      <trkpt lat="30.65642820275787" lon="35.0957338160813">
        <ele>84</ele>
        <time>2026-06-10T15:26:43.453Z</time>
      </trkpt>
      <trkpt lat="30.656575910521504" lon="35.0954723006965">
        <ele>84</ele>
        <time>2026-06-10T15:26:44.453Z</time>
      </trkpt>
      <trkpt lat="30.656787134486148" lon="35.09519886438248">
        <ele>84</ele>
        <time>2026-06-10T15:26:45.453Z</time>
      </trkpt>
      <trkpt lat="30.65779426674085" lon="35.094367938362836">
        <ele>85</ele>
        <time>2026-06-10T15:26:46.453Z</time>
      </trkpt>
      <trkpt lat="30.659300587906703" lon="35.09286403863573">
        <ele>84</ele>
        <time>2026-06-10T15:26:47.453Z</time>
      </trkpt>
      <trkpt lat="30.659309714868137" lon="35.092849323738726">
        <ele>84</ele>
        <time>2026-06-10T15:26:48.453Z</time>
      </trkpt>
      <trkpt lat="30.659309714868137" lon="35.092849323738726">
        <ele>84</ele>
        <time>2026-06-10T15:26:49.453Z</time>
      </trkpt>
      <trkpt lat="30.659448295670337" lon="35.09262822775457">
        <ele>84</ele>
        <time>2026-06-10T15:26:50.453Z</time>
      </trkpt>
      <trkpt lat="30.659574396749758" lon="35.092259982800336">
        <ele>89</ele>
        <time>2026-06-10T15:26:51.453Z</time>
      </trkpt>
      <trkpt lat="30.659715398990706" lon="35.091990271776694">
        <ele>89</ele>
        <time>2026-06-10T15:26:52.453Z</time>
      </trkpt>
      <trkpt lat="30.65977202340451" lon="35.09179786052848">
        <ele>89</ele>
        <time>2026-06-10T15:26:53.453Z</time>
      </trkpt>
      <trkpt lat="30.659781150365944" lon="35.091705845856055">
        <ele>89</ele>
        <time>2026-06-10T15:26:54.453Z</time>
      </trkpt>
      <trkpt lat="30.65976177885596" lon="35.09139832313504">
        <ele>89</ele>
        <time>2026-06-10T15:26:55.453Z</time>
      </trkpt>
      <trkpt lat="30.659696027480724" lon="35.0912066569449">
        <ele>89</ele>
        <time>2026-06-10T15:26:56.453Z</time>
      </trkpt>
      <trkpt lat="30.65948703869031" lon="35.09080395305464">
        <ele>89</ele>
        <time>2026-06-10T15:26:57.453Z</time>
      </trkpt>
      <trkpt lat="30.659467480915804" lon="35.09071622246615">
        <ele>89</ele>
        <time>2026-06-10T15:26:58.453Z</time>
      </trkpt>
      <trkpt lat="30.659473441380413" lon="35.09046066754596">
        <ele>89</ele>
        <time>2026-06-10T15:26:59.453Z</time>
      </trkpt>
      <trkpt lat="30.65945164843168" lon="35.09028557889802">
        <ele>89</ele>
        <time>2026-06-10T15:27:00.453Z</time>
      </trkpt>
      <trkpt lat="30.659342497423495" lon="35.08992478452455">
        <ele>93</ele>
        <time>2026-06-10T15:27:01.453Z</time>
      </trkpt>
      <trkpt lat="30.6591502724398" lon="35.08916240384793">
        <ele>93</ele>
        <time>2026-06-10T15:27:02.453Z</time>
      </trkpt>
      <trkpt lat="30.65908079577418" lon="35.088455529997994">
        <ele>95</ele>
        <time>2026-06-10T15:27:03.453Z</time>
      </trkpt>
      <trkpt lat="30.65898486954685" lon="35.087994525313256">
        <ele>93</ele>
        <time>2026-06-10T15:27:04.453Z</time>
      </trkpt>
      <trkpt lat="30.65891353023604" lon="35.08782986747838">
        <ele>93</ele>
        <time>2026-06-10T15:27:05.453Z</time>
      </trkpt>
      <trkpt lat="30.65880363416978" lon="35.08766558217255">
        <ele>93</ele>
        <time>2026-06-10T15:27:06.453Z</time>
      </trkpt>
      <trkpt lat="30.658518835720095" lon="35.08737314687758">
        <ele>90</ele>
        <time>2026-06-10T15:27:07.453Z</time>
      </trkpt>
      <trkpt lat="30.658263839593467" lon="35.08702557728497">
        <ele>90</ele>
        <time>2026-06-10T15:27:08.453Z</time>
      </trkpt>
      <trkpt lat="30.657931729955937" lon="35.08674171015788">
        <ele>90</ele>
        <time>2026-06-10T15:27:09.453Z</time>
      </trkpt>
      <trkpt lat="30.65760409066686" lon="35.086281823060254">
        <ele>95</ele>
        <time>2026-06-10T15:27:10.453Z</time>
      </trkpt>
      <trkpt lat="30.657387837560204" lon="35.086073579327916">
        <ele>95</ele>
        <time>2026-06-10T15:27:11.453Z</time>
      </trkpt>
      <trkpt lat="30.657016053580108" lon="35.08577946765228">
        <ele>95</ele>
        <time>2026-06-10T15:27:12.453Z</time>
      </trkpt>
      <trkpt lat="30.656675562039215" lon="35.08532181572888">
        <ele>96</ele>
        <time>2026-06-10T15:27:13.453Z</time>
      </trkpt>
      <trkpt lat="30.656369529434357" lon="35.085124189074136">
        <ele>96</ele>
        <time>2026-06-10T15:27:14.453Z</time>
      </trkpt>
      <trkpt lat="30.656284779078174" lon="35.085023606233825">
        <ele>96</ele>
        <time>2026-06-10T15:27:15.453Z</time>
      </trkpt>
      <trkpt lat="30.656152158740582" lon="35.08482169549514">
        <ele>98</ele>
        <time>2026-06-10T15:27:16.453Z</time>
      </trkpt>
      <trkpt lat="30.655981354176582" lon="35.08467436026054">
        <ele>95</ele>
        <time>2026-06-10T15:27:17.453Z</time>
      </trkpt>
      <trkpt lat="30.655519604433767" lon="35.08435733804905">
        <ele>95</ele>
        <time>2026-06-10T15:27:18.453Z</time>
      </trkpt>
      <trkpt lat="30.65533967290833" lon="35.08427445033806">
        <ele>95</ele>
        <time>2026-06-10T15:27:19.453Z</time>
      </trkpt>
      <trkpt lat="30.655244319079017" lon="35.08424378353566">
        <ele>96.5</ele>
        <time>2026-06-10T15:27:20.453Z</time>
      </trkpt>
      <trkpt lat="30.655244319079017" lon="35.08424378353566">
        <ele>96.5</ele>
        <time>2026-06-10T15:27:21.453Z</time>
      </trkpt>
      <trkpt lat="30.65497422192188" lon="35.08415691742652">
        <ele>98</ele>
        <time>2026-06-10T15:27:22.453Z</time>
      </trkpt>
      <trkpt lat="30.654470003868713" lon="35.08403361031488">
        <ele>93</ele>
        <time>2026-06-10T15:27:23.453Z</time>
      </trkpt>
      <trkpt lat="30.653214394745554" lon="35.0835975650757">
        <ele>101</ele>
        <time>2026-06-10T15:27:24.453Z</time>
      </trkpt>
      <trkpt lat="30.653025895052238" lon="35.083585271617444">
        <ele>101</ele>
        <time>2026-06-10T15:27:25.453Z</time>
      </trkpt>
      <trkpt lat="30.652698442027685" lon="35.08352492191326">
        <ele>99</ele>
        <time>2026-06-10T15:27:26.453Z</time>
      </trkpt>
      <trkpt lat="30.652148030373784" lon="35.08324608392819">
        <ele>98</ele>
        <time>2026-06-10T15:27:27.453Z</time>
      </trkpt>
      <trkpt lat="30.652116737934577" lon="35.08322615362464">
        <ele>98</ele>
        <time>2026-06-10T15:27:28.453Z</time>
      </trkpt>
      <trkpt lat="30.652116737934577" lon="35.08322615362464">
        <ele>98</ele>
        <time>2026-06-10T15:27:29.453Z</time>
      </trkpt>
      <trkpt lat="30.652002557784375" lon="35.083154628049314">
        <ele>98</ele>
        <time>2026-06-10T15:27:30.453Z</time>
      </trkpt>
      <trkpt lat="30.651881299582453" lon="35.08305609411872">
        <ele>100</ele>
        <time>2026-06-10T15:27:31.453Z</time>
      </trkpt>
      <trkpt lat="30.65164697881744" lon="35.08278396165633">
        <ele>100</ele>
        <time>2026-06-10T15:27:32.453Z</time>
      </trkpt>
      <trkpt lat="30.65153857286733" lon="35.08262321537636">
        <ele>100</ele>
        <time>2026-06-10T15:27:33.453Z</time>
      </trkpt>
      <trkpt lat="30.651367023245253" lon="35.08227359687403">
        <ele>103</ele>
        <time>2026-06-10T15:27:34.453Z</time>
      </trkpt>
      <trkpt lat="30.651234402907665" lon="35.081915968997386">
        <ele>103</ele>
        <time>2026-06-10T15:27:35.453Z</time>
      </trkpt>
      <trkpt lat="30.65115337784186" lon="35.081753732601264">
        <ele>103</ele>
        <time>2026-06-10T15:27:36.453Z</time>
      </trkpt>
      <trkpt lat="30.650754212977457" lon="35.08117743017921">
        <ele>101</ele>
        <time>2026-06-10T15:27:37.453Z</time>
      </trkpt>
      <trkpt lat="30.650388016932936" lon="35.080553257775755">
        <ele>103</ele>
        <time>2026-06-10T15:27:38.453Z</time>
      </trkpt>
      <trkpt lat="30.650094650315374" lon="35.080148691240296">
        <ele>103</ele>
        <time>2026-06-10T15:27:39.453Z</time>
      </trkpt>
      <trkpt lat="30.649880259853905" lon="35.07965956061317">
        <ele>108</ele>
        <time>2026-06-10T15:27:40.453Z</time>
      </trkpt>
      <trkpt lat="30.64973646364517" lon="35.079403446899434">
        <ele>108</ele>
        <time>2026-06-10T15:27:41.453Z</time>
      </trkpt>
      <trkpt lat="30.649449988814816" lon="35.07904023108721">
        <ele>106</ele>
        <time>2026-06-10T15:27:42.453Z</time>
      </trkpt>
      <trkpt lat="30.64902511944678" lon="35.07844343956806">
        <ele>106</ele>
        <time>2026-06-10T15:27:43.453Z</time>
      </trkpt>
      <trkpt lat="30.6488291691727" lon="35.07811952556937">
        <ele>108</ele>
        <time>2026-06-10T15:27:44.453Z</time>
      </trkpt>
      <trkpt lat="30.648423857579168" lon="35.07755607539913">
        <ele>107</ele>
        <time>2026-06-10T15:27:45.453Z</time>
      </trkpt>
      <trkpt lat="30.64834786165538" lon="35.0774240138551">
        <ele>108</ele>
        <time>2026-06-10T15:27:46.453Z</time>
      </trkpt>
      <trkpt lat="30.64825808215718" lon="35.07706154310096">
        <ele>108</ele>
        <time>2026-06-10T15:27:47.453Z</time>
      </trkpt>
      <trkpt lat="30.6482748459639" lon="35.07687974893033">
        <ele>108</ele>
        <time>2026-06-10T15:27:48.453Z</time>
      </trkpt>
      <trkpt lat="30.64831321645483" lon="35.07672086529555">
        <ele>108</ele>
        <time>2026-06-10T15:27:49.453Z</time>
      </trkpt>
      <trkpt lat="30.648328676409914" lon="35.07646382025921">
        <ele>110</ele>
        <time>2026-06-10T15:27:50.453Z</time>
      </trkpt>
      <trkpt lat="30.64824802387315" lon="35.076040813536366">
        <ele>110</ele>
        <time>2026-06-10T15:27:51.453Z</time>
      </trkpt>
      <trkpt lat="30.648227162247014" lon="35.075857156720545">
        <ele>110</ele>
        <time>2026-06-10T15:27:52.453Z</time>
      </trkpt>
      <trkpt lat="30.648158616903988" lon="35.07561519911025">
        <ele>117</ele>
        <time>2026-06-10T15:27:53.453Z</time>
      </trkpt>
      <trkpt lat="30.648120618942094" lon="35.07542092521685">
        <ele>117</ele>
        <time>2026-06-10T15:27:54.453Z</time>
      </trkpt>
      <trkpt lat="30.64809677708365" lon="35.07521268148451">
        <ele>117</ele>
        <time>2026-06-10T15:27:55.453Z</time>
      </trkpt>
      <trkpt lat="30.648092306735194" lon="35.07493514735107">
        <ele>116</ele>
        <time>2026-06-10T15:27:56.453Z</time>
      </trkpt>
      <trkpt lat="30.648201644007898" lon="35.073754416564576">
        <ele>118</ele>
        <time>2026-06-10T15:27:57.453Z</time>
      </trkpt>
      <trkpt lat="30.648296638912633" lon="35.07330123498964">
        <ele>118</ele>
        <time>2026-06-10T15:27:58.453Z</time>
      </trkpt>
      <trkpt lat="30.64840318221755" lon="35.0729016975962">
        <ele>117</ele>
        <time>2026-06-10T15:27:59.453Z</time>
      </trkpt>
      <trkpt lat="30.648483275960757" lon="35.072216244165965">
        <ele>115</ele>
        <time>2026-06-10T15:28:00.453Z</time>
      </trkpt>
      <trkpt lat="30.648473776470283" lon="35.07213745427439">
        <ele>115</ele>
        <time>2026-06-10T15:28:01.453Z</time>
      </trkpt>
      <trkpt lat="30.648363694139505" lon="35.07194448423262">
        <ele>115</ele>
        <time>2026-06-10T15:28:02.453Z</time>
      </trkpt>
      <trkpt lat="30.648296080119074" lon="35.071440452443966">
        <ele>116</ele>
        <time>2026-06-10T15:28:03.453Z</time>
      </trkpt>
      <trkpt lat="30.64829906035138" lon="35.07112417529056">
        <ele>116</ele>
        <time>2026-06-10T15:28:04.453Z</time>
      </trkpt>
      <trkpt lat="30.648332587964816" lon="35.07068142452869">
        <ele>120</ele>
        <time>2026-06-10T15:28:05.453Z</time>
      </trkpt>
      <trkpt lat="30.648495383154497" lon="35.06981436319234">
        <ele>117</ele>
        <time>2026-06-10T15:28:06.453Z</time>
      </trkpt>
      <trkpt lat="30.648491099070558" lon="35.06956812149811">
        <ele>117</ele>
        <time>2026-06-10T15:28:07.453Z</time>
      </trkpt>
      <trkpt lat="30.64845012087636" lon="35.069346839249434">
        <ele>117</ele>
        <time>2026-06-10T15:28:08.453Z</time>
      </trkpt>
      <trkpt lat="30.64836443919758" lon="35.069088490361466">
        <ele>117</ele>
        <time>2026-06-10T15:28:09.453Z</time>
      </trkpt>
      <trkpt lat="30.64835009682961" lon="35.06895009582378">
        <ele>117</ele>
        <time>2026-06-10T15:28:10.453Z</time>
      </trkpt>
      <trkpt lat="30.6483558710297" lon="35.06883517061551">
        <ele>117</ele>
        <time>2026-06-10T15:28:11.453Z</time>
      </trkpt>
      <trkpt lat="30.648412681708024" lon="35.06849579666173">
        <ele>117</ele>
        <time>2026-06-10T15:28:12.453Z</time>
      </trkpt>
      <trkpt lat="30.648630238666318" lon="35.067767129863064">
        <ele>139</ele>
        <time>2026-06-10T15:28:13.453Z</time>
      </trkpt>
      <trkpt lat="30.648822463650014" lon="35.06700996459298">
        <ele>132</ele>
        <time>2026-06-10T15:28:14.453Z</time>
      </trkpt>
      <trkpt lat="30.648895479341494" lon="35.06661657392867">
        <ele>132</ele>
        <time>2026-06-10T15:28:15.453Z</time>
      </trkpt>
      <trkpt lat="30.648911870619173" lon="35.0663163155239">
        <ele>124</ele>
        <time>2026-06-10T15:28:16.453Z</time>
      </trkpt>
      <trkpt lat="30.648846864302012" lon="35.06535891589579">
        <ele>125</ele>
        <time>2026-06-10T15:28:17.453Z</time>
      </trkpt>
      <trkpt lat="30.648866794605556" lon="35.064873696823575">
        <ele>133</ele>
        <time>2026-06-10T15:28:18.453Z</time>
      </trkpt>
      <trkpt lat="30.648800484436762" lon="35.06443988675862">
        <ele>133</ele>
        <time>2026-06-10T15:28:19.453Z</time>
      </trkpt>
      <trkpt lat="30.64875559468766" lon="35.064243377690985">
        <ele>133</ele>
        <time>2026-06-10T15:28:20.453Z</time>
      </trkpt>
      <trkpt lat="30.648720576958073" lon="35.06415322566375">
        <ele>133</ele>
        <time>2026-06-10T15:28:21.453Z</time>
      </trkpt>
      <trkpt lat="30.64837691892036" lon="35.063697436385546">
        <ele>123</ele>
        <time>2026-06-10T15:28:22.453Z</time>
      </trkpt>
      <trkpt lat="30.648289747125425" lon="35.06351713233107">
        <ele>123</ele>
        <time>2026-06-10T15:28:23.453Z</time>
      </trkpt>
      <trkpt lat="30.648266277796022" lon="35.063418598400474">
        <ele>123</ele>
        <time>2026-06-10T15:28:24.453Z</time>
      </trkpt>
      <trkpt lat="30.648210398440295" lon="35.06310511521485">
        <ele>127</ele>
        <time>2026-06-10T15:28:25.453Z</time>
      </trkpt>
      <trkpt lat="30.64818730163993" lon="35.06288252911454">
        <ele>127</ele>
        <time>2026-06-10T15:28:26.453Z</time>
      </trkpt>
      <trkpt lat="30.648180037323684" lon="35.06246976694025">
        <ele>127</ele>
        <time>2026-06-10T15:28:27.453Z</time>
      </trkpt>
      <trkpt lat="30.648151352587746" lon="35.062159636515965">
        <ele>127</ele>
        <time>2026-06-10T15:28:28.453Z</time>
      </trkpt>
      <trkpt lat="30.648082248451164" lon="35.06180089105221">
        <ele>127</ele>
        <time>2026-06-10T15:28:29.453Z</time>
      </trkpt>
      <trkpt lat="30.64791628676466" lon="35.06135199356121">
        <ele>135</ele>
        <time>2026-06-10T15:28:30.453Z</time>
      </trkpt>
      <trkpt lat="30.647902316925727" lon="35.06086938219226">
        <ele>135</ele>
        <time>2026-06-10T15:28:31.453Z</time>
      </trkpt>
      <trkpt lat="30.647844947453848" lon="35.06060060249121">
        <ele>142</ele>
        <time>2026-06-10T15:28:32.453Z</time>
      </trkpt>
      <trkpt lat="30.647685877554547" lon="35.060125627967544">
        <ele>122</ele>
        <time>2026-06-10T15:28:33.453Z</time>
      </trkpt>
      <trkpt lat="30.64766445713485" lon="35.05994830414537">
        <ele>125</ele>
        <time>2026-06-10T15:28:34.453Z</time>
      </trkpt>
      <trkpt lat="30.647657751612165" lon="35.05978588148473">
        <ele>125</ele>
        <time>2026-06-10T15:28:35.453Z</time>
      </trkpt>
      <trkpt lat="30.64766874121879" lon="35.05966406448925">
        <ele>125</ele>
        <time>2026-06-10T15:28:36.453Z</time>
      </trkpt>
      <trkpt lat="30.647631115785938" lon="35.059347042277764">
        <ele>125</ele>
        <time>2026-06-10T15:28:37.453Z</time>
      </trkpt>
      <trkpt lat="30.647620126179312" lon="35.058973023123436">
        <ele>132</ele>
        <time>2026-06-10T15:28:38.453Z</time>
      </trkpt>
      <trkpt lat="30.647584177127126" lon="35.058836863759986">
        <ele>132</ele>
        <time>2026-06-10T15:28:39.453Z</time>
      </trkpt>
      <trkpt lat="30.647507063616224" lon="35.058687293351156">
        <ele>132</ele>
        <time>2026-06-10T15:28:40.453Z</time>
      </trkpt>
      <trkpt lat="30.647357493207398" lon="35.058510155793506">
        <ele>132</ele>
        <time>2026-06-10T15:28:41.453Z</time>
      </trkpt>
      <trkpt lat="30.64691865400043" lon="35.0583032159128">
        <ele>124</ele>
        <time>2026-06-10T15:28:42.453Z</time>
      </trkpt>
      <trkpt lat="30.646752692313925" lon="35.05819127093683">
        <ele>141</ele>
        <time>2026-06-10T15:28:43.453Z</time>
      </trkpt>
      <trkpt lat="30.646642051189588" lon="35.05804244558608">
        <ele>141</ele>
        <time>2026-06-10T15:28:44.453Z</time>
      </trkpt>
      <trkpt lat="30.64656177118186" lon="35.057968498572">
        <ele>141</ele>
        <time>2026-06-10T15:28:45.453Z</time>
      </trkpt>
      <trkpt lat="30.646455600405982" lon="35.05794298033289">
        <ele>141</ele>
        <time>2026-06-10T15:28:46.453Z</time>
      </trkpt>
      <trkpt lat="30.64619091852436" lon="35.0579528523524">
        <ele>141</ele>
        <time>2026-06-10T15:28:47.453Z</time>
      </trkpt>
      <trkpt lat="30.64595883293358" lon="35.057931059403664">
        <ele>128</ele>
        <time>2026-06-10T15:28:48.453Z</time>
      </trkpt>
      <trkpt lat="30.64554495317217" lon="35.05793888251347">
        <ele>128</ele>
        <time>2026-06-10T15:28:49.453Z</time>
      </trkpt>
      <trkpt lat="30.645071282500133" lon="35.05786288658968">
        <ele>130</ele>
        <time>2026-06-10T15:28:50.453Z</time>
      </trkpt>
      <trkpt lat="30.64500236462807" lon="35.057876856428614">
        <ele>130</ele>
        <time>2026-06-10T15:28:51.453Z</time>
      </trkpt>
      <trkpt lat="30.64500236462807" lon="35.057876856428614">
        <ele>130</ele>
        <time>2026-06-10T15:28:52.453Z</time>
      </trkpt>
      <trkpt lat="30.64488147895518" lon="35.057937578661836">
        <ele>130</ele>
        <time>2026-06-10T15:28:53.453Z</time>
      </trkpt>
      <trkpt lat="30.644649020835363" lon="35.05813427399399">
        <ele>130</ele>
        <time>2026-06-10T15:28:54.453Z</time>
      </trkpt>
      <trkpt lat="30.644554770988705" lon="35.05815420429753">
        <ele>130</ele>
        <time>2026-06-10T15:28:55.453Z</time>
      </trkpt>
      <trkpt lat="30.64439234832806" lon="35.05810912828392">
        <ele>128</ele>
        <time>2026-06-10T15:28:56.453Z</time>
      </trkpt>
      <trkpt lat="30.644183545802164" lon="35.05809124689008">
        <ele>128</ele>
        <time>2026-06-10T15:28:57.453Z</time>
      </trkpt>
      <trkpt lat="30.64392761835294" lon="35.05814433227802">
        <ele>128</ele>
        <time>2026-06-10T15:28:58.453Z</time>
      </trkpt>
      <trkpt lat="30.64354447223718" lon="35.05829297136425">
        <ele>129</ele>
        <time>2026-06-10T15:28:59.453Z</time>
      </trkpt>
      <trkpt lat="30.643477044481273" lon="35.05834456663604">
        <ele>129</ele>
        <time>2026-06-10T15:29:00.453Z</time>
      </trkpt>
      <trkpt lat="30.643064282306977" lon="35.05856342744597">
        <ele>129</ele>
        <time>2026-06-10T15:29:01.453Z</time>
      </trkpt>
      <trkpt lat="30.64261296337723" lon="35.05870666486114">
        <ele>131</ele>
        <time>2026-06-10T15:29:02.453Z</time>
      </trkpt>
      <trkpt lat="30.64249878322703" lon="35.058726595164686">
        <ele>131</ele>
        <time>2026-06-10T15:29:03.453Z</time>
      </trkpt>
      <trkpt lat="30.64239466136086" lon="35.058793464127035">
        <ele>131</ele>
        <time>2026-06-10T15:29:04.453Z</time>
      </trkpt>
      <trkpt lat="30.642276755920278" lon="35.05880985540472">
        <ele>131</ele>
        <time>2026-06-10T15:29:05.453Z</time>
      </trkpt>
      <trkpt lat="30.641951724334472" lon="35.05877055359119">
        <ele>131</ele>
        <time>2026-06-10T15:29:06.453Z</time>
      </trkpt>
      <trkpt lat="30.64131618979535" lon="35.058655628382915">
        <ele>131</ele>
        <time>2026-06-10T15:29:07.453Z</time>
      </trkpt>
      <trkpt lat="30.641268692342983" lon="35.05867704880261">
        <ele>131</ele>
        <time>2026-06-10T15:29:08.453Z</time>
      </trkpt>
      <trkpt lat="30.641048527681424" lon="35.05869735163519">
        <ele>133</ele>
        <time>2026-06-10T15:29:09.453Z</time>
      </trkpt>
      <trkpt lat="30.64081066789055" lon="35.05882997197278">
        <ele>133</ele>
        <time>2026-06-10T15:29:10.453Z</time>
      </trkpt>
      <trkpt lat="30.64047222525937" lon="35.059107506106216">
        <ele>133</ele>
        <time>2026-06-10T15:29:11.453Z</time>
      </trkpt>
      <trkpt lat="30.64026789308193" lon="35.05920119715932">
        <ele>132</ele>
        <time>2026-06-10T15:29:12.453Z</time>
      </trkpt>
      <trkpt lat="30.64026789308193" lon="35.05920119715932">
        <ele>132</ele>
        <time>2026-06-10T15:29:13.453Z</time>
      </trkpt>
      <trkpt lat="30.640241257255703" lon="35.05921349061758">
        <ele>132</ele>
        <time>2026-06-10T15:29:14.453Z</time>
      </trkpt>
      <trkpt lat="30.64015166402202" lon="35.05923267586304">
        <ele>132</ele>
        <time>2026-06-10T15:29:15.453Z</time>
      </trkpt>
      <trkpt lat="30.63999278038724" lon="35.05933344496787">
        <ele>132</ele>
        <time>2026-06-10T15:29:16.453Z</time>
      </trkpt>
      <trkpt lat="30.639840974804184" lon="35.05949437751236">
        <ele>132</ele>
        <time>2026-06-10T15:29:17.453Z</time>
      </trkpt>
      <trkpt lat="30.639565675844974" lon="35.059746393406684">
        <ele>132</ele>
        <time>2026-06-10T15:29:18.453Z</time>
      </trkpt>
      <trkpt lat="30.639330610021887" lon="35.06007217005057">
        <ele>134</ele>
        <time>2026-06-10T15:29:19.453Z</time>
      </trkpt>
      <trkpt lat="30.639241203052727" lon="35.06022043660776">
        <ele>134</ele>
        <time>2026-06-10T15:29:20.453Z</time>
      </trkpt>
      <trkpt lat="30.639241203052727" lon="35.06022043660776">
        <ele>134</ele>
        <time>2026-06-10T15:29:21.453Z</time>
      </trkpt>
      <trkpt lat="30.639230958504175" lon="35.06023720041448">
        <ele>134</ele>
        <time>2026-06-10T15:29:22.453Z</time>
      </trkpt>
      <trkpt lat="30.639033145584907" lon="35.06046686456651">
        <ele>134</ele>
        <time>2026-06-10T15:29:23.453Z</time>
      </trkpt>
      <trkpt lat="30.638801432523163" lon="35.06067026542135">
        <ele>134</ele>
        <time>2026-06-10T15:29:24.453Z</time>
      </trkpt>
      <trkpt lat="30.63877554175501" lon="35.06068255887961">
        <ele>134</ele>
        <time>2026-06-10T15:29:25.453Z</time>
      </trkpt>
      <trkpt lat="30.63877554175501" lon="35.06068255887961">
        <ele>134</ele>
        <time>2026-06-10T15:29:26.453Z</time>
      </trkpt>
      <trkpt lat="30.63864254888838" lon="35.06074644760966">
        <ele>134</ele>
        <time>2026-06-10T15:29:27.453Z</time>
      </trkpt>
      <trkpt lat="30.63854103472548" lon="35.060730615125536">
        <ele>138</ele>
        <time>2026-06-10T15:29:28.453Z</time>
      </trkpt>
      <trkpt lat="30.63835979934841" lon="35.06074942784196">
        <ele>138</ele>
        <time>2026-06-10T15:29:29.453Z</time>
      </trkpt>
      <trkpt lat="30.6381703683325" lon="35.06074179099668">
        <ele>138</ele>
        <time>2026-06-10T15:29:30.453Z</time>
      </trkpt>
      <trkpt lat="30.638011484697717" lon="35.060791709887795">
        <ele>137</ele>
        <time>2026-06-10T15:29:31.453Z</time>
      </trkpt>
      <trkpt lat="30.637684590466723" lon="35.0608121989849">
        <ele>135</ele>
        <time>2026-06-10T15:29:32.453Z</time>
      </trkpt>
      <trkpt lat="30.637471503856887" lon="35.06087161736649">
        <ele>135</ele>
        <time>2026-06-10T15:29:33.453Z</time>
      </trkpt>
      <trkpt lat="30.636907122364054" lon="35.06091054665097">
        <ele>137</ele>
        <time>2026-06-10T15:29:34.453Z</time>
      </trkpt>
      <trkpt lat="30.636368631639375" lon="35.061010570697725">
        <ele>137</ele>
        <time>2026-06-10T15:29:35.453Z</time>
      </trkpt>
      <trkpt lat="30.635993122368898" lon="35.06100144373629">
        <ele>145</ele>
        <time>2026-06-10T15:29:36.453Z</time>
      </trkpt>
      <trkpt lat="30.63553118636156" lon="35.06095525013556">
        <ele>145</ele>
        <time>2026-06-10T15:29:37.453Z</time>
      </trkpt>
      <trkpt lat="30.63530971784837" lon="35.06091147797357">
        <ele>145</ele>
        <time>2026-06-10T15:29:38.453Z</time>
      </trkpt>
      <trkpt lat="30.635112836251693" lon="35.06080232696539">
        <ele>141</ele>
        <time>2026-06-10T15:29:39.453Z</time>
      </trkpt>
      <trkpt lat="30.63485076207334" lon="35.060586260123245">
        <ele>155</ele>
        <time>2026-06-10T15:29:40.453Z</time>
      </trkpt>
      <trkpt lat="30.634747944058805" lon="35.060471893708524">
        <ele>155</ele>
        <time>2026-06-10T15:29:41.453Z</time>
      </trkpt>
      <trkpt lat="30.634458675260664" lon="35.06022639707237">
        <ele>144</ele>
        <time>2026-06-10T15:29:42.453Z</time>
      </trkpt>
      <trkpt lat="30.634342446200755" lon="35.060109050425346">
        <ele>144</ele>
        <time>2026-06-10T15:29:43.453Z</time>
      </trkpt>
      <trkpt lat="30.63422044294075" lon="35.05989428743484">
        <ele>144</ele>
        <time>2026-06-10T15:29:44.453Z</time>
      </trkpt>
      <trkpt lat="30.634190826882218" lon="35.05975719674879">
        <ele>144</ele>
        <time>2026-06-10T15:29:45.453Z</time>
      </trkpt>
      <trkpt lat="30.634048893318674" lon="35.059503504473795">
        <ele>144</ele>
        <time>2026-06-10T15:29:46.453Z</time>
      </trkpt>
      <trkpt lat="30.634006425008323" lon="35.05932934714845">
        <ele>144</ele>
        <time>2026-06-10T15:29:47.453Z</time>
      </trkpt>
      <trkpt lat="30.63400679753736" lon="35.05922503901776">
        <ele>144</ele>
        <time>2026-06-10T15:29:48.453Z</time>
      </trkpt>
      <trkpt lat="30.63404926584771" lon="35.059108064899775">
        <ele>147</ele>
        <time>2026-06-10T15:29:49.453Z</time>
      </trkpt>
      <trkpt lat="30.63408614622249" lon="35.05905814600866">
        <ele>147</ele>
        <time>2026-06-10T15:29:50.453Z</time>
      </trkpt>
      <trkpt lat="30.63423702048295" lon="35.05892329049684">
        <ele>147</ele>
        <time>2026-06-10T15:29:51.453Z</time>
      </trkpt>
      <trkpt lat="30.634478233035168" lon="35.05863569807937">
        <ele>165</ele>
        <time>2026-06-10T15:29:52.453Z</time>
      </trkpt>
      <trkpt lat="30.634811646524334" lon="35.05829390268685">
        <ele>165</ele>
        <time>2026-06-10T15:29:53.453Z</time>
      </trkpt>
      <trkpt lat="30.634931973403663" lon="35.058088266657776">
        <ele>153</ele>
        <time>2026-06-10T15:29:54.453Z</time>
      </trkpt>
      <trkpt lat="30.634973882920455" lon="35.05795061717817">
        <ele>153</ele>
        <time>2026-06-10T15:29:55.453Z</time>
      </trkpt>
      <trkpt lat="30.63498133350122" lon="35.05787741522217">
        <ele>153</ele>
        <time>2026-06-10T15:29:56.453Z</time>
      </trkpt>
      <trkpt lat="30.634944266861922" lon="35.05772765854883">
        <ele>153</ele>
        <time>2026-06-10T15:29:57.453Z</time>
      </trkpt>
      <trkpt lat="30.63480196076934" lon="35.057315268903565">
        <ele>147</ele>
        <time>2026-06-10T15:29:58.453Z</time>
      </trkpt>
      <trkpt lat="30.634760423781582" lon="35.0571409253137">
        <ele>147</ele>
        <time>2026-06-10T15:29:59.453Z</time>
      </trkpt>
      <trkpt lat="30.63473658192314" lon="35.05694925912356">
        <ele>147</ele>
        <time>2026-06-10T15:30:00.453Z</time>
      </trkpt>
      <trkpt lat="30.63470826971624" lon="35.05641933656676">
        <ele>150</ele>
        <time>2026-06-10T15:30:01.453Z</time>
      </trkpt>
      <trkpt lat="30.6346756734254" lon="35.056220964853935">
        <ele>150</ele>
        <time>2026-06-10T15:30:02.453Z</time>
      </trkpt>
      <trkpt lat="30.634684986651354" lon="35.055861846861134">
        <ele>150</ele>
        <time>2026-06-10T15:30:03.453Z</time>
      </trkpt>
      <trkpt lat="30.634624823211688" lon="35.055364334330655">
        <ele>155</ele>
        <time>2026-06-10T15:30:04.453Z</time>
      </trkpt>
      <trkpt lat="30.63457509058509" lon="35.05516726646946">
        <ele>155</ele>
        <time>2026-06-10T15:30:05.453Z</time>
      </trkpt>
      <trkpt lat="30.63442496138271" lon="35.054777973624574">
        <ele>148</ele>
        <time>2026-06-10T15:30:06.453Z</time>
      </trkpt>
      <trkpt lat="30.634339093439408" lon="35.05447883280692">
        <ele>148</ele>
        <time>2026-06-10T15:30:07.453Z</time>
      </trkpt>
      <trkpt lat="30.63424968647025" lon="35.054051355735616">
        <ele>156</ele>
        <time>2026-06-10T15:30:08.453Z</time>
      </trkpt>
      <trkpt lat="30.63411483095843" lon="35.0536715623812">
        <ele>156</ele>
        <time>2026-06-10T15:30:09.453Z</time>
      </trkpt>
      <trkpt lat="30.633990219995162" lon="35.05345903456492">
        <ele>156</ele>
        <time>2026-06-10T15:30:10.453Z</time>
      </trkpt>
      <trkpt lat="30.633759438256014" lon="35.0531982642382">
        <ele>158</ele>
        <time>2026-06-10T15:30:11.453Z</time>
      </trkpt>
      <trkpt lat="30.633636317408897" lon="35.05315803110208">
        <ele>146</ele>
        <time>2026-06-10T15:30:12.453Z</time>
      </trkpt>
      <trkpt lat="30.633263415841686" lon="35.053219498393375">
        <ele>146</ele>
        <time>2026-06-10T15:30:13.453Z</time>
      </trkpt>
      <trkpt lat="30.63309484645191" lon="35.053216145632035">
        <ele>146</ele>
        <time>2026-06-10T15:30:14.453Z</time>
      </trkpt>
      <trkpt lat="30.63254871888195" lon="35.05313102274681">
        <ele>157</ele>
        <time>2026-06-10T15:30:15.453Z</time>
      </trkpt>
      <trkpt lat="30.632473840545277" lon="35.05314257114699">
        <ele>157</ele>
        <time>2026-06-10T15:30:16.453Z</time>
      </trkpt>
      <trkpt lat="30.632299124426375" lon="35.05323309570327">
        <ele>157</ele>
        <time>2026-06-10T15:30:17.453Z</time>
      </trkpt>
      <trkpt lat="30.632230579083352" lon="35.05329772949139">
        <ele>148</ele>
        <time>2026-06-10T15:30:18.453Z</time>
      </trkpt>
      <trkpt lat="30.63218550306973" lon="35.053397381009106">
        <ele>148</ele>
        <time>2026-06-10T15:30:19.453Z</time>
      </trkpt>
      <trkpt lat="30.63199439567315" lon="35.05352404088208">
        <ele>148</ele>
        <time>2026-06-10T15:30:20.453Z</time>
      </trkpt>
      <trkpt lat="30.631742752307865" lon="35.05374644071787">
        <ele>152</ele>
        <time>2026-06-10T15:30:21.453Z</time>
      </trkpt>
      <trkpt lat="30.631467639613174" lon="35.05409717680731">
        <ele>152</ele>
        <time>2026-06-10T15:30:22.453Z</time>
      </trkpt>
      <trkpt lat="30.631376928792378" lon="35.05424432577739">
        <ele>147</ele>
        <time>2026-06-10T15:30:23.453Z</time>
      </trkpt>
      <trkpt lat="30.63131117741714" lon="35.05440004291535">
        <ele>147</ele>
        <time>2026-06-10T15:30:24.453Z</time>
      </trkpt>
      <trkpt lat="30.631140931646694" lon="35.054712222249336">
        <ele>147</ele>
        <time>2026-06-10T15:30:25.453Z</time>
      </trkpt>
      <trkpt lat="30.631092316607216" lon="35.05477313074707">
        <ele>151</ele>
        <time>2026-06-10T15:30:26.453Z</time>
      </trkpt>
      <trkpt lat="30.63101725200602" lon="35.05495175842088">
        <ele>151</ele>
        <time>2026-06-10T15:30:27.453Z</time>
      </trkpt>
      <trkpt lat="30.630837879274143" lon="35.05518626545041">
        <ele>150</ele>
        <time>2026-06-10T15:30:28.453Z</time>
      </trkpt>
      <trkpt lat="30.63076877513756" lon="35.05522966508336">
        <ele>150</ele>
        <time>2026-06-10T15:30:29.453Z</time>
      </trkpt>
      <trkpt lat="30.630673035174752" lon="35.05535129581432">
        <ele>150</ele>
        <time>2026-06-10T15:30:30.453Z</time>
      </trkpt>
      <trkpt lat="30.630138083475934" lon="35.056175888840315">
        <ele>146</ele>
        <time>2026-06-10T15:30:31.453Z</time>
      </trkpt>
      <trkpt lat="30.63002446211929" lon="35.05644522733491">
        <ele>146</ele>
        <time>2026-06-10T15:30:32.453Z</time>
      </trkpt>
      <trkpt lat="30.629907674265823" lon="35.05683470644433">
        <ele>151</ele>
        <time>2026-06-10T15:30:33.453Z</time>
      </trkpt>
      <trkpt lat="30.62965584463602" lon="35.05738251039496">
        <ele>151</ele>
        <time>2026-06-10T15:30:34.453Z</time>
      </trkpt>
      <trkpt lat="30.629550046389177" lon="35.05767401436733">
        <ele>151</ele>
        <time>2026-06-10T15:30:35.453Z</time>
      </trkpt>
      <trkpt lat="30.629416122199956" lon="35.05795229355884">
        <ele>147</ele>
        <time>2026-06-10T15:30:36.453Z</time>
      </trkpt>
      <trkpt lat="30.629392094076994" lon="35.05812496076803">
        <ele>147</ele>
        <time>2026-06-10T15:30:37.453Z</time>
      </trkpt>
      <trkpt lat="30.62930268710783" lon="35.05834661554575">
        <ele>149</ele>
        <time>2026-06-10T15:30:38.453Z</time>
      </trkpt>
      <trkpt lat="30.62921346640319" lon="35.058468060012196">
        <ele>149</ele>
        <time>2026-06-10T15:30:39.453Z</time>
      </trkpt>
      <trkpt lat="30.629149391408625" lon="35.05851779263879">
        <ele>149</ele>
        <time>2026-06-10T15:30:40.453Z</time>
      </trkpt>
      <trkpt lat="30.628944872966667" lon="35.05874354523592">
        <ele>149</ele>
        <time>2026-06-10T15:30:41.453Z</time>
      </trkpt>
      <trkpt lat="30.628786175596407" lon="35.05894396585846">
        <ele>149</ele>
        <time>2026-06-10T15:30:42.453Z</time>
      </trkpt>
      <trkpt lat="30.628673858091396" lon="35.05917232615886">
        <ele>149</ele>
        <time>2026-06-10T15:30:43.453Z</time>
      </trkpt>
      <trkpt lat="30.62851851348248" lon="35.059575030049125">
        <ele>148</ele>
        <time>2026-06-10T15:30:44.453Z</time>
      </trkpt>
      <trkpt lat="30.628402284422567" lon="35.05979947879462">
        <ele>148</ele>
        <time>2026-06-10T15:30:45.453Z</time>
      </trkpt>
      <trkpt lat="30.62830002520159" lon="35.059950166790564">
        <ele>148</ele>
        <time>2026-06-10T15:30:46.453Z</time>
      </trkpt>
      <trkpt lat="30.628244145845862" lon="35.060014800578685">
        <ele>148</ele>
        <time>2026-06-10T15:30:47.453Z</time>
      </trkpt>
      <trkpt lat="30.628106496366257" lon="35.060118736180335">
        <ele>148</ele>
        <time>2026-06-10T15:30:48.453Z</time>
      </trkpt>
      <trkpt lat="30.627978346377127" lon="35.060177595768366">
        <ele>148</ele>
        <time>2026-06-10T15:30:49.453Z</time>
      </trkpt>
      <trkpt lat="30.627844049658865" lon="35.060204790388156">
        <ele>148</ele>
        <time>2026-06-10T15:30:50.453Z</time>
      </trkpt>
      <trkpt lat="30.627730242037703" lon="35.06031524524797">
        <ele>155</ele>
        <time>2026-06-10T15:30:51.453Z</time>
      </trkpt>
      <trkpt lat="30.62754546763477" lon="35.060696528718545">
        <ele>155</ele>
        <time>2026-06-10T15:30:52.453Z</time>
      </trkpt>
      <trkpt lat="30.62748418660799" lon="35.06086845086966">
        <ele>154</ele>
        <time>2026-06-10T15:30:53.453Z</time>
      </trkpt>
      <trkpt lat="30.627399622516325" lon="35.061188267048934">
        <ele>154</ele>
        <time>2026-06-10T15:30:54.453Z</time>
      </trkpt>
      <trkpt lat="30.627271286262676" lon="35.061492995802155">
        <ele>154</ele>
        <time>2026-06-10T15:30:55.453Z</time>
      </trkpt>
      <trkpt lat="30.627040690788046" lon="35.06177369643242">
        <ele>153</ele>
        <time>2026-06-10T15:30:56.453Z</time>
      </trkpt>
      <trkpt lat="30.626588068006665" lon="35.06224643578186">
        <ele>166</ele>
        <time>2026-06-10T15:30:57.453Z</time>
      </trkpt>
      <trkpt lat="30.62638578473894" lon="35.0625483705673">
        <ele>156</ele>
        <time>2026-06-10T15:30:58.453Z</time>
      </trkpt>
      <trkpt lat="30.6261326512575" lon="35.06307549915631">
        <ele>183</ele>
        <time>2026-06-10T15:30:59.453Z</time>
      </trkpt>
      <trkpt lat="30.625966689570994" lon="35.06363317512646">
        <ele>158</ele>
        <time>2026-06-10T15:31:00.453Z</time>
      </trkpt>
      <trkpt lat="30.625880262834137" lon="35.064021722913274">
        <ele>158</ele>
        <time>2026-06-10T15:31:01.453Z</time>
      </trkpt>
      <trkpt lat="30.625797747652182" lon="35.06418805712882">
        <ele>155</ele>
        <time>2026-06-10T15:31:02.453Z</time>
      </trkpt>
      <trkpt lat="30.62570182142485" lon="35.064321236259964">
        <ele>155</ele>
        <time>2026-06-10T15:31:03.453Z</time>
      </trkpt>
      <trkpt lat="30.625508851383078" lon="35.06449259961752">
        <ele>155</ele>
        <time>2026-06-10T15:31:04.453Z</time>
      </trkpt>
      <trkpt lat="30.62520486768793" lon="35.064630621626165">
        <ele>161</ele>
        <time>2026-06-10T15:31:05.453Z</time>
      </trkpt>
      <trkpt lat="30.62507057096967" lon="35.06472636158898">
        <ele>161</ele>
        <time>2026-06-10T15:31:06.453Z</time>
      </trkpt>
      <trkpt lat="30.624965145251867" lon="35.06476882989933">
        <ele>161</ele>
        <time>2026-06-10T15:31:07.453Z</time>
      </trkpt>
      <trkpt lat="30.624823211688323" lon="35.064857491810415">
        <ele>161</ele>
        <time>2026-06-10T15:31:08.453Z</time>
      </trkpt>
      <trkpt lat="30.62430781776401" lon="35.06536822912175">
        <ele>163</ele>
        <time>2026-06-10T15:31:09.453Z</time>
      </trkpt>
      <trkpt lat="30.624023205578847" lon="35.06559379545436">
        <ele>163</ele>
        <time>2026-06-10T15:31:10.453Z</time>
      </trkpt>
      <trkpt lat="30.62379968815594" lon="35.065909886343256">
        <ele>158</ele>
        <time>2026-06-10T15:31:11.453Z</time>
      </trkpt>
      <trkpt lat="30.623392886446258" lon="35.066381321841064">
        <ele>165</ele>
        <time>2026-06-10T15:31:12.453Z</time>
      </trkpt>
      <trkpt lat="30.623064874628145" lon="35.06662793606433">
        <ele>161</ele>
        <time>2026-06-10T15:31:13.453Z</time>
      </trkpt>
      <trkpt lat="30.622879355167136" lon="35.06674658656299">
        <ele>161</ele>
        <time>2026-06-10T15:31:14.453Z</time>
      </trkpt>
      <trkpt lat="30.622738725455225" lon="35.066770428421435">
        <ele>162</ele>
        <time>2026-06-10T15:31:15.453Z</time>
      </trkpt>
      <trkpt lat="30.622619702427528" lon="35.066745468975874">
        <ele>162</ele>
        <time>2026-06-10T15:31:16.453Z</time>
      </trkpt>
      <trkpt lat="30.62223599751821" lon="35.06648972779117">
        <ele>172</ele>
        <time>2026-06-10T15:31:17.453Z</time>
      </trkpt>
      <trkpt lat="30.622039860979612" lon="35.0664226725643">
        <ele>172</ele>
        <time>2026-06-10T15:31:18.453Z</time>
      </trkpt>
      <trkpt lat="30.621495596054842" lon="35.06611403225617">
        <ele>162</ele>
        <time>2026-06-10T15:31:19.453Z</time>
      </trkpt>
      <trkpt lat="30.621238364753985" lon="35.06593614964044">
        <ele>162</ele>
        <time>2026-06-10T15:31:20.453Z</time>
      </trkpt>
      <trkpt lat="30.621085814112853" lon="35.06575696317309">
        <ele>167</ele>
        <time>2026-06-10T15:31:21.453Z</time>
      </trkpt>
      <trkpt lat="30.620924136510286" lon="35.065609627938485">
        <ele>167</ele>
        <time>2026-06-10T15:31:22.453Z</time>
      </trkpt>
      <trkpt lat="30.62087291376754" lon="35.06558038440899">
        <ele>167</ele>
        <time>2026-06-10T15:31:23.453Z</time>
      </trkpt>
      <trkpt lat="30.62069316850662" lon="35.06552897540172">
        <ele>167</ele>
        <time>2026-06-10T15:31:24.453Z</time>
      </trkpt>
      <trkpt lat="30.620477660458036" lon="35.06553772983412">
        <ele>167</ele>
        <time>2026-06-10T15:31:25.453Z</time>
      </trkpt>
      <trkpt lat="30.620169392678946" lon="35.065607765293294">
        <ele>167</ele>
        <time>2026-06-10T15:31:26.453Z</time>
      </trkpt>
      <trkpt lat="30.619814745034606" lon="35.065773540715284">
        <ele>167</ele>
        <time>2026-06-10T15:31:27.453Z</time>
      </trkpt>
      <trkpt lat="30.61953702463665" lon="35.065992774054244">
        <ele>161</ele>
        <time>2026-06-10T15:31:28.453Z</time>
      </trkpt>
      <trkpt lat="30.619203611147483" lon="35.0663407161759">
        <ele>160</ele>
        <time>2026-06-10T15:31:29.453Z</time>
      </trkpt>
      <trkpt lat="30.619084588119787" lon="35.06643980890006">
        <ele>160</ele>
        <time>2026-06-10T15:31:30.453Z</time>
      </trkpt>
      <trkpt lat="30.61863569062879" lon="35.06669834405255">
        <ele>167</ele>
        <time>2026-06-10T15:31:31.453Z</time>
      </trkpt>
      <trkpt lat="30.6183030221977" lon="35.06684567928714">
        <ele>167</ele>
        <time>2026-06-10T15:31:32.453Z</time>
      </trkpt>
      <trkpt lat="30.618136687982158" lon="35.06689727455893">
        <ele>167</ele>
        <time>2026-06-10T15:31:33.453Z</time>
      </trkpt>
      <trkpt lat="30.618051565096934" lon="35.06691198945594">
        <ele>167</ele>
        <time>2026-06-10T15:31:34.453Z</time>
      </trkpt>
      <trkpt lat="30.617565787231158" lon="35.06690062732027">
        <ele>166</ele>
        <time>2026-06-10T15:31:35.453Z</time>
      </trkpt>
      <trkpt lat="30.6170841071848" lon="35.0668618843003">
        <ele>166</ele>
        <time>2026-06-10T15:31:36.453Z</time>
      </trkpt>
      <trkpt lat="30.61676764376687" lon="35.06688311845548">
        <ele>168</ele>
        <time>2026-06-10T15:31:37.453Z</time>
      </trkpt>
      <trkpt lat="30.616689040139818" lon="35.06687715799087">
        <ele>168</ele>
        <time>2026-06-10T15:31:38.453Z</time>
      </trkpt>
      <trkpt lat="30.616341843076242" lon="35.06679091751853">
        <ele>168</ele>
        <time>2026-06-10T15:31:39.453Z</time>
      </trkpt>
      <trkpt lat="30.616197860602988" lon="35.06678067296998">
        <ele>168</ele>
        <time>2026-06-10T15:31:40.453Z</time>
      </trkpt>
      <trkpt lat="30.615764423067073" lon="35.066933037346594">
        <ele>174</ele>
        <time>2026-06-10T15:31:41.453Z</time>
      </trkpt>
      <trkpt lat="30.615525445689084" lon="35.066960231966384">
        <ele>174</ele>
        <time>2026-06-10T15:31:42.453Z</time>
      </trkpt>
      <trkpt lat="30.61538146321583" lon="35.06700903327038">
        <ele>174</ele>
        <time>2026-06-10T15:31:43.453Z</time>
      </trkpt>
      <trkpt lat="30.615178807419063" lon="35.06711818427857">
        <ele>179</ele>
        <time>2026-06-10T15:31:44.453Z</time>
      </trkpt>
      <trkpt lat="30.61498155329335" lon="35.067179651569866">
        <ele>179</ele>
        <time>2026-06-10T15:31:45.453Z</time>
      </trkpt>
      <trkpt lat="30.614677197069167" lon="35.06719250382168">
        <ele>179</ele>
        <time>2026-06-10T15:31:46.453Z</time>
      </trkpt>
      <trkpt lat="30.61411598207316" lon="35.067155437182386">
        <ele>190</ele>
        <time>2026-06-10T15:31:47.453Z</time>
      </trkpt>
      <trkpt lat="30.61362796903315" lon="35.067102165529924">
        <ele>196</ele>
        <time>2026-06-10T15:31:48.453Z</time>
      </trkpt>
      <trkpt lat="30.6133893641842" lon="35.06709061712974">
        <ele>196</ele>
        <time>2026-06-10T15:31:49.453Z</time>
      </trkpt>
      <trkpt lat="30.613126358683253" lon="35.06710179300089">
        <ele>196</ele>
        <time>2026-06-10T15:31:50.453Z</time>
      </trkpt>
      <trkpt lat="30.612194663558782" lon="35.06732978077225">
        <ele>190</ele>
        <time>2026-06-10T15:31:51.453Z</time>
      </trkpt>
      <trkpt lat="30.6119460004258" lon="35.067461842316284">
        <ele>168</ele>
        <time>2026-06-10T15:31:52.453Z</time>
      </trkpt>
      <trkpt lat="30.611641271672575" lon="35.067660959087185">
        <ele>168</ele>
        <time>2026-06-10T15:31:53.453Z</time>
      </trkpt>
      <trkpt lat="30.611460781353582" lon="35.06773173960444">
        <ele>168</ele>
        <time>2026-06-10T15:31:54.453Z</time>
      </trkpt>
      <trkpt lat="30.61107912535397" lon="35.06782803836081">
        <ele>172</ele>
        <time>2026-06-10T15:31:55.453Z</time>
      </trkpt>
      <trkpt lat="30.610833814982335" lon="35.067909622220164">
        <ele>172</ele>
        <time>2026-06-10T15:31:56.453Z</time>
      </trkpt>
      <trkpt lat="30.61037858449769" lon="35.067962335079066">
        <ele>172</ele>
        <time>2026-06-10T15:31:57.453Z</time>
      </trkpt>
      <trkpt lat="30.609988919123758" lon="35.067946130065906">
        <ele>174</ele>
        <time>2026-06-10T15:31:58.453Z</time>
      </trkpt>
      <trkpt lat="30.609762980262108" lon="35.06789490732316">
        <ele>174</ele>
        <time>2026-06-10T15:31:59.453Z</time>
      </trkpt>
      <trkpt lat="30.60969108215774" lon="35.06786398741299">
        <ele>174</ele>
        <time>2026-06-10T15:32:00.453Z</time>
      </trkpt>
      <trkpt lat="30.609222999421277" lon="35.06761085393155">
        <ele>177</ele>
        <time>2026-06-10T15:32:01.453Z</time>
      </trkpt>
      <trkpt lat="30.608946024081394" lon="35.067420119064">
        <ele>175</ele>
        <time>2026-06-10T15:32:02.453Z</time>
      </trkpt>
      <trkpt lat="30.60875156392347" lon="35.06724782438385">
        <ele>175</ele>
        <time>2026-06-10T15:32:03.453Z</time>
      </trkpt>
      <trkpt lat="30.608653775050946" lon="35.06710905731713">
        <ele>179</ele>
        <time>2026-06-10T15:32:04.453Z</time>
      </trkpt>
      <trkpt lat="30.608544251513724" lon="35.06689131409432">
        <ele>179</ele>
        <time>2026-06-10T15:32:05.453Z</time>
      </trkpt>
      <trkpt lat="30.6083654375754" lon="35.06660018265099">
        <ele>177</ele>
        <time>2026-06-10T15:32:06.453Z</time>
      </trkpt>
      <trkpt lat="30.608211583082635" lon="35.06627719997489">
        <ele>177</ele>
        <time>2026-06-10T15:32:07.453Z</time>
      </trkpt>
      <trkpt lat="30.608128136578085" lon="35.06603077201614">
        <ele>177</ele>
        <time>2026-06-10T15:32:08.453Z</time>
      </trkpt>
      <trkpt lat="30.608045248867093" lon="35.065873378497514">
        <ele>177</ele>
        <time>2026-06-10T15:32:09.453Z</time>
      </trkpt>
      <trkpt lat="30.60799477118242" lon="35.06581246999977">
        <ele>177</ele>
        <time>2026-06-10T15:32:10.453Z</time>
      </trkpt>
      <trkpt lat="30.607912256000464" lon="35.0656019910932">
        <ele>177</ele>
        <time>2026-06-10T15:32:11.453Z</time>
      </trkpt>
      <trkpt lat="30.607940195678328" lon="35.06535723951512">
        <ele>177</ele>
        <time>2026-06-10T15:32:12.453Z</time>
      </trkpt>
      <trkpt lat="30.607917471407" lon="35.06522014882908">
        <ele>177</ele>
        <time>2026-06-10T15:32:13.453Z</time>
      </trkpt>
      <trkpt lat="30.607910393355272" lon="35.064608642412914">
        <ele>176</ele>
        <time>2026-06-10T15:32:14.453Z</time>
      </trkpt>
      <trkpt lat="30.607961429833505" lon="35.06409231716601">
        <ele>180</ele>
        <time>2026-06-10T15:32:15.453Z</time>
      </trkpt>
      <trkpt lat="30.607940940736405" lon="35.06384756558793">
        <ele>180</ele>
        <time>2026-06-10T15:32:16.453Z</time>
      </trkpt>
      <trkpt lat="30.607950253962358" lon="35.063719974392356">
        <ele>180</ele>
        <time>2026-06-10T15:32:17.453Z</time>
      </trkpt>
      <trkpt lat="30.608009858608465" lon="35.0634949668533">
        <ele>180</ele>
        <time>2026-06-10T15:32:18.453Z</time>
      </trkpt>
      <trkpt lat="30.60810280460349" lon="35.063263253791554">
        <ele>184</ele>
        <time>2026-06-10T15:32:19.453Z</time>
      </trkpt>
      <trkpt lat="30.608179359320836" lon="35.06296057394804">
        <ele>184</ele>
        <time>2026-06-10T15:32:20.453Z</time>
      </trkpt>
      <trkpt lat="30.60820040721149" lon="35.06280169031326">
        <ele>184</ele>
        <time>2026-06-10T15:32:21.453Z</time>
      </trkpt>
      <trkpt lat="30.608242689257324" lon="35.06264876714309">
        <ele>184</ele>
        <time>2026-06-10T15:32:22.453Z</time>
      </trkpt>
      <trkpt lat="30.608257031625293" lon="35.06246026744977">
        <ele>184</ele>
        <time>2026-06-10T15:32:23.453Z</time>
      </trkpt>
      <trkpt lat="30.608297078496896" lon="35.06221775104592">
        <ele>188</ele>
        <time>2026-06-10T15:32:24.453Z</time>
      </trkpt>
      <trkpt lat="30.608344575949264" lon="35.062004478171566">
        <ele>188</ele>
        <time>2026-06-10T15:32:25.453Z</time>
      </trkpt>
      <trkpt lat="30.608477568815893" lon="35.061612018829855">
        <ele>184</ele>
        <time>2026-06-10T15:32:26.453Z</time>
      </trkpt>
      <trkpt lat="30.608527860236045" lon="35.06133970010295">
        <ele>184</ele>
        <time>2026-06-10T15:32:27.453Z</time>
      </trkpt>
      <trkpt lat="30.60856194664304" lon="35.060955063871035">
        <ele>184</ele>
        <time>2026-06-10T15:32:28.453Z</time>
      </trkpt>
      <trkpt lat="30.608652657463832" lon="35.060657785698574">
        <ele>181</ele>
        <time>2026-06-10T15:32:29.453Z</time>
      </trkpt>
      <trkpt lat="30.60879794378872" lon="35.060059317798746">
        <ele>201</ele>
        <time>2026-06-10T15:32:30.453Z</time>
      </trkpt>
      <trkpt lat="30.608837431866768" lon="35.05971808119978">
        <ele>190</ele>
        <time>2026-06-10T15:32:31.453Z</time>
      </trkpt>
      <trkpt lat="30.608849911589544" lon="35.059338474109886">
        <ele>190</ele>
        <time>2026-06-10T15:32:32.453Z</time>
      </trkpt>
      <trkpt lat="30.60888567437721" lon="35.05904156846646">
        <ele>188</ele>
        <time>2026-06-10T15:32:33.453Z</time>
      </trkpt>
      <trkpt lat="30.608956641158983" lon="35.05853008609705">
        <ele>188</ele>
        <time>2026-06-10T15:32:34.453Z</time>
      </trkpt>
      <trkpt lat="30.609064674580054" lon="35.058120490419576">
        <ele>185</ele>
        <time>2026-06-10T15:32:35.453Z</time>
      </trkpt>
      <trkpt lat="30.60909559449022" lon="35.057784655491666">
        <ele>185</ele>
        <time>2026-06-10T15:32:36.453Z</time>
      </trkpt>
      <trkpt lat="30.609090565348204" lon="35.05746353546076">
        <ele>185</ele>
        <time>2026-06-10T15:32:37.453Z</time>
      </trkpt>
      <trkpt lat="30.609113289619533" lon="35.05664993204139">
        <ele>185</ele>
        <time>2026-06-10T15:32:38.453Z</time>
      </trkpt>
      <trkpt lat="30.60910397639358" lon="35.05648397035488">
        <ele>189</ele>
        <time>2026-06-10T15:32:39.453Z</time>
      </trkpt>
      <trkpt lat="30.608994825385395" lon="35.05585346495778">
        <ele>189</ele>
        <time>2026-06-10T15:32:40.453Z</time>
      </trkpt>
      <trkpt lat="30.608960552713885" lon="35.0555258256687">
        <ele>192</ele>
        <time>2026-06-10T15:32:41.453Z</time>
      </trkpt>
      <trkpt lat="30.608841157157148" lon="35.054869243238926">
        <ele>202</ele>
        <time>2026-06-10T15:32:42.453Z</time>
      </trkpt>
      <trkpt lat="30.608756406800964" lon="35.05413293959498">
        <ele>202</ele>
        <time>2026-06-10T15:32:43.453Z</time>
      </trkpt>
      <trkpt lat="30.608685440019194" lon="35.053849258732406">
        <ele>221</ele>
        <time>2026-06-10T15:32:44.453Z</time>
      </trkpt>
      <trkpt lat="30.608613914443865" lon="35.05368497342657">
        <ele>195</ele>
        <time>2026-06-10T15:32:45.453Z</time>
      </trkpt>
      <trkpt lat="30.608566044462457" lon="35.053617173141625">
        <ele>195</ele>
        <time>2026-06-10T15:32:46.453Z</time>
      </trkpt>
      <trkpt lat="30.60850047935174" lon="35.053563528960126">
        <ele>195</ele>
        <time>2026-06-10T15:32:47.453Z</time>
      </trkpt>
      <trkpt lat="30.608293353206516" lon="35.05344040811301">
        <ele>195</ele>
        <time>2026-06-10T15:32:48.453Z</time>
      </trkpt>
      <trkpt lat="30.6079789386983" lon="35.05336292207307">
        <ele>195</ele>
        <time>2026-06-10T15:32:49.453Z</time>
      </trkpt>
      <trkpt lat="30.607490366864734" lon="35.05337987214431">
        <ele>187</ele>
        <time>2026-06-10T15:32:50.453Z</time>
      </trkpt>
      <trkpt lat="30.607260330183664" lon="35.05342234045466">
        <ele>187</ele>
        <time>2026-06-10T15:32:51.453Z</time>
      </trkpt>
      <trkpt lat="30.6071221219105" lon="35.05346741646828">
        <ele>187</ele>
        <time>2026-06-10T15:32:52.453Z</time>
      </trkpt>
      <trkpt lat="30.606561838237088" lon="35.05381144703503">
        <ele>188</ele>
        <time>2026-06-10T15:32:53.453Z</time>
      </trkpt>
      <trkpt lat="30.60634986921437" lon="35.054013171509204">
        <ele>188</ele>
        <time>2026-06-10T15:32:54.453Z</time>
      </trkpt>
      <trkpt lat="30.60622972859956" lon="35.054092333929816">
        <ele>188</ele>
        <time>2026-06-10T15:32:55.453Z</time>
      </trkpt>
      <trkpt lat="30.60603731735134" lon="35.05428176494573">
        <ele>191</ele>
        <time>2026-06-10T15:32:56.453Z</time>
      </trkpt>
      <trkpt lat="30.605915872884896" lon="35.05437247576652">
        <ele>191</ele>
        <time>2026-06-10T15:32:57.453Z</time>
      </trkpt>
      <trkpt lat="30.605674660332678" lon="35.05448404821345">
        <ele>191</ele>
        <time>2026-06-10T15:32:58.453Z</time>
      </trkpt>
      <trkpt lat="30.605314238488248" lon="35.054601581125">
        <ele>191</ele>
        <time>2026-06-10T15:32:59.453Z</time>
      </trkpt>
      <trkpt lat="30.60512853276272" lon="35.05470048758463">
        <ele>191</ele>
        <time>2026-06-10T15:33:00.453Z</time>
      </trkpt>
      <trkpt lat="30.60450249771407" lon="35.05526244763872">
        <ele>193</ele>
        <time>2026-06-10T15:33:01.453Z</time>
      </trkpt>
      <trkpt lat="30.60421863058698" lon="35.05546566222904">
        <ele>187</ele>
        <time>2026-06-10T15:33:02.453Z</time>
      </trkpt>
      <trkpt lat="30.603687962972103" lon="35.055707247310295">
        <ele>187</ele>
        <time>2026-06-10T15:33:03.453Z</time>
      </trkpt>
      <trkpt lat="30.603240555597257" lon="35.0558331621252">
        <ele>191</ele>
        <time>2026-06-10T15:33:04.453Z</time>
      </trkpt>
      <trkpt lat="30.603067888388065" lon="35.05590021735207">
        <ele>191</ele>
        <time>2026-06-10T15:33:05.453Z</time>
      </trkpt>
      <trkpt lat="30.60287361449466" lon="35.05600638812795">
        <ele>191</ele>
        <time>2026-06-10T15:33:06.453Z</time>
      </trkpt>
      <trkpt lat="30.602682693362596" lon="35.05603488659937">
        <ele>191</ele>
        <time>2026-06-10T15:33:07.453Z</time>
      </trkpt>
      <trkpt lat="30.602339780382955" lon="35.05617048716926">
        <ele>191</ele>
        <time>2026-06-10T15:33:08.453Z</time>
      </trkpt>
      <trkpt lat="30.602074912236816" lon="35.05621332800865">
        <ele>191</ele>
        <time>2026-06-10T15:33:09.453Z</time>
      </trkpt>
      <trkpt lat="30.601793466548475" lon="35.05636550612075">
        <ele>193</ele>
        <time>2026-06-10T15:33:10.453Z</time>
      </trkpt>
      <trkpt lat="30.600553876173954" lon="35.05691871174243">
        <ele>196</ele>
        <time>2026-06-10T15:33:11.453Z</time>
      </trkpt>
      <trkpt lat="30.599657198779074" lon="35.05711335816488">
        <ele>207</ele>
        <time>2026-06-10T15:33:12.453Z</time>
      </trkpt>
      <trkpt lat="30.59846082177298" lon="35.05750041583554">
        <ele>196</ele>
        <time>2026-06-10T15:33:13.453Z</time>
      </trkpt>
      <trkpt lat="30.59785378570528" lon="35.057442301305585">
        <ele>211</ele>
        <time>2026-06-10T15:33:14.453Z</time>
      </trkpt>
      <trkpt lat="30.596906258096684" lon="35.057676622070595">
        <ele>198</ele>
        <time>2026-06-10T15:33:15.453Z</time>
      </trkpt>
      <trkpt lat="30.595707273387326" lon="35.05774218718131">
        <ele>200</ele>
        <time>2026-06-10T15:33:16.453Z</time>
      </trkpt>
      <trkpt lat="30.59475434410768" lon="35.05787443498986">
        <ele>201</ele>
        <time>2026-06-10T15:33:17.453Z</time>
      </trkpt>
      <trkpt lat="30.592432929406307" lon="35.05764272192812">
        <ele>204</ele>
        <time>2026-06-10T15:33:18.453Z</time>
      </trkpt>
      <trkpt lat="30.59220140260908" lon="35.05756560841722">
        <ele>204</ele>
        <time>2026-06-10T15:33:19.453Z</time>
      </trkpt>
      <trkpt lat="30.591368986473285" lon="35.05704593040897">
        <ele>210</ele>
        <time>2026-06-10T15:33:20.453Z</time>
      </trkpt>
      <trkpt lat="30.590765489431444" lon="35.05691629030368">
        <ele>203</ele>
        <time>2026-06-10T15:33:21.453Z</time>
      </trkpt>
      <trkpt lat="30.590708865017643" lon="35.056903810580906">
        <ele>203</ele>
        <time>2026-06-10T15:33:22.453Z</time>
      </trkpt>
      <trkpt lat="30.589679939814207" lon="35.056938455781456">
        <ele>203</ele>
        <time>2026-06-10T15:33:23.453Z</time>
      </trkpt>
      <trkpt lat="30.58906973724968" lon="35.056741574184784">
        <ele>202</ele>
        <time>2026-06-10T15:33:24.453Z</time>
      </trkpt>
      <trkpt lat="30.58830102357941" lon="35.05637370175958">
        <ele>206</ele>
        <time>2026-06-10T15:33:25.453Z</time>
      </trkpt>
      <trkpt lat="30.58752206536059" lon="35.05583819126721">
        <ele>206</ele>
        <time>2026-06-10T15:33:26.453Z</time>
      </trkpt>
      <trkpt lat="30.586393674903967" lon="35.055310690149156">
        <ele>207</ele>
        <time>2026-06-10T15:33:27.453Z</time>
      </trkpt>
      <trkpt lat="30.585404982836657" lon="35.054300577662154">
        <ele>209</ele>
        <time>2026-06-10T15:33:28.453Z</time>
      </trkpt>
      <trkpt lat="30.583949139355475" lon="35.05317833393466">
        <ele>215</ele>
        <time>2026-06-10T15:33:29.453Z</time>
      </trkpt>
      <trkpt lat="30.58340021781773" lon="35.0529572379505">
        <ele>213</ele>
        <time>2026-06-10T15:33:30.453Z</time>
      </trkpt>
      <trkpt lat="30.582163048881956" lon="35.05216635880246">
        <ele>214</ele>
        <time>2026-06-10T15:33:31.453Z</time>
      </trkpt>
      <trkpt lat="30.58165398795129" lon="35.051949733166765">
        <ele>215</ele>
        <time>2026-06-10T15:33:32.453Z</time>
      </trkpt>
      <trkpt lat="30.580482942919797" lon="35.051025674887576">
        <ele>215</ele>
        <time>2026-06-10T15:33:33.453Z</time>
      </trkpt>
      <trkpt lat="30.57933015181117" lon="35.050306321314864">
        <ele>217</ele>
        <time>2026-06-10T15:33:34.453Z</time>
      </trkpt>
      <trkpt lat="30.577305270224183" lon="35.04860162843619">
        <ele>220</ele>
        <time>2026-06-10T15:33:35.453Z</time>
      </trkpt>
      <trkpt lat="30.575791871006604" lon="35.04751198099953">
        <ele>222</ele>
        <time>2026-06-10T15:33:36.453Z</time>
      </trkpt>
      <trkpt lat="30.57561734115222" lon="35.04717726365873">
        <ele>220</ele>
        <time>2026-06-10T15:33:37.453Z</time>
      </trkpt>
      <trkpt lat="30.575555315067366" lon="35.04684757545995">
        <ele>220</ele>
        <time>2026-06-10T15:33:38.453Z</time>
      </trkpt>
      <trkpt lat="30.575521042395852" lon="35.045582094317275">
        <ele>228</ele>
        <time>2026-06-10T15:33:39.453Z</time>
      </trkpt>
      <trkpt lat="30.575592009177626" lon="35.04516057771058">
        <ele>228</ele>
        <time>2026-06-10T15:33:40.453Z</time>
      </trkpt>
      <trkpt lat="30.575603930106848" lon="35.04505086790884">
        <ele>228</ele>
        <time>2026-06-10T15:33:41.453Z</time>
      </trkpt>
      <trkpt lat="30.575740834528375" lon="35.04366897144174">
        <ele>229</ele>
        <time>2026-06-10T15:33:42.453Z</time>
      </trkpt>
      <trkpt lat="30.57570097392129" lon="35.043277815951654">
        <ele>224</ele>
        <time>2026-06-10T15:33:43.453Z</time>
      </trkpt>
      <trkpt lat="30.575487887311457" lon="35.0426039109216">
        <ele>224</ele>
        <time>2026-06-10T15:33:44.453Z</time>
      </trkpt>
      <trkpt lat="30.575369981870875" lon="35.04178397450858">
        <ele>226</ele>
        <time>2026-06-10T15:33:45.453Z</time>
      </trkpt>
      <trkpt lat="30.575275918288735" lon="35.040810928660875">
        <ele>227</ele>
        <time>2026-06-10T15:33:46.453Z</time>
      </trkpt>
      <trkpt lat="30.575147954564123" lon="35.03975797533448">
        <ele>225</ele>
        <time>2026-06-10T15:33:47.453Z</time>
      </trkpt>
      <trkpt lat="30.57488792929548" lon="35.038933941102044">
        <ele>229</ele>
        <time>2026-06-10T15:33:48.453Z</time>
      </trkpt>
      <trkpt lat="30.574598846761855" lon="35.037874841046516">
        <ele>229</ele>
        <time>2026-06-10T15:33:49.453Z</time>
      </trkpt>
      <trkpt lat="30.574564946619383" lon="35.03754496658321">
        <ele>229</ele>
        <time>2026-06-10T15:33:50.453Z</time>
      </trkpt>
      <trkpt lat="30.57453495803181" lon="35.037404895664864">
        <ele>228</ele>
        <time>2026-06-10T15:33:51.453Z</time>
      </trkpt>
      <trkpt lat="30.574292814156998" lon="35.037026964955636">
        <ele>230</ele>
        <time>2026-06-10T15:33:52.453Z</time>
      </trkpt>
      <trkpt lat="30.574280893227776" lon="35.03682393662983">
        <ele>230</ele>
        <time>2026-06-10T15:33:53.453Z</time>
      </trkpt>
      <trkpt lat="30.57411083372185" lon="35.03637187264201">
        <ele>229</ele>
        <time>2026-06-10T15:33:54.453Z</time>
      </trkpt>
      <trkpt lat="30.573969831480902" lon="35.03579482516188">
        <ele>227</ele>
        <time>2026-06-10T15:33:55.453Z</time>
      </trkpt>
      <trkpt lat="30.573930902196413" lon="35.03563389261739">
        <ele>227</ele>
        <time>2026-06-10T15:33:56.453Z</time>
      </trkpt>
      <trkpt lat="30.573765871832503" lon="35.03497991789087">
        <ele>227</ele>
        <time>2026-06-10T15:33:57.453Z</time>
      </trkpt>
      <trkpt lat="30.573615928894636" lon="35.03415197210354">
        <ele>237</ele>
        <time>2026-06-10T15:33:58.453Z</time>
      </trkpt>
      <trkpt lat="30.57369881660563" lon="35.033790991465544">
        <ele>229</ele>
        <time>2026-06-10T15:33:59.453Z</time>
      </trkpt>
      <trkpt lat="30.57395995946139" lon="35.03290884270315">
        <ele>227</ele>
        <time>2026-06-10T15:34:00.453Z</time>
      </trkpt>
      <trkpt lat="30.5741298327028" lon="35.03213584494895">
        <ele>229</ele>
        <time>2026-06-10T15:34:01.453Z</time>
      </trkpt>
      <trkpt lat="30.574347948454648" lon="35.031407923208356">
        <ele>232</ele>
        <time>2026-06-10T15:34:02.453Z</time>
      </trkpt>
      <trkpt lat="30.57468396964708" lon="35.03087595174184">
        <ele>235</ele>
        <time>2026-06-10T15:34:03.453Z</time>
      </trkpt>
      <trkpt lat="30.575053890981984" lon="35.03053993054941">
        <ele>233</ele>
        <time>2026-06-10T15:34:04.453Z</time>
      </trkpt>
      <trkpt lat="30.575394941316432" lon="35.03002993829615">
        <ele>249</ele>
        <time>2026-06-10T15:34:05.453Z</time>
      </trkpt>
      <trkpt lat="30.575695944779277" lon="35.02948790854561">
        <ele>234</ele>
        <time>2026-06-10T15:34:06.453Z</time>
      </trkpt>
      <trkpt lat="30.576211897497146" lon="35.028757937895314">
        <ele>238</ele>
        <time>2026-06-10T15:34:07.453Z</time>
      </trkpt>
      <trkpt lat="30.576847990829826" lon="35.028151833150204">
        <ele>235</ele>
        <time>2026-06-10T15:34:08.453Z</time>
      </trkpt>
      <trkpt lat="30.57725088098461" lon="35.02746693851353">
        <ele>237</ele>
        <time>2026-06-10T15:34:09.453Z</time>
      </trkpt>
      <trkpt lat="30.57739188322556" lon="35.027064979681334">
        <ele>237</ele>
        <time>2026-06-10T15:34:10.453Z</time>
      </trkpt>
      <trkpt lat="30.57750587711124" lon="35.02687294096216">
        <ele>237</ele>
        <time>2026-06-10T15:34:11.453Z</time>
      </trkpt>
      <trkpt lat="30.57762992928095" lon="35.02634786128285">
        <ele>237</ele>
        <time>2026-06-10T15:34:12.453Z</time>
      </trkpt>
      <trkpt lat="30.577614841854903" lon="35.02615097968618">
        <ele>237</ele>
        <time>2026-06-10T15:34:13.453Z</time>
      </trkpt>
      <trkpt lat="30.57723896005539" lon="35.02434980178661">
        <ele>237</ele>
        <time>2026-06-10T15:34:14.453Z</time>
      </trkpt>
      <trkpt lat="30.577143965150654" lon="35.02397485130969">
        <ele>236</ele>
        <time>2026-06-10T15:34:15.453Z</time>
      </trkpt>
      <trkpt lat="30.577041892194195" lon="35.02317596278733">
        <ele>243</ele>
        <time>2026-06-10T15:34:16.453Z</time>
      </trkpt>
      <trkpt lat="30.576849853475014" lon="35.02243686517559">
        <ele>238</ele>
        <time>2026-06-10T15:34:17.453Z</time>
      </trkpt>
      <trkpt lat="30.576749829428266" lon="35.02172589350624">
        <ele>238</ele>
        <time>2026-06-10T15:34:18.453Z</time>
      </trkpt>
      <trkpt lat="30.576707919911474" lon="35.02034287945202">
        <ele>243</ele>
        <time>2026-06-10T15:34:19.453Z</time>
      </trkpt>
      <trkpt lat="30.576638815774892" lon="35.019653886995926">
        <ele>247</ele>
        <time>2026-06-10T15:34:20.453Z</time>
      </trkpt>
      <trkpt lat="30.57652687079892" lon="35.01913998318776">
        <ele>253</ele>
        <time>2026-06-10T15:34:21.453Z</time>
      </trkpt>
      <trkpt lat="30.576175948444963" lon="35.017739832797794">
        <ele>243</ele>
        <time>2026-06-10T15:34:22.453Z</time>
      </trkpt>
      <trkpt lat="30.575819996948987" lon="35.016678870097074">
        <ele>244</ele>
        <time>2026-06-10T15:34:23.453Z</time>
      </trkpt>
      <trkpt lat="30.575312426134477" lon="35.01487582955232">
        <ele>243</ele>
        <time>2026-06-10T15:34:24.453Z</time>
      </trkpt>
      <trkpt lat="30.575139758925282" lon="35.014420412803155">
        <ele>243</ele>
        <time>2026-06-10T15:34:25.453Z</time>
      </trkpt>
      <trkpt lat="30.575017569400764" lon="35.01386255056849">
        <ele>245</ele>
        <time>2026-06-10T15:34:26.453Z</time>
      </trkpt>
      <trkpt lat="30.57479367944882" lon="35.013402290941826">
        <ele>245</ele>
        <time>2026-06-10T15:34:27.453Z</time>
      </trkpt>
      <trkpt lat="30.574640383749614" lon="35.01298636227071">
        <ele>246</ele>
        <time>2026-06-10T15:34:28.453Z</time>
      </trkpt>
      <trkpt lat="30.57440662177816" lon="35.01171901848284">
        <ele>246</ele>
        <time>2026-06-10T15:34:29.453Z</time>
      </trkpt>
      <trkpt lat="30.574093324857056" lon="35.01096613729669">
        <ele>245</ele>
        <time>2026-06-10T15:34:30.453Z</time>
      </trkpt>
      <trkpt lat="30.573575930001066" lon="35.0098674185148">
        <ele>245.5</ele>
        <time>2026-06-10T15:34:31.453Z</time>
      </trkpt>
      <trkpt lat="30.573575930001066" lon="35.0098674185148">
        <ele>245.5</ele>
        <time>2026-06-10T15:34:32.453Z</time>
      </trkpt>
      <trkpt lat="30.57351143449943" lon="35.00973045847707">
        <ele>246</ele>
        <time>2026-06-10T15:34:33.453Z</time>
      </trkpt>
      <trkpt lat="30.573524659280285" lon="35.00924635699197">
        <ele>246</ele>
        <time>2026-06-10T15:34:34.453Z</time>
      </trkpt>
      <trkpt lat="30.573632506436837" lon="35.00931974521249">
        <ele>246</ele>
        <time>2026-06-10T15:34:35.453Z</time>
      </trkpt>
      <trkpt lat="30.573768852064806" lon="35.009312108367205">
        <ele>250</ele>
        <time>2026-06-10T15:34:36.453Z</time>
      </trkpt>
      <trkpt lat="30.574277354201914" lon="35.00915452858406">
        <ele>250</ele>
        <time>2026-06-10T15:34:37.453Z</time>
      </trkpt>
      <trkpt lat="30.57487954739212" lon="35.008867681224665">
        <ele>253</ele>
        <time>2026-06-10T15:34:38.453Z</time>
      </trkpt>
      <trkpt lat="30.57641101426805" lon="35.00817589480078">
        <ele>253</ele>
        <time>2026-06-10T15:34:39.453Z</time>
      </trkpt>
      <trkpt lat="30.577273791520458" lon="35.007703527980375">
        <ele>254</ele>
        <time>2026-06-10T15:34:40.453Z</time>
      </trkpt>
      <trkpt lat="30.57788473914306" lon="35.00747628526709">
        <ele>255</ele>
        <time>2026-06-10T15:34:41.453Z</time>
      </trkpt>
      <trkpt lat="30.578073797629933" lon="35.00737123207833">
        <ele>255</ele>
        <time>2026-06-10T15:34:42.453Z</time>
      </trkpt>
      <trkpt lat="30.578381506615465" lon="35.006975606239784">
        <ele>255</ele>
        <time>2026-06-10T15:34:43.453Z</time>
      </trkpt>
      <trkpt lat="30.57964028223545" lon="35.005722046026335">
        <ele>247</ele>
        <time>2026-06-10T15:34:44.453Z</time>
      </trkpt>
      <trkpt lat="30.579936629085317" lon="35.0052444637994">
        <ele>247</ele>
        <time>2026-06-10T15:34:45.453Z</time>
      </trkpt>
      <trkpt lat="30.58073309616893" lon="35.00416748235004">
        <ele>254</ele>
        <time>2026-06-10T15:34:46.453Z</time>
      </trkpt>
      <trkpt lat="30.581183111247043" lon="35.00323187567067">
        <ele>257</ele>
        <time>2026-06-10T15:34:47.453Z</time>
      </trkpt>
      <trkpt lat="30.58128108638408" lon="35.00312197960441">
        <ele>257</ele>
        <time>2026-06-10T15:34:48.453Z</time>
      </trkpt>
      <trkpt lat="30.581798529218105" lon="35.00248979782663">
        <ele>276</ele>
        <time>2026-06-10T15:34:49.453Z</time>
      </trkpt>
      <trkpt lat="30.582490129377472" lon="35.00150650743037">
        <ele>264</ele>
        <time>2026-06-10T15:34:50.453Z</time>
      </trkpt>
      <trkpt lat="30.583324966952016" lon="35.00045448542657">
        <ele>259</ele>
        <time>2026-06-10T15:34:51.453Z</time>
      </trkpt>
      <trkpt lat="30.58357325755596" lon="35.000103563072614">
        <ele>259</ele>
        <time>2026-06-10T15:34:52.453Z</time>
      </trkpt>
      <trkpt lat="30.583769952888115" lon="34.99974016099588">
        <ele>280</ele>
        <time>2026-06-10T15:34:53.453Z</time>
      </trkpt>
      <trkpt lat="30.583841664727963" lon="34.99946039168821">
        <ele>280</ele>
        <time>2026-06-10T15:34:54.453Z</time>
      </trkpt>
      <trkpt lat="30.583796961243383" lon="34.99893046913141">
        <ele>263</ele>
        <time>2026-06-10T15:34:55.453Z</time>
      </trkpt>
      <trkpt lat="30.58386234008958" lon="34.99835453923839">
        <ele>263</ele>
        <time>2026-06-10T15:34:56.453Z</time>
      </trkpt>
      <trkpt lat="30.584022527575996" lon="34.99805279071747">
        <ele>259</ele>
        <time>2026-06-10T15:34:57.453Z</time>
      </trkpt>
      <trkpt lat="30.58404841834415" lon="34.99764803791749">
        <ele>259</ele>
        <time>2026-06-10T15:34:58.453Z</time>
      </trkpt>
      <trkpt lat="30.584145275894073" lon="34.99707434319871">
        <ele>260</ele>
        <time>2026-06-10T15:34:59.453Z</time>
      </trkpt>
      <trkpt lat="30.584161108378197" lon="34.99670665703803">
        <ele>260</ele>
        <time>2026-06-10T15:35:00.453Z</time>
      </trkpt>
      <trkpt lat="30.58428255284464" lon="34.99608509233784">
        <ele>264</ele>
        <time>2026-06-10T15:35:01.453Z</time>
      </trkpt>
      <trkpt lat="30.584401948401375" lon="34.99565444876971">
        <ele>268</ele>
        <time>2026-06-10T15:35:02.453Z</time>
      </trkpt>
      <trkpt lat="30.584408467659543" lon="34.99495055515209">
        <ele>272</ele>
        <time>2026-06-10T15:35:03.453Z</time>
      </trkpt>
      <trkpt lat="30.584361715265253" lon="34.99416470514606">
        <ele>269</ele>
        <time>2026-06-10T15:35:04.453Z</time>
      </trkpt>
      <trkpt lat="30.58437885160101" lon="34.99365992829934">
        <ele>269</ele>
        <time>2026-06-10T15:35:05.453Z</time>
      </trkpt>
      <trkpt lat="30.58442988807924" lon="34.99311156555515">
        <ele>270</ele>
        <time>2026-06-10T15:35:06.453Z</time>
      </trkpt>
      <trkpt lat="30.58457442934605" lon="34.99260846508909">
        <ele>279</ele>
        <time>2026-06-10T15:35:07.453Z</time>
      </trkpt>
      <trkpt lat="30.584544068229437" lon="34.99245423806729">
        <ele>287</ele>
        <time>2026-06-10T15:35:08.453Z</time>
      </trkpt>
      <trkpt lat="30.584693266109227" lon="34.991936795233265">
        <ele>287</ele>
        <time>2026-06-10T15:35:09.453Z</time>
      </trkpt>
      <trkpt lat="30.584748586671395" lon="34.99113902429802">
        <ele>284</ele>
        <time>2026-06-10T15:35:10.453Z</time>
      </trkpt>
      <trkpt lat="30.584714313999882" lon="34.99069310703933">
        <ele>278</ele>
        <time>2026-06-10T15:35:11.453Z</time>
      </trkpt>
      <trkpt lat="30.584539039087424" lon="34.98996201880191">
        <ele>277</ele>
        <time>2026-06-10T15:35:12.453Z</time>
      </trkpt>
      <trkpt lat="30.58448632622852" lon="34.98957868642163">
        <ele>281</ele>
        <time>2026-06-10T15:35:13.453Z</time>
      </trkpt>
      <trkpt lat="30.584515569758018" lon="34.98895600413433">
        <ele>281</ele>
        <time>2026-06-10T15:35:14.453Z</time>
      </trkpt>
      <trkpt lat="30.58458486015912" lon="34.98838920120275">
        <ele>281</ele>
        <time>2026-06-10T15:35:15.453Z</time>
      </trkpt>
      <trkpt lat="30.58458430136556" lon="34.98832158718232">
        <ele>286</ele>
        <time>2026-06-10T15:35:16.453Z</time>
      </trkpt>
      <trkpt lat="30.58449284548669" lon="34.98822715107114">
        <ele>282</ele>
        <time>2026-06-10T15:35:17.453Z</time>
      </trkpt>
      <trkpt lat="30.58449861968678" lon="34.987871572104204">
        <ele>282</ele>
        <time>2026-06-10T15:35:18.453Z</time>
      </trkpt>
      <trkpt lat="30.58452953959695" lon="34.98772945227614">
        <ele>286</ele>
        <time>2026-06-10T15:35:19.453Z</time>
      </trkpt>
      <trkpt lat="30.584505697738507" lon="34.98758323462866">
        <ele>282</ele>
        <time>2026-06-10T15:35:20.453Z</time>
      </trkpt>
      <trkpt lat="30.584550960016646" lon="34.98728148610774">
        <ele>290</ele>
        <time>2026-06-10T15:35:21.453Z</time>
      </trkpt>
      <trkpt lat="30.584536245119637" lon="34.98696707159952">
        <ele>290</ele>
        <time>2026-06-10T15:35:22.453Z</time>
      </trkpt>
      <trkpt lat="30.58448297346718" lon="34.98681861877781">
        <ele>281</ele>
        <time>2026-06-10T15:35:23.453Z</time>
      </trkpt>
      <trkpt lat="30.584523579132338" lon="34.98674746573152">
        <ele>290</ele>
        <time>2026-06-10T15:35:24.453Z</time>
      </trkpt>
      <trkpt lat="30.584519853841957" lon="34.986660107672066">
        <ele>300</ele>
        <time>2026-06-10T15:35:25.453Z</time>
      </trkpt>
      <trkpt lat="30.584390586265712" lon="34.98636878996422">
        <ele>277</ele>
        <time>2026-06-10T15:35:26.453Z</time>
      </trkpt>
      <trkpt lat="30.58433358932287" lon="34.98616967319332">
        <ele>277</ele>
        <time>2026-06-10T15:35:27.453Z</time>
      </trkpt>
      <trkpt lat="30.584103925170837" lon="34.98587537525316">
        <ele>277</ele>
        <time>2026-06-10T15:35:28.453Z</time>
      </trkpt>
      <trkpt lat="30.58395286464586" lon="34.985628761029886">
        <ele>277</ele>
        <time>2026-06-10T15:35:29.453Z</time>
      </trkpt>
      <trkpt lat="30.5838547032443" lon="34.985537491415535">
        <ele>277</ele>
        <time>2026-06-10T15:35:30.453Z</time>
      </trkpt>
      <trkpt lat="30.58380944096616" lon="34.985402449639196">
        <ele>277</ele>
        <time>2026-06-10T15:35:31.453Z</time>
      </trkpt>
      <trkpt lat="30.583883760509277" lon="34.98526722159834">
        <ele>277</ele>
        <time>2026-06-10T15:35:32.453Z</time>
      </trkpt>
      <trkpt lat="30.584002597272455" lon="34.98518731411965">
        <ele>277</ele>
        <time>2026-06-10T15:35:33.453Z</time>
      </trkpt>
      <trkpt lat="30.584119012596883" lon="34.98516496237736">
        <ele>277</ele>
        <time>2026-06-10T15:35:34.453Z</time>
      </trkpt>
      <trkpt lat="30.58420953715316" lon="34.98520128395858">
        <ele>277</ele>
        <time>2026-06-10T15:35:35.453Z</time>
      </trkpt>
      <trkpt lat="30.584265043979848" lon="34.9851897355584">
        <ele>277</ele>
        <time>2026-06-10T15:35:36.453Z</time>
      </trkpt>
      <trkpt lat="30.58430471832241" lon="34.985142051841514">
        <ele>277</ele>
        <time>2026-06-10T15:35:37.453Z</time>
      </trkpt>
      <trkpt lat="30.584222389404975" lon="34.98485445942404">
        <ele>283</ele>
        <time>2026-06-10T15:35:38.453Z</time>
      </trkpt>
      <trkpt lat="30.58418290132693" lon="34.98460281605876">
        <ele>283</ele>
        <time>2026-06-10T15:35:39.453Z</time>
      </trkpt>
      <trkpt lat="30.584142854455326" lon="34.984440765927154">
        <ele>283</ele>
        <time>2026-06-10T15:35:40.453Z</time>
      </trkpt>
      <trkpt lat="30.58412199282919" lon="34.98415391856776">
        <ele>289</ele>
        <time>2026-06-10T15:35:41.453Z</time>
      </trkpt>
      <trkpt lat="30.584054937602318" lon="34.983781762058626">
        <ele>289</ele>
        <time>2026-06-10T15:35:42.453Z</time>
      </trkpt>
      <trkpt lat="30.58405884915722" lon="34.98359587006858">
        <ele>289</ele>
        <time>2026-06-10T15:35:43.453Z</time>
      </trkpt>
      <trkpt lat="30.584077848138165" lon="34.98347498439569">
        <ele>289</ele>
        <time>2026-06-10T15:35:44.453Z</time>
      </trkpt>
      <trkpt lat="30.58420488054018" lon="34.98317882381034">
        <ele>290</ele>
        <time>2026-06-10T15:35:45.453Z</time>
      </trkpt>
      <trkpt lat="30.584088092686716" lon="34.98291265181257">
        <ele>290</ele>
        <time>2026-06-10T15:35:46.453Z</time>
      </trkpt>
      <trkpt lat="30.584122179093708" lon="34.98268708547995">
        <ele>290</ele>
        <time>2026-06-10T15:35:47.453Z</time>
      </trkpt>
      <trkpt lat="30.584159618262046" lon="34.982639960556625">
        <ele>290</ele>
        <time>2026-06-10T15:35:48.453Z</time>
      </trkpt>
      <trkpt lat="30.58416259849435" lon="34.98241402169497">
        <ele>288</ele>
        <time>2026-06-10T15:35:49.453Z</time>
      </trkpt>
      <trkpt lat="30.584232820218045" lon="34.98226966669268">
        <ele>288</ele>
        <time>2026-06-10T15:35:50.453Z</time>
      </trkpt>
      <trkpt lat="30.584450563440857" lon="34.98210892041271">
        <ele>288</ele>
        <time>2026-06-10T15:35:51.453Z</time>
      </trkpt>
      <trkpt lat="30.58479906435607" lon="34.9819809566881">
        <ele>297</ele>
        <time>2026-06-10T15:35:52.453Z</time>
      </trkpt>
      <trkpt lat="30.5854981150962" lon="34.98181667138226">
        <ele>306</ele>
        <time>2026-06-10T15:35:53.453Z</time>
      </trkpt>
      <trkpt lat="30.585901191515504" lon="34.98167492408324">
        <ele>285</ele>
        <time>2026-06-10T15:35:54.453Z</time>
      </trkpt>
      <trkpt lat="30.586148737061368" lon="34.98154696035863">
        <ele>285</ele>
        <time>2026-06-10T15:35:55.453Z</time>
      </trkpt>
      <trkpt lat="30.586167177248758" lon="34.98153485316489">
        <ele>285</ele>
        <time>2026-06-10T15:35:56.453Z</time>
      </trkpt>
      <trkpt lat="30.5864720922665" lon="34.981567635720246">
        <ele>286</ele>
        <time>2026-06-10T15:35:57.453Z</time>
      </trkpt>
      <trkpt lat="30.58685393453063" lon="34.98171832371619">
        <ele>314</ele>
        <time>2026-06-10T15:35:58.453Z</time>
      </trkpt>
      <trkpt lat="30.58724937410465" lon="34.98173676390358">
        <ele>322</ele>
        <time>2026-06-10T15:35:59.453Z</time>
      </trkpt>
      <trkpt lat="30.587502507586088" lon="34.98168311972208">
        <ele>322</ele>
        <time>2026-06-10T15:36:00.453Z</time>
      </trkpt>
      <trkpt lat="30.587823068823436" lon="34.981544911448914">
        <ele>290</ele>
        <time>2026-06-10T15:36:01.453Z</time>
      </trkpt>
      <trkpt lat="30.588009147078004" lon="34.98138360637539">
        <ele>305</ele>
        <time>2026-06-10T15:36:02.453Z</time>
      </trkpt>
      <trkpt lat="30.58812146458301" lon="34.98122435021157">
        <ele>305</ele>
        <time>2026-06-10T15:36:03.453Z</time>
      </trkpt>
      <trkpt lat="30.588357089199658" lon="34.98075216965569">
        <ele>290</ele>
        <time>2026-06-10T15:36:04.453Z</time>
      </trkpt>
      <trkpt lat="30.58843178127181" lon="34.980497546058096">
        <ele>290</ele>
        <time>2026-06-10T15:36:05.453Z</time>
      </trkpt>
      <trkpt lat="30.5883975086003" lon="34.980267136847985">
        <ele>290</ele>
        <time>2026-06-10T15:36:06.453Z</time>
      </trkpt>
      <trkpt lat="30.588474063317644" lon="34.97992906674584">
        <ele>292</ele>
        <time>2026-06-10T15:36:07.453Z</time>
      </trkpt>
      <trkpt lat="30.58838894043242" lon="34.97948985500984">
        <ele>292</ele>
        <time>2026-06-10T15:36:08.453Z</time>
      </trkpt>
      <trkpt lat="30.588215900694188" lon="34.979180283379115">
        <ele>291</ele>
        <time>2026-06-10T15:36:09.453Z</time>
      </trkpt>
      <trkpt lat="30.588177902732294" lon="34.97897203964678">
        <ele>291</ele>
        <time>2026-06-10T15:36:10.453Z</time>
      </trkpt>
      <trkpt lat="30.588261721765885" lon="34.97878968668259">
        <ele>291</ele>
        <time>2026-06-10T15:36:11.453Z</time>
      </trkpt>
      <trkpt lat="30.588304748869792" lon="34.97851327013627">
        <ele>291</ele>
        <time>2026-06-10T15:36:12.453Z</time>
      </trkpt>
      <trkpt lat="30.588385773935595" lon="34.97840262901193">
        <ele>291</ele>
        <time>2026-06-10T15:36:13.453Z</time>
      </trkpt>
      <trkpt lat="30.588506845873003" lon="34.978358856849944">
        <ele>291</ele>
        <time>2026-06-10T15:36:14.453Z</time>
      </trkpt>
      <trkpt lat="30.588557882351232" lon="34.97828639995202">
        <ele>290</ele>
        <time>2026-06-10T15:36:15.453Z</time>
      </trkpt>
      <trkpt lat="30.588627172752332" lon="34.97769538263296">
        <ele>290</ele>
        <time>2026-06-10T15:36:16.453Z</time>
      </trkpt>
      <trkpt lat="30.588614320500515" lon="34.97768476555537">
        <ele>290</ele>
        <time>2026-06-10T15:36:17.453Z</time>
      </trkpt>
      <trkpt lat="30.58901143645521" lon="34.97719600745729">
        <ele>303</ele>
        <time>2026-06-10T15:36:18.453Z</time>
      </trkpt>
      <trkpt lat="30.589262334762417" lon="34.97675921716003">
        <ele>303</ele>
        <time>2026-06-10T15:36:19.453Z</time>
      </trkpt>
      <trkpt lat="30.58934335982822" lon="34.97653532720809">
        <ele>290</ele>
        <time>2026-06-10T15:36:20.453Z</time>
      </trkpt>
      <trkpt lat="30.589623129135887" lon="34.97626673377157">
        <ele>311</ele>
        <time>2026-06-10T15:36:21.453Z</time>
      </trkpt>
      <trkpt lat="30.589986531212624" lon="34.97608512586545">
        <ele>311</ele>
        <time>2026-06-10T15:36:22.453Z</time>
      </trkpt>
      <trkpt lat="30.5905054641628" lon="34.975540488411646">
        <ele>336</ele>
        <time>2026-06-10T15:36:23.453Z</time>
      </trkpt>
      <trkpt lat="30.590597665099747" lon="34.975352920040926">
        <ele>336</ele>
        <time>2026-06-10T15:36:24.453Z</time>
      </trkpt>
      <trkpt lat="30.590665279120177" lon="34.97508004252047">
        <ele>336</ele>
        <time>2026-06-10T15:36:25.453Z</time>
      </trkpt>
      <trkpt lat="30.590621693222708" lon="34.97476395163157">
        <ele>315</ele>
        <time>2026-06-10T15:36:26.453Z</time>
      </trkpt>
      <trkpt lat="30.590498572375594" lon="34.974523484137436">
        <ele>315</ele>
        <time>2026-06-10T15:36:27.453Z</time>
      </trkpt>
      <trkpt lat="30.590434683645547" lon="34.97424036206842">
        <ele>315</ele>
        <time>2026-06-10T15:36:28.453Z</time>
      </trkpt>
      <trkpt lat="30.590302063307956" lon="34.973887390804755">
        <ele>306</ele>
        <time>2026-06-10T15:36:29.453Z</time>
      </trkpt>
      <trkpt lat="30.590017637387312" lon="34.97348040283055">
        <ele>306</ele>
        <time>2026-06-10T15:36:30.453Z</time>
      </trkpt>
      <trkpt lat="30.58969782120804" lon="34.97289776741485">
        <ele>301</ele>
        <time>2026-06-10T15:36:31.453Z</time>
      </trkpt>
      <trkpt lat="30.58909804945658" lon="34.97177962150677">
        <ele>311</ele>
        <time>2026-06-10T15:36:32.453Z</time>
      </trkpt>
      <trkpt lat="30.58906768833997" lon="34.97160583671047">
        <ele>300</ele>
        <time>2026-06-10T15:36:33.453Z</time>
      </trkpt>
      <trkpt lat="30.58908799117255" lon="34.9714275815657">
        <ele>300</ele>
        <time>2026-06-10T15:36:34.453Z</time>
      </trkpt>
      <trkpt lat="30.588980144016002" lon="34.971360898867864">
        <ele>300</ele>
        <time>2026-06-10T15:36:35.453Z</time>
      </trkpt>
      <trkpt lat="30.588826662052274" lon="34.97118022228435">
        <ele>300</ele>
        <time>2026-06-10T15:36:36.453Z</time>
      </trkpt>
      <trkpt lat="30.58878642891615" lon="34.971082247147315">
        <ele>300</ele>
        <time>2026-06-10T15:36:37.453Z</time>
      </trkpt>
      <trkpt lat="30.588656788810866" lon="34.97043479167897">
        <ele>331</ele>
        <time>2026-06-10T15:36:38.453Z</time>
      </trkpt>
      <trkpt lat="30.588680071875753" lon="34.97011646561585">
        <ele>302</ele>
        <time>2026-06-10T15:36:39.453Z</time>
      </trkpt>
      <trkpt lat="30.58899895673243" lon="34.96945764801184">
        <ele>307</ele>
        <time>2026-06-10T15:36:40.453Z</time>
      </trkpt>
      <trkpt lat="30.58914182161857" lon="34.96918700566561">
        <ele>311</ele>
        <time>2026-06-10T15:36:41.453Z</time>
      </trkpt>
      <trkpt lat="30.589212043342265" lon="34.968973173997696">
        <ele>311</ele>
        <time>2026-06-10T15:36:42.453Z</time>
      </trkpt>
      <trkpt lat="30.589454373481594" lon="34.967852234121835">
        <ele>306</ele>
        <time>2026-06-10T15:36:43.453Z</time>
      </trkpt>
      <trkpt lat="30.589474490049657" lon="34.96764156895075">
        <ele>306</ele>
        <time>2026-06-10T15:36:44.453Z</time>
      </trkpt>
      <trkpt lat="30.589448040487945" lon="34.967442265915324">
        <ele>302</ele>
        <time>2026-06-10T15:36:45.453Z</time>
      </trkpt>
      <trkpt lat="30.589266991375393" lon="34.966881237183834">
        <ele>302</ele>
        <time>2026-06-10T15:36:46.453Z</time>
      </trkpt>
      <trkpt lat="30.589011250190687" lon="34.966371617459615">
        <ele>306</ele>
        <time>2026-06-10T15:36:47.453Z</time>
      </trkpt>
      <trkpt lat="30.58887639467887" lon="34.96624402626404">
        <ele>306</ele>
        <time>2026-06-10T15:36:48.453Z</time>
      </trkpt>
      <trkpt lat="30.58861525182311" lon="34.96610395534569">
        <ele>317</ele>
        <time>2026-06-10T15:36:49.453Z</time>
      </trkpt>
      <trkpt lat="30.588347403444665" lon="34.96572192681705">
        <ele>307</ele>
        <time>2026-06-10T15:36:50.453Z</time>
      </trkpt>
      <trkpt lat="30.588312758244115" lon="34.9655233688397">
        <ele>307</ele>
        <time>2026-06-10T15:36:51.453Z</time>
      </trkpt>
      <trkpt lat="30.588184794519503" lon="34.965352936804734">
        <ele>307</ele>
        <time>2026-06-10T15:36:52.453Z</time>
      </trkpt>
      <trkpt lat="30.58805645826585" lon="34.965226463196274">
        <ele>307</ele>
        <time>2026-06-10T15:36:53.453Z</time>
      </trkpt>
      <trkpt lat="30.587872615185514" lon="34.96512737047212">
        <ele>307</ele>
        <time>2026-06-10T15:36:54.453Z</time>
      </trkpt>
      <trkpt lat="30.587792335177788" lon="34.96502268981239">
        <ele>309</ele>
        <time>2026-06-10T15:36:55.453Z</time>
      </trkpt>
      <trkpt lat="30.587804814900565" lon="34.96495209555966">
        <ele>309</ele>
        <time>2026-06-10T15:36:56.453Z</time>
      </trkpt>
      <trkpt lat="30.587858459082064" lon="34.96492285203016">
        <ele>312</ele>
        <time>2026-06-10T15:36:57.453Z</time>
      </trkpt>
      <trkpt lat="30.58797766837428" lon="34.964960477463016">
        <ele>312</ele>
        <time>2026-06-10T15:36:58.453Z</time>
      </trkpt>
      <trkpt lat="30.588101348014952" lon="34.96495209555966">
        <ele>312</ele>
        <time>2026-06-10T15:36:59.453Z</time>
      </trkpt>
      <trkpt lat="30.58814251247367" lon="34.96490646075248">
        <ele>312</ele>
        <time>2026-06-10T15:37:00.453Z</time>
      </trkpt>
      <trkpt lat="30.588147914144724" lon="34.964828229654465">
        <ele>312</ele>
        <time>2026-06-10T15:37:01.453Z</time>
      </trkpt>
      <trkpt lat="30.587745955312535" lon="34.96445495555822">
        <ele>309</ele>
        <time>2026-06-10T15:37:02.453Z</time>
      </trkpt>
      <trkpt lat="30.587667910479038" lon="34.96431581596246">
        <ele>309</ele>
        <time>2026-06-10T15:37:03.453Z</time>
      </trkpt>
      <trkpt lat="30.587633824072043" lon="34.964096955152534">
        <ele>312</ele>
        <time>2026-06-10T15:37:04.453Z</time>
      </trkpt>
      <trkpt lat="30.587670890711344" lon="34.963965824931094">
        <ele>312</ele>
        <time>2026-06-10T15:37:05.453Z</time>
      </trkpt>
      <trkpt lat="30.587739994847922" lon="34.96387492784578">
        <ele>312</ele>
        <time>2026-06-10T15:37:06.453Z</time>
      </trkpt>
      <trkpt lat="30.58779587420365" lon="34.963827989186974">
        <ele>312</ele>
        <time>2026-06-10T15:37:07.453Z</time>
      </trkpt>
      <trkpt lat="30.588053850562584" lon="34.96371399530129">
        <ele>324</ele>
        <time>2026-06-10T15:37:08.453Z</time>
      </trkpt>
      <trkpt lat="30.588390058019534" lon="34.96355231769873">
        <ele>324</ele>
        <time>2026-06-10T15:37:09.453Z</time>
      </trkpt>
      <trkpt lat="30.588439231852576" lon="34.96326975442327">
        <ele>313</ele>
        <time>2026-06-10T15:37:10.453Z</time>
      </trkpt>
      <trkpt lat="30.58846475009169" lon="34.96319226838333">
        <ele>313</ele>
        <time>2026-06-10T15:37:11.453Z</time>
      </trkpt>
      <trkpt lat="30.588518953066743" lon="34.96314383960837">
        <ele>313</ele>
        <time>2026-06-10T15:37:12.453Z</time>
      </trkpt>
      <trkpt lat="30.58888421778867" lon="34.96319841511246">
        <ele>317</ele>
        <time>2026-06-10T15:37:13.453Z</time>
      </trkpt>
      <trkpt lat="30.589362172544647" lon="34.96306858874266">
        <ele>317</ele>
        <time>2026-06-10T15:37:14.453Z</time>
      </trkpt>
      <trkpt lat="30.589774562189906" lon="34.96305331505209">
        <ele>314</ele>
        <time>2026-06-10T15:37:15.453Z</time>
      </trkpt>
      <trkpt lat="30.590084692614184" lon="34.963168799053925">
        <ele>314</ele>
        <time>2026-06-10T15:37:16.453Z</time>
      </trkpt>
      <trkpt lat="30.590422576451807" lon="34.96346756734254">
        <ele>322</ele>
        <time>2026-06-10T15:37:17.453Z</time>
      </trkpt>
      <trkpt lat="30.59057251938967" lon="34.963543377001805">
        <ele>322</ele>
        <time>2026-06-10T15:37:18.453Z</time>
      </trkpt>
      <trkpt lat="30.590640878468175" lon="34.96348787017512">
        <ele>322</ele>
        <time>2026-06-10T15:37:19.453Z</time>
      </trkpt>
      <trkpt lat="30.590871846471842" lon="34.96335599489561">
        <ele>316</ele>
        <time>2026-06-10T15:37:20.453Z</time>
      </trkpt>
      <trkpt lat="30.590987889267232" lon="34.963317810669196">
        <ele>316</ele>
        <time>2026-06-10T15:37:21.453Z</time>
      </trkpt>
      <trkpt lat="30.591180859309006" lon="34.96330290950767">
        <ele>319</ele>
        <time>2026-06-10T15:37:22.453Z</time>
      </trkpt>
      <trkpt lat="30.59157592635399" lon="34.96333587832755">
        <ele>319</ele>
        <time>2026-06-10T15:37:23.453Z</time>
      </trkpt>
      <trkpt lat="30.591692900471976" lon="34.963315948024004">
        <ele>319</ele>
        <time>2026-06-10T15:37:24.453Z</time>
      </trkpt>
      <trkpt lat="30.59181285482227" lon="34.963255970848856">
        <ele>319</ele>
        <time>2026-06-10T15:37:25.453Z</time>
      </trkpt>
      <trkpt lat="30.591968944489263" lon="34.96324293233252">
        <ele>319</ele>
        <time>2026-06-10T15:37:26.453Z</time>
      </trkpt>
      <trkpt lat="30.59216489476334" lon="34.963158927034414">
        <ele>322</ele>
        <time>2026-06-10T15:37:27.453Z</time>
      </trkpt>
      <trkpt lat="30.592399960586427" lon="34.96299296534791">
        <ele>322</ele>
        <time>2026-06-10T15:37:28.453Z</time>
      </trkpt>
      <trkpt lat="30.592630928590093" lon="34.96278192764778">
        <ele>322</ele>
        <time>2026-06-10T15:37:29.453Z</time>
      </trkpt>
      <trkpt lat="30.592773979740752" lon="34.962685815155936">
        <ele>322</ele>
        <time>2026-06-10T15:37:30.453Z</time>
      </trkpt>
      <trkpt lat="30.592991909228086" lon="34.96244590645535">
        <ele>321</ele>
        <time>2026-06-10T15:37:31.453Z</time>
      </trkpt>
      <trkpt lat="30.59305989577755" lon="34.96234886264091">
        <ele>321</ele>
        <time>2026-06-10T15:37:32.453Z</time>
      </trkpt>
      <trkpt lat="30.593118941630102" lon="34.96221195821938">
        <ele>321</ele>
        <time>2026-06-10T15:37:33.453Z</time>
      </trkpt>
      <trkpt lat="30.59318283036015" lon="34.961883946401265">
        <ele>321</ele>
        <time>2026-06-10T15:37:34.453Z</time>
      </trkpt>
      <trkpt lat="30.593178918805247" lon="34.96155090544114">
        <ele>317</ele>
        <time>2026-06-10T15:37:35.453Z</time>
      </trkpt>
      <trkpt lat="30.593193819966775" lon="34.96138084593522">
        <ele>317</ele>
        <time>2026-06-10T15:37:36.453Z</time>
      </trkpt>
      <trkpt lat="30.59324988558702" lon="34.9612089237841">
        <ele>317</ele>
        <time>2026-06-10T15:37:37.453Z</time>
      </trkpt>
      <trkpt lat="30.593334822207723" lon="34.96105190279451">
        <ele>317</ele>
        <time>2026-06-10T15:37:38.453Z</time>
      </trkpt>
      <trkpt lat="30.593398338408733" lon="34.960866383333496">
        <ele>317</ele>
        <time>2026-06-10T15:37:39.453Z</time>
      </trkpt>
      <trkpt lat="30.59332532271725" lon="34.96051955879896">
        <ele>321</ele>
        <time>2026-06-10T15:37:40.453Z</time>
      </trkpt>
      <trkpt lat="30.59327857032296" lon="34.96003676116549">
        <ele>321</ele>
        <time>2026-06-10T15:37:41.453Z</time>
      </trkpt>
      <trkpt lat="30.593277266471326" lon="34.959672800295195">
        <ele>325</ele>
        <time>2026-06-10T15:37:42.453Z</time>
      </trkpt>
      <trkpt lat="30.59332662656888" lon="34.95923675505601">
        <ele>325</ele>
        <time>2026-06-10T15:37:43.453Z</time>
      </trkpt>
      <trkpt lat="30.593472471687328" lon="34.95860885736217">
        <ele>326</ele>
        <time>2026-06-10T15:37:44.453Z</time>
      </trkpt>
      <trkpt lat="30.593638060844796" lon="34.95832759793835">
        <ele>339</ele>
        <time>2026-06-10T15:37:45.453Z</time>
      </trkpt>
      <trkpt lat="30.593875361842112" lon="34.957985616281306">
        <ele>327</ele>
        <time>2026-06-10T15:37:46.453Z</time>
      </trkpt>
      <trkpt lat="30.594382373863066" lon="34.957594274526706">
        <ele>327</ele>
        <time>2026-06-10T15:37:47.453Z</time>
      </trkpt>
      <trkpt lat="30.594447380180227" lon="34.95757099146182">
        <ele>327</ele>
        <time>2026-06-10T15:37:48.453Z</time>
      </trkpt>
      <trkpt lat="30.594695857048688" lon="34.957686661728175">
        <ele>348</ele>
        <time>2026-06-10T15:37:49.453Z</time>
      </trkpt>
      <trkpt lat="30.595282776548327" lon="34.95758589262335">
        <ele>348</ele>
        <time>2026-06-10T15:37:50.453Z</time>
      </trkpt>
      <trkpt lat="30.595533861120057" lon="34.95746910476988">
        <ele>331</ele>
        <time>2026-06-10T15:37:51.453Z</time>
      </trkpt>
      <trkpt lat="30.595764270330168" lon="34.95745122337605">
        <ele>331</ele>
        <time>2026-06-10T15:37:52.453Z</time>
      </trkpt>
      <trkpt lat="30.595819777156855" lon="34.95745438987287">
        <ele>331</ele>
        <time>2026-06-10T15:37:53.453Z</time>
      </trkpt>
      <trkpt lat="30.595926134197253" lon="34.95751250440283">
        <ele>331</ele>
        <time>2026-06-10T15:37:54.453Z</time>
      </trkpt>
      <trkpt lat="30.59617759129802" lon="34.95775669718735">
        <ele>346</ele>
        <time>2026-06-10T15:37:55.453Z</time>
      </trkpt>
      <trkpt lat="30.59639198175949" lon="34.95782785023364">
        <ele>346</ele>
        <time>2026-06-10T15:37:56.453Z</time>
      </trkpt>
      <trkpt lat="30.596622204705078" lon="34.95778333301358">
        <ele>346</ele>
        <time>2026-06-10T15:37:57.453Z</time>
      </trkpt>
      <trkpt lat="30.596992498569023" lon="34.9578000968203">
        <ele>346</ele>
        <time>2026-06-10T15:37:58.453Z</time>
      </trkpt>
      <trkpt lat="30.597685216315504" lon="34.957449919524414">
        <ele>333</ele>
        <time>2026-06-10T15:37:59.453Z</time>
      </trkpt>
      <trkpt lat="30.598205453117313" lon="34.95715077870676">
        <ele>348</ele>
        <time>2026-06-10T15:38:00.453Z</time>
      </trkpt>
      <trkpt lat="30.598312555215788" lon="34.95706342064731">
        <ele>348</ele>
        <time>2026-06-10T15:38:01.453Z</time>
      </trkpt>
      <trkpt lat="30.598388178610538" lon="34.956924281051556">
        <ele>348</ele>
        <time>2026-06-10T15:38:02.453Z</time>
      </trkpt>
      <trkpt lat="30.598441450262996" lon="34.956646374389074">
        <ele>338</ele>
        <time>2026-06-10T15:38:03.453Z</time>
      </trkpt>
      <trkpt lat="30.59835688617133" lon="34.9563518901844">
        <ele>338</ele>
        <time>2026-06-10T15:38:04.453Z</time>
      </trkpt>
      <trkpt lat="30.598384467224932" lon="34.956197300574274">
        <ele>339.5</ele>
        <time>2026-06-10T15:38:05.453Z</time>
      </trkpt>
      <trkpt lat="30.598384467224932" lon="34.956197300574274">
        <ele>339.5</ele>
        <time>2026-06-10T15:38:06.453Z</time>
      </trkpt>
      <trkpt lat="30.59848559495402" lon="34.95563048770198">
        <ele>341</ele>
        <time>2026-06-10T15:38:07.453Z</time>
      </trkpt>
      <trkpt lat="30.598564757374632" lon="34.95519909907578">
        <ele>341</ele>
        <time>2026-06-10T15:38:08.453Z</time>
      </trkpt>
      <trkpt lat="30.598768530758512" lon="34.954683518886945">
        <ele>348</ele>
        <time>2026-06-10T15:38:09.453Z</time>
      </trkpt>
      <trkpt lat="30.59893859026444" lon="34.954365379088344">
        <ele>348</ele>
        <time>2026-06-10T15:38:10.453Z</time>
      </trkpt>
      <trkpt lat="30.59939139931034" lon="34.95391331510052">
        <ele>342</ele>
        <time>2026-06-10T15:38:11.453Z</time>
      </trkpt>
      <trkpt lat="30.599652728430616" lon="34.95377473429832">
        <ele>344</ele>
        <time>2026-06-10T15:38:12.453Z</time>
      </trkpt>
      <trkpt lat="30.59980099498781" lon="34.95375089243988">
        <ele>344</ele>
        <time>2026-06-10T15:38:13.453Z</time>
      </trkpt>
      <trkpt lat="30.600089146198833" lon="34.95365012333505">
        <ele>344</ele>
        <time>2026-06-10T15:38:14.453Z</time>
      </trkpt>
      <trkpt lat="30.600194944445676" lon="34.953633545792854">
        <ele>344</ele>
        <time>2026-06-10T15:38:15.453Z</time>
      </trkpt>
      <trkpt lat="30.600258274382167" lon="34.95362292871526">
        <ele>344</ele>
        <time>2026-06-10T15:38:16.453Z</time>
      </trkpt>
      <trkpt lat="30.60050432981188" lon="34.95372388408461">
        <ele>338</ele>
        <time>2026-06-10T15:38:17.453Z</time>
      </trkpt>
      <trkpt lat="30.600816881674906" lon="34.95391555027475">
        <ele>338</ele>
        <time>2026-06-10T15:38:18.453Z</time>
      </trkpt>
      <trkpt lat="30.600816881674906" lon="34.95391555027475">
        <ele>338</ele>
        <time>2026-06-10T15:38:19.453Z</time>
      </trkpt>
      <trkpt lat="30.600994391761596" lon="34.95402451501842">
        <ele>338</ele>
        <time>2026-06-10T15:38:20.453Z</time>
      </trkpt>
      <trkpt lat="30.600994391761596" lon="34.95402451501842">
        <ele>338</ele>
        <time>2026-06-10T15:38:21.453Z</time>
      </trkpt>
      <trkpt lat="30.601031085871856" lon="34.95404705302523">
        <ele>338</ele>
        <time>2026-06-10T15:38:22.453Z</time>
      </trkpt>
      <trkpt lat="30.601363568038423" lon="34.9541716639885">
        <ele>336</ele>
        <time>2026-06-10T15:38:23.453Z</time>
      </trkpt>
      <trkpt lat="30.601547038589725" lon="34.954193456937226">
        <ele>336</ele>
        <time>2026-06-10T15:38:24.453Z</time>
      </trkpt>
      <trkpt lat="30.601556910609236" lon="34.954281746319275">
        <ele>344</ele>
        <time>2026-06-10T15:38:25.453Z</time>
      </trkpt>
      <trkpt lat="30.601618377900536" lon="34.954351595513934">
        <ele>344</ele>
        <time>2026-06-10T15:38:26.453Z</time>
      </trkpt>
      <trkpt lat="30.60185530636881" lon="34.95445404099943">
        <ele>344</ele>
        <time>2026-06-10T15:38:27.453Z</time>
      </trkpt>
      <trkpt lat="30.602035424158768" lon="34.95441362159879">
        <ele>343</ele>
        <time>2026-06-10T15:38:28.453Z</time>
      </trkpt>
      <trkpt lat="30.602514869030898" lon="34.95450023460016">
        <ele>343</ele>
        <time>2026-06-10T15:38:29.453Z</time>
      </trkpt>
      <trkpt lat="30.602750121118504" lon="34.95445217835424">
        <ele>343</ele>
        <time>2026-06-10T15:38:30.453Z</time>
      </trkpt>
      <trkpt lat="30.60295277691527" lon="34.95435122298489">
        <ele>352</ele>
        <time>2026-06-10T15:38:31.453Z</time>
      </trkpt>
      <trkpt lat="30.603131032060034" lon="34.95426237480929">
        <ele>352</ele>
        <time>2026-06-10T15:38:32.453Z</time>
      </trkpt>
      <trkpt lat="30.603353059366786" lon="34.953880160016126">
        <ele>342</ele>
        <time>2026-06-10T15:38:33.453Z</time>
      </trkpt>
      <trkpt lat="30.60361792751293" lon="34.95358940110183">
        <ele>342</ele>
        <time>2026-06-10T15:38:34.453Z</time>
      </trkpt>
      <trkpt lat="30.603674924455767" lon="34.953458643409434">
        <ele>342</ele>
        <time>2026-06-10T15:38:35.453Z</time>
      </trkpt>
      <trkpt lat="30.603674924455767" lon="34.953458643409434">
        <ele>342</ele>
        <time>2026-06-10T15:38:36.453Z</time>
      </trkpt>
      <trkpt lat="30.60373825439226" lon="34.95331335708455">
        <ele>340</ele>
        <time>2026-06-10T15:38:37.453Z</time>
      </trkpt>
      <trkpt lat="30.60375539072801" lon="34.95306171371926">
        <ele>340</ele>
        <time>2026-06-10T15:38:38.453Z</time>
      </trkpt>
      <trkpt lat="30.603893599001175" lon="34.95285682274826">
        <ele>340</ele>
        <time>2026-06-10T15:38:39.453Z</time>
      </trkpt>
      <trkpt lat="30.603977231770244" lon="34.95256084842743">
        <ele>340</ele>
        <time>2026-06-10T15:38:40.453Z</time>
      </trkpt>
      <trkpt lat="30.603893785265694" lon="34.95238426966334">
        <ele>344</ele>
        <time>2026-06-10T15:38:41.453Z</time>
      </trkpt>
      <trkpt lat="30.603905519930397" lon="34.95197262507616">
        <ele>344</ele>
        <time>2026-06-10T15:38:42.453Z</time>
      </trkpt>
      <trkpt lat="30.60397201636371" lon="34.951645172051606">
        <ele>349</ele>
        <time>2026-06-10T15:38:43.453Z</time>
      </trkpt>
      <trkpt lat="30.603934577195375" lon="34.951409919964">
        <ele>349</ele>
        <time>2026-06-10T15:38:44.453Z</time>
      </trkpt>
      <trkpt lat="30.603969408660443" lon="34.95118118713456">
        <ele>349</ele>
        <time>2026-06-10T15:38:45.453Z</time>
      </trkpt>
      <trkpt lat="30.603952272324687" lon="34.95102304855786">
        <ele>349</ele>
        <time>2026-06-10T15:38:46.453Z</time>
      </trkpt>
      <trkpt lat="30.60382095583873" lon="34.95063934364854">
        <ele>354</ele>
        <time>2026-06-10T15:38:47.453Z</time>
      </trkpt>
      <trkpt lat="30.603752037966668" lon="34.95029922463669">
        <ele>354</ele>
        <time>2026-06-10T15:38:48.453Z</time>
      </trkpt>
      <trkpt lat="30.60367473819125" lon="34.95016325153775">
        <ele>354</ele>
        <time>2026-06-10T15:38:49.453Z</time>
      </trkpt>
      <trkpt lat="30.603503002304652" lon="34.94995407648282">
        <ele>349</ele>
        <time>2026-06-10T15:38:50.453Z</time>
      </trkpt>
      <trkpt lat="30.603467053252466" lon="34.949795751641595">
        <ele>349</ele>
        <time>2026-06-10T15:38:51.453Z</time>
      </trkpt>
      <trkpt lat="30.60347021974929" lon="34.94967933631717">
        <ele>349</ele>
        <time>2026-06-10T15:38:52.453Z</time>
      </trkpt>
      <trkpt lat="30.603495737988407" lon="34.94957465565744">
        <ele>349</ele>
        <time>2026-06-10T15:38:53.453Z</time>
      </trkpt>
      <trkpt lat="30.60355627395711" lon="34.949496238294905">
        <ele>349</ele>
        <time>2026-06-10T15:38:54.453Z</time>
      </trkpt>
      <trkpt lat="30.603689639352776" lon="34.949431045713226">
        <ele>356</ele>
        <time>2026-06-10T15:38:55.453Z</time>
      </trkpt>
      <trkpt lat="30.60381257393537" lon="34.94942955559707">
        <ele>356</ele>
        <time>2026-06-10T15:38:56.453Z</time>
      </trkpt>
      <trkpt lat="30.603873109904075" lon="34.94941148793872">
        <ele>356</ele>
        <time>2026-06-10T15:38:57.453Z</time>
      </trkpt>
      <trkpt lat="30.603945380537482" lon="34.94933996236339">
        <ele>356</ele>
        <time>2026-06-10T15:38:58.453Z</time>
      </trkpt>
      <trkpt lat="30.60404950240365" lon="34.94918331390284">
        <ele>360</ele>
        <time>2026-06-10T15:38:59.453Z</time>
      </trkpt>
      <trkpt lat="30.60413797805022" lon="34.94921237116782">
        <ele>356</ele>
        <time>2026-06-10T15:39:00.453Z</time>
      </trkpt>
      <trkpt lat="30.60420894483199" lon="34.9491546291669">
        <ele>360</ele>
        <time>2026-06-10T15:39:01.453Z</time>
      </trkpt>
      <trkpt lat="30.60422086576121" lon="34.949103220159635">
        <ele>360</ele>
        <time>2026-06-10T15:39:02.453Z</time>
      </trkpt>
      <trkpt lat="30.604196465109208" lon="34.949036164932764">
        <ele>360</ele>
        <time>2026-06-10T15:39:03.453Z</time>
      </trkpt>
      <trkpt lat="30.60402715066136" lon="34.948851949323384">
        <ele>360</ele>
        <time>2026-06-10T15:39:04.453Z</time>
      </trkpt>
      <trkpt lat="30.603995299428597" lon="34.948793275999876">
        <ele>360</ele>
        <time>2026-06-10T15:39:05.453Z</time>
      </trkpt>
      <trkpt lat="30.60399082908014" lon="34.94866251830747">
        <ele>360</ele>
        <time>2026-06-10T15:39:06.453Z</time>
      </trkpt>
      <trkpt lat="30.604136674198582" lon="34.94835499558646">
        <ele>363</ele>
        <time>2026-06-10T15:39:07.453Z</time>
      </trkpt>
      <trkpt lat="30.604322566188632" lon="34.948082676859556">
        <ele>363</ele>
        <time>2026-06-10T15:39:08.453Z</time>
      </trkpt>
      <trkpt lat="30.604514977436846" lon="34.947960301070516">
        <ele>375</ele>
        <time>2026-06-10T15:39:09.453Z</time>
      </trkpt>
      <trkpt lat="30.6047047809818" lon="34.947902559069604">
        <ele>375</ele>
        <time>2026-06-10T15:39:10.453Z</time>
      </trkpt>
      <trkpt lat="30.604752092169644" lon="34.94785953196569">
        <ele>375</ele>
        <time>2026-06-10T15:39:11.453Z</time>
      </trkpt>
      <trkpt lat="30.60475674878262" lon="34.94778167339671">
        <ele>375</ele>
        <time>2026-06-10T15:39:12.453Z</time>
      </trkpt>
      <trkpt lat="30.60472843657572" lon="34.947717784666665">
        <ele>375</ele>
        <time>2026-06-10T15:39:13.453Z</time>
      </trkpt>
      <trkpt lat="30.604731230543507" lon="34.94760602595522">
        <ele>375</ele>
        <time>2026-06-10T15:39:14.453Z</time>
      </trkpt>
      <trkpt lat="30.60483665626131" lon="34.94745198519793">
        <ele>372</ele>
        <time>2026-06-10T15:39:15.453Z</time>
      </trkpt>
      <trkpt lat="30.604862547029462" lon="34.947336314931576">
        <ele>372</ele>
        <time>2026-06-10T15:39:16.453Z</time>
      </trkpt>
      <trkpt lat="30.604776120292605" lon="34.947062133559484">
        <ele>372</ele>
        <time>2026-06-10T15:39:17.453Z</time>
      </trkpt>
      <trkpt lat="30.604739984975904" lon="34.94680844128449">
        <ele>372</ele>
        <time>2026-06-10T15:39:18.453Z</time>
      </trkpt>
      <trkpt lat="30.604748366879264" lon="34.946778080167874">
        <ele>372</ele>
        <time>2026-06-10T15:39:19.453Z</time>
      </trkpt>
      <trkpt lat="30.6049975888058" lon="34.94663186252039">
        <ele>380</ele>
        <time>2026-06-10T15:39:20.453Z</time>
      </trkpt>
      <trkpt lat="30.605057938509983" lon="34.94654264181575">
        <ele>380</ele>
        <time>2026-06-10T15:39:21.453Z</time>
      </trkpt>
      <trkpt lat="30.605135238285406" lon="34.94629416494729">
        <ele>380</ele>
        <time>2026-06-10T15:39:22.453Z</time>
      </trkpt>
      <trkpt lat="30.605197078105743" lon="34.94623307018503">
        <ele>380</ele>
        <time>2026-06-10T15:39:23.453Z</time>
      </trkpt>
      <trkpt lat="30.605359314501865" lon="34.94617756335834">
        <ele>384</ele>
        <time>2026-06-10T15:39:24.453Z</time>
      </trkpt>
      <trkpt lat="30.605395822347607" lon="34.946127644467225">
        <ele>384</ele>
        <time>2026-06-10T15:39:25.453Z</time>
      </trkpt>
      <trkpt lat="30.605410164715575" lon="34.946074559079285">
        <ele>384</ele>
        <time>2026-06-10T15:39:26.453Z</time>
      </trkpt>
      <trkpt lat="30.60540122401866" lon="34.946033580885086">
        <ele>384</ele>
        <time>2026-06-10T15:39:27.453Z</time>
      </trkpt>
      <trkpt lat="30.605205460009103" lon="34.945814161281604">
        <ele>389</ele>
        <time>2026-06-10T15:39:28.453Z</time>
      </trkpt>
      <trkpt lat="30.605110837633404" lon="34.94580522058469">
        <ele>389</ele>
        <time>2026-06-10T15:39:29.453Z</time>
      </trkpt>
      <trkpt lat="30.604890672971845" lon="34.945618583536564">
        <ele>389</ele>
        <time>2026-06-10T15:39:30.453Z</time>
      </trkpt>
      <trkpt lat="30.604758238898775" lon="34.94555469480652">
        <ele>389</ele>
        <time>2026-06-10T15:39:31.453Z</time>
      </trkpt>
      <trkpt lat="30.604476979474953" lon="34.945142863954814">
        <ele>391</ele>
        <time>2026-06-10T15:39:32.453Z</time>
      </trkpt>
      <trkpt lat="30.604356466331105" lon="34.94495473679054">
        <ele>399</ele>
        <time>2026-06-10T15:39:33.453Z</time>
      </trkpt>
      <trkpt lat="30.604222169612843" lon="34.944846330840434">
        <ele>399</ele>
        <time>2026-06-10T15:39:34.453Z</time>
      </trkpt>
      <trkpt lat="30.604177466128263" lon="34.94479175533634">
        <ele>399</ele>
        <time>2026-06-10T15:39:35.453Z</time>
      </trkpt>
      <trkpt lat="30.6041085482562" lon="34.944558365893926">
        <ele>399</ele>
        <time>2026-06-10T15:39:36.453Z</time>
      </trkpt>
      <trkpt lat="30.60410202899803" lon="34.94442853952412">
        <ele>399</ele>
        <time>2026-06-10T15:39:37.453Z</time>
      </trkpt>
      <trkpt lat="30.604151761624628" lon="34.94416739666836">
        <ele>407</ele>
        <time>2026-06-10T15:39:38.453Z</time>
      </trkpt>
      <trkpt lat="30.604150457772995" lon="34.944115615132056">
        <ele>407</ele>
        <time>2026-06-10T15:39:39.453Z</time>
      </trkpt>
      <trkpt lat="30.604013180822427" lon="34.943430534230856">
        <ele>407</ele>
        <time>2026-06-10T15:39:40.453Z</time>
      </trkpt>
      <trkpt lat="30.603867335703985" lon="34.94301125279839">
        <ele>412</ele>
        <time>2026-06-10T15:39:41.453Z</time>
      </trkpt>
      <trkpt lat="30.60379059472212" lon="34.9425370233328">
        <ele>420</ele>
        <time>2026-06-10T15:39:42.453Z</time>
      </trkpt>
      <trkpt lat="30.603700442694883" lon="34.94218759109499">
        <ele>420</ele>
        <time>2026-06-10T15:39:43.453Z</time>
      </trkpt>
      <trkpt lat="30.603687404178547" lon="34.94203559924742">
        <ele>420</ele>
        <time>2026-06-10T15:39:44.453Z</time>
      </trkpt>
      <trkpt lat="30.603691688262487" lon="34.94165394324781">
        <ele>420</ele>
        <time>2026-06-10T15:39:45.453Z</time>
      </trkpt>
      <trkpt lat="30.60370658942401" lon="34.941554477994615">
        <ele>420</ele>
        <time>2026-06-10T15:39:46.453Z</time>
      </trkpt>
      <trkpt lat="30.603781467760687" lon="34.94138087946283">
        <ele>420</ele>
        <time>2026-06-10T15:39:47.453Z</time>
      </trkpt>
      <trkpt lat="30.603810897554702" lon="34.941275267480506">
        <ele>420</ele>
        <time>2026-06-10T15:39:48.453Z</time>
      </trkpt>
      <trkpt lat="30.60390291222713" lon="34.940839967299404">
        <ele>416</ele>
        <time>2026-06-10T15:39:49.453Z</time>
      </trkpt>
      <trkpt lat="30.603963634460353" lon="34.94069151447769">
        <ele>416</ele>
        <time>2026-06-10T15:39:50.453Z</time>
      </trkpt>
      <trkpt lat="30.60401914128704" lon="34.94062483177986">
        <ele>416</ele>
        <time>2026-06-10T15:39:51.453Z</time>
      </trkpt>
      <trkpt lat="30.60424508014869" lon="34.940437822202696">
        <ele>416</ele>
        <time>2026-06-10T15:39:52.453Z</time>
      </trkpt>
      <trkpt lat="30.604488527875137" lon="34.9402826638583">
        <ele>416</ele>
        <time>2026-06-10T15:39:53.453Z</time>
      </trkpt>
      <trkpt lat="30.60471670191102" lon="34.940001218169954">
        <ele>405</ele>
        <time>2026-06-10T15:39:54.453Z</time>
      </trkpt>
      <trkpt lat="30.604863850881095" lon="34.93966799094531">
        <ele>405</ele>
        <time>2026-06-10T15:39:55.453Z</time>
      </trkpt>
      <trkpt lat="30.605164481814903" lon="34.939110687504204">
        <ele>406</ele>
        <time>2026-06-10T15:39:56.453Z</time>
      </trkpt>
      <trkpt lat="30.605201362189682" lon="34.93893019718521">
        <ele>406</ele>
        <time>2026-06-10T15:39:57.453Z</time>
      </trkpt>
      <trkpt lat="30.605222410080337" lon="34.938653594374365">
        <ele>406</ele>
        <time>2026-06-10T15:39:58.453Z</time>
      </trkpt>
      <trkpt lat="30.605212724325344" lon="34.93852339547552">
        <ele>406</ele>
        <time>2026-06-10T15:39:59.453Z</time>
      </trkpt>
      <trkpt lat="30.605155354853466" lon="34.93841815602224">
        <ele>406</ele>
        <time>2026-06-10T15:40:00.453Z</time>
      </trkpt>
      <trkpt lat="30.605085878187847" lon="34.93835836511161">
        <ele>404</ele>
        <time>2026-06-10T15:40:01.453Z</time>
      </trkpt>
      <trkpt lat="30.605032047741833" lon="34.93833601336932">
        <ele>404</ele>
        <time>2026-06-10T15:40:02.453Z</time>
      </trkpt>
      <trkpt lat="30.604950277617952" lon="34.93817582588291">
        <ele>404</ele>
        <time>2026-06-10T15:40:03.453Z</time>
      </trkpt>
      <trkpt lat="30.604848390926012" lon="34.938048234687336">
        <ele>404</ele>
        <time>2026-06-10T15:40:04.453Z</time>
      </trkpt>
      <trkpt lat="30.604692860052577" lon="34.93787184218776">
        <ele>404</ele>
        <time>2026-06-10T15:40:05.453Z</time>
      </trkpt>
      <trkpt lat="30.604526898366068" lon="34.937639942861495">
        <ele>404</ele>
        <time>2026-06-10T15:40:06.453Z</time>
      </trkpt>
      <trkpt lat="30.604331879414584" lon="34.937320871740305">
        <ele>399</ele>
        <time>2026-06-10T15:40:07.453Z</time>
      </trkpt>
      <trkpt lat="30.60429797927211" lon="34.937227925745276">
        <ele>399</ele>
        <time>2026-06-10T15:40:08.453Z</time>
      </trkpt>
      <trkpt lat="30.604243962561576" lon="34.93697889008326">
        <ele>399</ele>
        <time>2026-06-10T15:40:09.453Z</time>
      </trkpt>
      <trkpt lat="30.604219934438614" lon="34.93666596569119">
        <ele>402</ele>
        <time>2026-06-10T15:40:10.453Z</time>
      </trkpt>
      <trkpt lat="30.604151947889147" lon="34.93657599992847">
        <ele>402</ele>
        <time>2026-06-10T15:40:11.453Z</time>
      </trkpt>
      <trkpt lat="30.603717951559677" lon="34.93630796528551">
        <ele>402</ele>
        <time>2026-06-10T15:40:12.453Z</time>
      </trkpt>
      <trkpt lat="30.603503933627245" lon="34.936155973437934">
        <ele>397</ele>
        <time>2026-06-10T15:40:13.453Z</time>
      </trkpt>
      <trkpt lat="30.60339291997387" lon="34.93605185157177">
        <ele>397</ele>
        <time>2026-06-10T15:40:14.453Z</time>
      </trkpt>
      <trkpt lat="30.60333592303103" lon="34.93594791597012">
        <ele>397</ele>
        <time>2026-06-10T15:40:15.453Z</time>
      </trkpt>
      <trkpt lat="30.603240928126297" lon="34.93571191882443">
        <ele>397</ele>
        <time>2026-06-10T15:40:16.453Z</time>
      </trkpt>
      <trkpt lat="30.603187842738357" lon="34.935643932274964">
        <ele>397</ele>
        <time>2026-06-10T15:40:17.453Z</time>
      </trkpt>
      <trkpt lat="30.603030821748767" lon="34.93550591026632">
        <ele>397</ele>
        <time>2026-06-10T15:40:18.453Z</time>
      </trkpt>
      <trkpt lat="30.602876594726965" lon="34.93541464065197">
        <ele>397</ele>
        <time>2026-06-10T15:40:19.453Z</time>
      </trkpt>
      <trkpt lat="30.602876594726965" lon="34.93541464065197">
        <ele>397</ele>
        <time>2026-06-10T15:40:20.453Z</time>
      </trkpt>
      <trkpt lat="30.602839900616704" lon="34.93539266143872">
        <ele>397</ele>
        <time>2026-06-10T15:40:21.453Z</time>
      </trkpt>
      <trkpt lat="30.602732984782747" lon="34.93528481428217">
        <ele>402</ele>
        <time>2026-06-10T15:40:22.453Z</time>
      </trkpt>
      <trkpt lat="30.602496987637064" lon="34.93495996896088">
        <ele>401</ele>
        <time>2026-06-10T15:40:23.453Z</time>
      </trkpt>
      <trkpt lat="30.60238988553859" lon="34.93477985117092">
        <ele>401</ele>
        <time>2026-06-10T15:40:24.453Z</time>
      </trkpt>
      <trkpt lat="30.60233288859575" lon="34.93462897691047">
        <ele>401</ele>
        <time>2026-06-10T15:40:25.453Z</time>
      </trkpt>
      <trkpt lat="30.601941919370187" lon="34.93300288765884">
        <ele>403</ele>
        <time>2026-06-10T15:40:26.453Z</time>
      </trkpt>
      <trkpt lat="30.601793839077512" lon="34.932636877878835">
        <ele>403</ele>
        <time>2026-06-10T15:40:27.453Z</time>
      </trkpt>
      <trkpt lat="30.601685991920963" lon="34.93245787767599">
        <ele>402</ele>
        <time>2026-06-10T15:40:28.453Z</time>
      </trkpt>
      <trkpt lat="30.6016502291333" lon="34.93226099607932">
        <ele>402</ele>
        <time>2026-06-10T15:40:29.453Z</time>
      </trkpt>
      <trkpt lat="30.601681894101542" lon="34.93197731521675">
        <ele>402</ele>
        <time>2026-06-10T15:40:30.453Z</time>
      </trkpt>
      <trkpt lat="30.601668855585206" lon="34.93171021189638">
        <ele>401</ele>
        <time>2026-06-10T15:40:31.453Z</time>
      </trkpt>
      <trkpt lat="30.601566782628748" lon="34.93125535394077">
        <ele>401</ele>
        <time>2026-06-10T15:40:32.453Z</time>
      </trkpt>
      <trkpt lat="30.601563429867404" lon="34.93076454693298">
        <ele>401</ele>
        <time>2026-06-10T15:40:33.453Z</time>
      </trkpt>
      <trkpt lat="30.601532323692716" lon="34.930311365358044">
        <ele>401</ele>
        <time>2026-06-10T15:40:34.453Z</time>
      </trkpt>
      <trkpt lat="30.601453347536623" lon="34.93022437982763">
        <ele>401</ele>
        <time>2026-06-10T15:40:35.453Z</time>
      </trkpt>
      <trkpt lat="30.601257956056102" lon="34.93014782511028">
        <ele>401</ele>
        <time>2026-06-10T15:40:36.453Z</time>
      </trkpt>
      <trkpt lat="30.601161471035216" lon="34.930153226781336">
        <ele>410</ele>
        <time>2026-06-10T15:40:37.453Z</time>
      </trkpt>
      <trkpt lat="30.60109180810508" lon="34.93009585730946">
        <ele>410</ele>
        <time>2026-06-10T15:40:38.453Z</time>
      </trkpt>
      <trkpt lat="30.601025684200803" lon="34.93009753369013">
        <ele>410</ele>
        <time>2026-06-10T15:40:39.453Z</time>
      </trkpt>
      <trkpt lat="30.600965893290173" lon="34.930188989569004">
        <ele>410</ele>
        <time>2026-06-10T15:40:40.453Z</time>
      </trkpt>
      <trkpt lat="30.600888593514753" lon="34.930246731569916">
        <ele>410</ele>
        <time>2026-06-10T15:40:41.453Z</time>
      </trkpt>
      <trkpt lat="30.600777952390416" lon="34.93022382103407">
        <ele>410</ele>
        <time>2026-06-10T15:40:42.453Z</time>
      </trkpt>
      <trkpt lat="30.600690966860004" lon="34.93017483346555">
        <ele>410</ele>
        <time>2026-06-10T15:40:43.453Z</time>
      </trkpt>
      <trkpt lat="30.600639930381774" lon="34.930116905200116">
        <ele>410</ele>
        <time>2026-06-10T15:40:44.453Z</time>
      </trkpt>
      <trkpt lat="30.600589825226137" lon="34.930020978972784">
        <ele>415</ele>
        <time>2026-06-10T15:40:45.453Z</time>
      </trkpt>
      <trkpt lat="30.60055126847069" lon="34.929853527170124">
        <ele>415</ele>
        <time>2026-06-10T15:40:46.453Z</time>
      </trkpt>
      <trkpt lat="30.600547356915786" lon="34.9297732471624">
        <ele>415</ele>
        <time>2026-06-10T15:40:47.453Z</time>
      </trkpt>
      <trkpt lat="30.60058386476153" lon="34.92972649476811">
        <ele>415</ele>
        <time>2026-06-10T15:40:48.453Z</time>
      </trkpt>
      <trkpt lat="30.600649057343208" lon="34.92975350312338">
        <ele>415</ele>
        <time>2026-06-10T15:40:49.453Z</time>
      </trkpt>
      <trkpt lat="30.600694878414902" lon="34.92969166330304">
        <ele>415</ele>
        <time>2026-06-10T15:40:50.453Z</time>
      </trkpt>
      <trkpt lat="30.600679045930782" lon="34.92960337392099">
        <ele>415</ele>
        <time>2026-06-10T15:40:51.453Z</time>
      </trkpt>
      <trkpt lat="30.60058367849701" lon="34.92946088156389">
        <ele>415</ele>
        <time>2026-06-10T15:40:52.453Z</time>
      </trkpt>
      <trkpt lat="30.60039350242302" lon="34.9290101214277">
        <ele>418</ele>
        <time>2026-06-10T15:40:53.453Z</time>
      </trkpt>
      <trkpt lat="30.600193081800484" lon="34.92803241896702">
        <ele>423</ele>
        <time>2026-06-10T15:40:54.453Z</time>
      </trkpt>
      <trkpt lat="30.600110194089492" lon="34.927783755834035">
        <ele>423</ele>
        <time>2026-06-10T15:40:55.453Z</time>
      </trkpt>
      <trkpt lat="30.60001054257178" lon="34.92755856203046">
        <ele>421</ele>
        <time>2026-06-10T15:40:56.453Z</time>
      </trkpt>
      <trkpt lat="30.599859482046803" lon="34.92742556916384">
        <ele>421</ele>
        <time>2026-06-10T15:40:57.453Z</time>
      </trkpt>
      <trkpt lat="30.599666884534066" lon="34.927306918665174">
        <ele>421</ele>
        <time>2026-06-10T15:40:58.453Z</time>
      </trkpt>
      <trkpt lat="30.599563321461453" lon="34.92715511308212">
        <ele>421</ele>
        <time>2026-06-10T15:40:59.453Z</time>
      </trkpt>
      <trkpt lat="30.599202713352504" lon="34.926165862221254">
        <ele>427</ele>
        <time>2026-06-10T15:41:00.453Z</time>
      </trkpt>
      <trkpt lat="30.598710975022115" lon="34.92508608680411">
        <ele>431</ele>
        <time>2026-06-10T15:41:01.453Z</time>
      </trkpt>
      <trkpt lat="30.59858133491683" lon="34.92464240471965">
        <ele>436</ele>
        <time>2026-06-10T15:41:02.453Z</time>
      </trkpt>
      <trkpt lat="30.59849788841228" lon="34.92445595393604">
        <ele>436</ele>
        <time>2026-06-10T15:41:03.453Z</time>
      </trkpt>
      <trkpt lat="30.598404756152735" lon="34.92381986060336">
        <ele>438</ele>
        <time>2026-06-10T15:41:04.453Z</time>
      </trkpt>
      <trkpt lat="30.59819185580742" lon="34.923492966372365">
        <ele>438</ele>
        <time>2026-06-10T15:41:05.453Z</time>
      </trkpt>
      <trkpt lat="30.597971132352303" lon="34.92322549052295">
        <ele>439</ele>
        <time>2026-06-10T15:41:06.453Z</time>
      </trkpt>
      <trkpt lat="30.597852854382683" lon="34.92299582637092">
        <ele>439</ele>
        <time>2026-06-10T15:41:07.453Z</time>
      </trkpt>
      <trkpt lat="30.597693598218864" lon="34.922632238029664">
        <ele>436</ele>
        <time>2026-06-10T15:41:08.453Z</time>
      </trkpt>
      <trkpt lat="30.597478462699318" lon="34.92223046546199">
        <ele>437</ele>
        <time>2026-06-10T15:41:09.453Z</time>
      </trkpt>
      <trkpt lat="30.597348450064995" lon="34.922073630736925">
        <ele>437</ele>
        <time>2026-06-10T15:41:10.453Z</time>
      </trkpt>
      <trkpt lat="30.597304305373974" lon="34.921979380890264">
        <ele>437</ele>
        <time>2026-06-10T15:41:11.453Z</time>
      </trkpt>
      <trkpt lat="30.59729536467706" lon="34.92172717873142">
        <ele>435</ele>
        <time>2026-06-10T15:41:12.453Z</time>
      </trkpt>
      <trkpt lat="30.597264817295926" lon="34.92145411494644">
        <ele>435</ele>
        <time>2026-06-10T15:41:13.453Z</time>
      </trkpt>
      <trkpt lat="30.59712362879046" lon="34.92115888568369">
        <ele>435</ele>
        <time>2026-06-10T15:41:14.453Z</time>
      </trkpt>
      <trkpt lat="30.59693587415522" lon="34.92086365642094">
        <ele>434</ele>
        <time>2026-06-10T15:41:15.453Z</time>
      </trkpt>
      <trkpt lat="30.596835291314914" lon="34.920599533332876">
        <ele>434</ele>
        <time>2026-06-10T15:41:16.453Z</time>
      </trkpt>
      <trkpt lat="30.59661196015653" lon="34.920295922166765">
        <ele>434</ele>
        <time>2026-06-10T15:41:17.453Z</time>
      </trkpt>
      <trkpt lat="30.59647263429625" lon="34.9199215304834">
        <ele>433</ele>
        <time>2026-06-10T15:41:18.453Z</time>
      </trkpt>
      <trkpt lat="30.596101409109714" lon="34.919165669064945">
        <ele>437</ele>
        <time>2026-06-10T15:41:19.453Z</time>
      </trkpt>
      <trkpt lat="30.59602653077304" lon="34.918984992481434">
        <ele>437</ele>
        <time>2026-06-10T15:41:20.453Z</time>
      </trkpt>
      <trkpt lat="30.596017590076123" lon="34.9187387507872">
        <ele>437</ele>
        <time>2026-06-10T15:41:21.453Z</time>
      </trkpt>
      <trkpt lat="30.59596748492049" lon="34.918642079501794">
        <ele>437</ele>
        <time>2026-06-10T15:41:22.453Z</time>
      </trkpt>
      <trkpt lat="30.595933584778017" lon="34.91852342900314">
        <ele>437</ele>
        <time>2026-06-10T15:41:23.453Z</time>
      </trkpt>
      <trkpt lat="30.59585963776394" lon="34.91840869005938">
        <ele>437</ele>
        <time>2026-06-10T15:41:24.453Z</time>
      </trkpt>
      <trkpt lat="30.59570280303887" lon="34.91826340373449">
        <ele>436</ele>
        <time>2026-06-10T15:41:25.453Z</time>
      </trkpt>
      <trkpt lat="30.595603896579235" lon="34.91816505606842">
        <ele>436</ele>
        <time>2026-06-10T15:41:26.453Z</time>
      </trkpt>
      <trkpt lat="30.594398446339536" lon="34.91814009337771">
        <ele>438.5</ele>
        <time>2026-06-10T15:41:27.453Z</time>
      </trkpt>
      <trkpt lat="30.594398446339536" lon="34.91814009337771">
        <ele>438.5</ele>
        <time>2026-06-10T15:41:28.453Z</time>
      </trkpt>
      <trkpt lat="30.59324727788375" lon="34.91811625476441">
        <ele>441</ele>
        <time>2026-06-10T15:41:29.453Z</time>
      </trkpt>
      <trkpt lat="30.59318636938601" lon="34.91804528798264">
        <ele>441</ele>
        <time>2026-06-10T15:41:30.453Z</time>
      </trkpt>
      <trkpt lat="30.59304797484833" lon="34.91782344694041">
        <ele>441</ele>
        <time>2026-06-10T15:41:31.453Z</time>
      </trkpt>
      <trkpt lat="30.592914423188144" lon="34.917507914845075">
        <ele>441</ele>
        <time>2026-06-10T15:41:32.453Z</time>
      </trkpt>
      <trkpt lat="30.59293584360784" lon="34.9170631151735">
        <ele>441</ele>
        <time>2026-06-10T15:41:33.453Z</time>
      </trkpt>
      <trkpt lat="30.592969371221276" lon="34.91694725864263">
        <ele>441</ele>
        <time>2026-06-10T15:41:34.453Z</time>
      </trkpt>
      <trkpt lat="30.593120990539813" lon="34.91644378564754">
        <ele>444</ele>
        <time>2026-06-10T15:41:35.453Z</time>
      </trkpt>
      <trkpt lat="30.593138871933643" lon="34.91628993115477">
        <ele>444</ele>
        <time>2026-06-10T15:41:36.453Z</time>
      </trkpt>
      <trkpt lat="30.593137940611047" lon="34.91599786838884">
        <ele>444</ele>
        <time>2026-06-10T15:41:37.453Z</time>
      </trkpt>
      <trkpt lat="30.593077963435903" lon="34.9157378431202">
        <ele>445</ele>
        <time>2026-06-10T15:41:38.453Z</time>
      </trkpt>
      <trkpt lat="30.593016868673644" lon="34.915552882452744">
        <ele>445</ele>
        <time>2026-06-10T15:41:39.453Z</time>
      </trkpt>
      <trkpt lat="30.592669857874583" lon="34.914718976200795">
        <ele>447</ele>
        <time>2026-06-10T15:41:40.453Z</time>
      </trkpt>
      <trkpt lat="30.59257095141495" lon="34.91438388633096">
        <ele>447</ele>
        <time>2026-06-10T15:41:41.453Z</time>
      </trkpt>
      <trkpt lat="30.592551952434004" lon="34.914239903857705">
        <ele>447</ele>
        <time>2026-06-10T15:41:42.453Z</time>
      </trkpt>
      <trkpt lat="30.59258082343446" lon="34.91398267255685">
        <ele>449</ele>
        <time>2026-06-10T15:41:43.453Z</time>
      </trkpt>
      <trkpt lat="30.592701895371867" lon="34.91339482173461">
        <ele>453</ele>
        <time>2026-06-10T15:41:44.453Z</time>
      </trkpt>
      <trkpt lat="30.59277099950845" lon="34.91292189612065">
        <ele>453</ele>
        <time>2026-06-10T15:41:45.453Z</time>
      </trkpt>
      <trkpt lat="30.59276690168903" lon="34.912796912628345">
        <ele>453</ele>
        <time>2026-06-10T15:41:46.453Z</time>
      </trkpt>
      <trkpt lat="30.592718845443105" lon="34.91245679361649">
        <ele>451</ele>
        <time>2026-06-10T15:41:47.453Z</time>
      </trkpt>
      <trkpt lat="30.592514885794703" lon="34.91137888084454">
        <ele>453</ele>
        <time>2026-06-10T15:41:48.453Z</time>
      </trkpt>
      <trkpt lat="30.59253183586594" lon="34.91118293057046">
        <ele>453</ele>
        <time>2026-06-10T15:41:49.453Z</time>
      </trkpt>
      <trkpt lat="30.59267693592631" lon="34.91055894443152">
        <ele>453</ele>
        <time>2026-06-10T15:41:50.453Z</time>
      </trkpt>
      <trkpt lat="30.59269332720399" lon="34.910435637319885">
        <ele>453</ele>
        <time>2026-06-10T15:41:51.453Z</time>
      </trkpt>
      <trkpt lat="30.59269332720399" lon="34.910435637319885">
        <ele>453</ele>
        <time>2026-06-10T15:41:52.453Z</time>
      </trkpt>
      <trkpt lat="30.59269481732014" lon="34.91042483397778">
        <ele>453</ele>
        <time>2026-06-10T15:41:53.453Z</time>
      </trkpt>
      <trkpt lat="30.59268084748121" lon="34.91019684620642">
        <ele>453</ele>
        <time>2026-06-10T15:41:54.453Z</time>
      </trkpt>
      <trkpt lat="30.59262794835779" lon="34.91003181584251">
        <ele>456</ele>
        <time>2026-06-10T15:41:55.453Z</time>
      </trkpt>
      <trkpt lat="30.592037862361323" lon="34.908661840304624">
        <ele>456</ele>
        <time>2026-06-10T15:41:56.453Z</time>
      </trkpt>
      <trkpt lat="30.591635903529134" lon="34.907958878009595">
        <ele>459</ele>
        <time>2026-06-10T15:41:57.453Z</time>
      </trkpt>
      <trkpt lat="30.591362839744153" lon="34.907409956471845">
        <ele>465</ele>
        <time>2026-06-10T15:41:58.453Z</time>
      </trkpt>
      <trkpt lat="30.591162977915175" lon="34.907087905118345">
        <ele>463</ele>
        <time>2026-06-10T15:41:59.453Z</time>
      </trkpt>
      <trkpt lat="30.59091096202085" lon="34.90663286089821">
        <ele>465</ele>
        <time>2026-06-10T15:42:00.453Z</time>
      </trkpt>
      <trkpt lat="30.590677945107473" lon="34.90589190064129">
        <ele>467</ele>
        <time>2026-06-10T15:42:01.453Z</time>
      </trkpt>
      <trkpt lat="30.59010983832426" lon="34.904314985222705">
        <ele>468</ele>
        <time>2026-06-10T15:42:02.453Z</time>
      </trkpt>
      <trkpt lat="30.589207945522844" lon="34.90222193082173">
        <ele>475</ele>
        <time>2026-06-10T15:42:03.453Z</time>
      </trkpt>
      <trkpt lat="30.588417997697398" lon="34.90066587702928">
        <ele>479</ele>
        <time>2026-06-10T15:42:04.453Z</time>
      </trkpt>
      <trkpt lat="30.586847974066018" lon="34.89777691433825">
        <ele>485</ele>
        <time>2026-06-10T15:42:05.453Z</time>
      </trkpt>
      <trkpt lat="30.586523873802808" lon="34.89706799157861">
        <ele>487</ele>
        <time>2026-06-10T15:42:06.453Z</time>
      </trkpt>
      <trkpt lat="30.586216909875354" lon="34.89612195408617">
        <ele>493</ele>
        <time>2026-06-10T15:42:07.453Z</time>
      </trkpt>
      <trkpt lat="30.586167922306835" lon="34.89591091638604">
        <ele>495</ele>
        <time>2026-06-10T15:42:08.453Z</time>
      </trkpt>
      <trkpt lat="30.586117817151198" lon="34.895528887857395">
        <ele>495</ele>
        <time>2026-06-10T15:42:09.453Z</time>
      </trkpt>
      <trkpt lat="30.58612191497062" lon="34.89540390436509">
        <ele>495</ele>
        <time>2026-06-10T15:42:10.453Z</time>
      </trkpt>
      <trkpt lat="30.58616289316482" lon="34.89521186564591">
        <ele>495</ele>
        <time>2026-06-10T15:42:11.453Z</time>
      </trkpt>
      <trkpt lat="30.5862729754956" lon="34.89484790477562">
        <ele>501</ele>
        <time>2026-06-10T15:42:12.453Z</time>
      </trkpt>
      <trkpt lat="30.586414909059144" lon="34.894475934531">
        <ele>501</ele>
        <time>2026-06-10T15:42:13.453Z</time>
      </trkpt>
      <trkpt lat="30.586472837324578" lon="34.894212929030054">
        <ele>498</ele>
        <time>2026-06-10T15:42:14.453Z</time>
      </trkpt>
      <trkpt lat="30.586472837324578" lon="34.89390093596058">
        <ele>498</ele>
        <time>2026-06-10T15:42:15.453Z</time>
      </trkpt>
      <trkpt lat="30.586298866263753" lon="34.89335387706802">
        <ele>498</ele>
        <time>2026-06-10T15:42:16.453Z</time>
      </trkpt>
      <trkpt lat="30.58621728240439" lon="34.89318977802671">
        <ele>498</ele>
        <time>2026-06-10T15:42:17.453Z</time>
      </trkpt>
      <trkpt lat="30.586192695487874" lon="34.89310111611562">
        <ele>498</ele>
        <time>2026-06-10T15:42:18.453Z</time>
      </trkpt>
      <trkpt lat="30.586065476821336" lon="34.892869216789364">
        <ele>498</ele>
        <time>2026-06-10T15:42:19.453Z</time>
      </trkpt>
      <trkpt lat="30.5858767908635" lon="34.89260639755293">
        <ele>498</ele>
        <time>2026-06-10T15:42:20.453Z</time>
      </trkpt>
      <trkpt lat="30.58573243586121" lon="34.89247172830563">
        <ele>497</ele>
        <time>2026-06-10T15:42:21.453Z</time>
      </trkpt>
      <trkpt lat="30.585598325407467" lon="34.89223554489543">
        <ele>497</ele>
        <time>2026-06-10T15:42:22.453Z</time>
      </trkpt>
      <trkpt lat="30.585508732173786" lon="34.892128815326">
        <ele>497</ele>
        <time>2026-06-10T15:42:23.453Z</time>
      </trkpt>
      <trkpt lat="30.585458627018152" lon="34.89197123554285">
        <ele>497</ele>
        <time>2026-06-10T15:42:24.453Z</time>
      </trkpt>
      <trkpt lat="30.585441676946918" lon="34.89183004703738">
        <ele>497</ele>
        <time>2026-06-10T15:42:25.453Z</time>
      </trkpt>
      <trkpt lat="30.58544824487831" lon="34.89178235375095">
        <ele>501.5</ele>
        <time>2026-06-10T15:42:26.453Z</time>
      </trkpt>
    </trkseg>
  </trk>
</gpx>